Time,TemperatureF,DewpointF,PressureIn,WindDirection,WindDirectionDegrees,WindSpeedMPH,WindSpeedGustMPH,Humidity,HourlyPrecipIn,Conditions,Clouds,dailyrainin,SoftwareType,DateUTC
2013-01-01 00:00:00,14.9,11.7,-100.00,North,350,0.0,0.0,87,0.00,,---,0.00,VWS V14.01,2013-01-01 08:00:00,
2013-01-01 00:01:00,14.7,11.6,-100.00,North,350,0.0,0.0,87,0.00,,---,0.00,VWS V14.01,2013-01-01 08:01:00,
2013-01-01 00:02:00,14.7,11.6,-100.00,North,350,0.0,0.0,87,0.00,,---,0.00,VWS V14.01,2013-01-01 08:02:00,
2013-01-01 00:03:00,14.7,11.6,-100.00,North,350,0.0,0.0,87,0.00,,---,0.00,VWS V14.01,2013-01-01 08:03:00,
2013-01-01 00:04:00,14.7,11.6,-100.00,North,350,0.0,0.0,87,0.00,,---,0.00,VWS V14.01,2013-01-01 08:04:00,
2013-01-01 00:05:00,14.9,11.7,-100.00,North,353,0.0,0.0,87,0.00,,---,0.00,VWS V14.01,2013-01-01 08:05:00,
2013-01-01 00:06:00,14.9,11.7,-100.00,North,353,0.0,0.0,87,0.00,,---,0.00,VWS V14.01,2013-01-01 08:06:00,
2013-01-01 00:07:00,15.1,12.2,-100.00,North,353,0.0,0.0,88,0.00,,---,0.00,VWS V14.01,2013-01-01 08:07:00,
2013-01-01 00:08:00,15.1,12.2,-100.00,North,353,0.0,0.0,88,0.00,,---,0.00,VWS V14.01,2013-01-01 08:08:00,
2013-01-01 00:09:00,15.3,12.4,-100.00,North,353,0.0,0.0,88,0.00,,---,0.00,VWS V14.01,2013-01-01 08:09:00,
2013-01-01 00:10:00,15.4,12.8,-100.00,NNW,346,2.7,3.6,89,0.00,,---,0.00,VWS V14.01,2013-01-01 08:10:00,
2013-01-01 00:11:00,15.8,13.4,-100.00,NNW,346,0.0,2.7,90,0.00,,---,0.00,VWS V14.01,2013-01-01 08:11:00,
2013-01-01 00:12:00,15.8,13.4,-100.00,NNW,345,0.0,2.7,90,0.00,,---,0.00,VWS V14.01,2013-01-01 08:12:00,
2013-01-01 00:13:00,15.8,13.6,-100.00,NNW,345,0.0,0.0,91,0.00,,---,0.00,VWS V14.01,2013-01-01 08:13:00,
2013-01-01 00:14:00,16.0,13.6,-100.00,NNW,345,0.0,0.0,90,0.00,,---,0.00,VWS V14.01,2013-01-01 08:14:00,
2013-01-01 00:15:00,16.0,13.6,-100.00,NNW,345,0.0,0.0,90,0.00,,---,0.00,VWS V14.01,2013-01-01 08:15:00,
2013-01-01 00:16:00,16.2,13.8,-100.00,NNW,345,0.0,0.0,90,0.00,,---,0.00,VWS V14.01,2013-01-01 08:16:00,
2013-01-01 00:17:00,16.2,13.8,-100.00,NNW,345,0.0,0.0,90,0.00,,---,0.00,VWS V14.01,2013-01-01 08:17:00,
2013-01-01 00:18:00,16.2,13.8,-100.00,NNW,345,0.0,0.0,90,0.00,,---,0.00,VWS V14.01,2013-01-01 08:18:00,
2013-01-01 00:19:00,16.2,13.8,-100.00,NNW,345,0.0,0.0,90,0.00,,---,0.00,VWS V14.01,2013-01-01 08:19:00,
2013-01-01 00:20:00,16.3,13.9,-100.00,NNW,345,0.0,0.0,90,0.00,,---,0.00,VWS V14.01,2013-01-01 08:20:00,
2013-01-01 00:21:00,16.3,13.7,-100.00,NNW,345,0.0,0.0,89,0.00,,---,0.00,VWS V14.01,2013-01-01 08:21:00,
2013-01-01 00:22:00,16.2,13.5,-100.00,NNW,345,0.0,0.0,89,0.00,,---,0.00,VWS V14.01,2013-01-01 08:22:00,
2013-01-01 00:23:00,16.2,13.5,-100.00,NNW,345,0.0,0.0,89,0.00,,---,0.00,VWS V14.01,2013-01-01 08:23:00,
2013-01-01 00:24:00,16.2,13.5,-100.00,NNW,345,0.0,0.0,89,0.00,,---,0.00,VWS V14.01,2013-01-01 08:24:00,
2013-01-01 00:25:00,16.2,13.5,-100.00,NNW,345,0.0,0.0,89,0.00,,---,0.00,VWS V14.01,2013-01-01 08:25:00,
2013-01-01 00:26:00,16.0,13.1,-100.00,NNW,345,0.0,0.0,88,0.00,,---,0.00,VWS V14.01,2013-01-01 08:26:00,
2013-01-01 00:27:00,15.8,12.9,-100.00,NNW,345,0.0,0.0,88,0.00,,---,0.00,VWS V14.01,2013-01-01 08:27:00,
2013-01-01 00:28:00,15.8,12.9,-100.00,NNW,345,0.0,0.0,88,0.00,,---,0.00,VWS V14.01,2013-01-01 08:28:00,
2013-01-01 00:29:00,15.4,12.3,-100.00,NNW,345,0.0,0.0,87,0.00,,---,0.00,VWS V14.01,2013-01-01 08:29:00,
2013-01-01 00:30:00,15.4,12.0,-100.00,NNW,345,0.0,0.0,86,0.00,,---,0.00,VWS V14.01,2013-01-01 08:30:00,
2013-01-01 00:31:00,15.4,12.0,-100.00,NNW,345,0.0,0.0,86,0.00,,---,0.00,VWS V14.01,2013-01-01 08:31:00,
2013-01-01 00:32:00,15.1,11.6,-100.00,NNW,345,0.0,0.0,86,0.00,,---,0.00,VWS V14.01,2013-01-01 08:32:00,
2013-01-01 00:33:00,14.9,11.2,-100.00,NNW,345,0.0,0.0,85,0.00,,---,0.00,VWS V14.01,2013-01-01 08:33:00,
2013-01-01 00:34:00,14.9,11.2,-100.00,NNW,345,0.0,0.0,85,0.00,,---,0.00,VWS V14.01,2013-01-01 08:34:00,
2013-01-01 00:35:00,14.7,11.0,-100.00,NNW,345,0.0,0.0,85,0.00,,---,0.00,VWS V14.01,2013-01-01 08:35:00,
2013-01-01 00:36:00,14.7,11.0,-100.00,NNW,345,0.0,0.0,85,0.00,,---,0.00,VWS V14.01,2013-01-01 08:36:00,
2013-01-01 00:37:00,14.5,10.6,-100.00,NNW,345,0.0,0.0,84,0.00,,---,0.00,VWS V14.01,2013-01-01 08:37:00,
2013-01-01 00:38:00,14.5,10.6,-100.00,NNW,345,0.0,0.0,84,0.00,,---,0.00,VWS V14.01,2013-01-01 08:38:00,
2013-01-01 00:39:00,14.4,10.4,-100.00,NNW,345,0.0,0.0,84,0.00,,---,0.00,VWS V14.01,2013-01-01 08:39:00,
2013-01-01 00:40:00,14.4,10.4,-100.00,NNW,345,0.0,0.0,84,0.00,,---,0.00,VWS V14.01,2013-01-01 08:40:00,
2013-01-01 00:41:00,14.2,10.2,-100.00,NNW,345,0.0,0.0,84,0.00,,---,0.00,VWS V14.01,2013-01-01 08:41:00,
2013-01-01 00:42:00,14.2,10.2,-100.00,NNW,345,0.0,0.0,84,0.00,,---,0.00,VWS V14.01,2013-01-01 08:42:00,
2013-01-01 00:43:00,14.0,10.1,-100.00,NNW,345,0.0,0.0,84,0.00,,---,0.00,VWS V14.01,2013-01-01 08:43:00,
2013-01-01 00:44:00,14.0,10.1,-100.00,NNW,345,0.0,0.0,84,0.00,,---,0.00,VWS V14.01,2013-01-01 08:44:00,
2013-01-01 00:45:00,13.8,9.9,-100.00,NNW,345,0.0,0.0,84,0.00,,---,0.00,VWS V14.01,2013-01-01 08:45:00,
2013-01-01 00:46:00,13.8,9.9,-100.00,NNW,345,0.0,0.0,84,0.00,,---,0.00,VWS V14.01,2013-01-01 08:46:00,
2013-01-01 00:47:00,13.8,9.9,-100.00,NNW,345,0.0,0.0,84,0.00,,---,0.00,VWS V14.01,2013-01-01 08:47:00,
2013-01-01 00:48:00,13.8,9.9,-100.00,NNW,345,0.0,0.0,84,0.00,,---,0.00,VWS V14.01,2013-01-01 08:48:00,
2013-01-01 00:49:00,13.6,9.7,-100.00,NNW,345,0.0,0.0,84,0.00,,---,0.00,VWS V14.01,2013-01-01 08:49:00,
2013-01-01 00:50:00,13.6,9.7,-100.00,NNW,345,0.0,0.0,84,0.00,,---,0.00,VWS V14.01,2013-01-01 08:50:00,
2013-01-01 00:51:00,13.6,9.7,-100.00,NNW,345,0.0,0.0,84,0.00,,---,0.00,VWS V14.01,2013-01-01 08:51:00,
2013-01-01 00:52:00,13.6,9.7,-100.00,NNW,345,0.0,0.0,84,0.00,,---,0.00,VWS V14.01,2013-01-01 08:52:00,
2013-01-01 00:53:00,13.6,9.7,-100.00,NNW,345,0.0,0.0,84,0.00,,---,0.00,VWS V14.01,2013-01-01 08:53:00,
2013-01-01 00:54:00,13.5,9.5,-100.00,NNW,345,0.0,0.0,84,0.00,,---,0.00,VWS V14.01,2013-01-01 08:54:00,
2013-01-01 00:55:00,13.5,9.5,-100.00,NNW,345,0.0,0.0,84,0.00,,---,0.00,VWS V14.01,2013-01-01 08:55:00,
2013-01-01 00:56:00,13.5,9.5,-100.00,NNW,345,0.0,0.0,84,0.00,,---,0.00,VWS V14.01,2013-01-01 08:56:00,
2013-01-01 00:57:00,13.5,9.5,-100.00,NNW,345,0.0,0.0,84,0.00,,---,0.00,VWS V14.01,2013-01-01 08:57:00,
2013-01-01 00:58:00,13.3,9.4,-100.00,NNW,345,0.0,0.0,84,0.00,,---,0.00,VWS V14.01,2013-01-01 08:58:00,
2013-01-01 00:59:00,13.3,9.4,-100.00,NNW,345,0.0,0.0,84,0.00,,---,0.00,VWS V14.01,2013-01-01 08:59:00,
2013-01-01 01:00:00,13.3,9.4,-100.00,NNW,345,0.0,0.0,84,0.00,,---,0.00,VWS V14.01,2013-01-01 09:00:00,
2013-01-01 01:01:00,13.3,9.4,-100.00,NNW,345,0.0,0.0,84,0.00,,---,0.00,VWS V14.01,2013-01-01 09:01:00,
2013-01-01 01:02:00,13.3,9.4,-100.00,NNW,345,0.0,0.0,84,0.00,,---,0.00,VWS V14.01,2013-01-01 09:02:00,
2013-01-01 01:03:00,13.3,9.4,-100.00,NNW,345,0.0,0.0,84,0.00,,---,0.00,VWS V14.01,2013-01-01 09:03:00,
2013-01-01 01:04:00,13.1,9.2,-100.00,NNW,345,0.0,0.0,84,0.00,,---,0.00,VWS V14.01,2013-01-01 09:04:00,
2013-01-01 01:05:00,13.1,9.2,-100.00,NNW,345,0.0,0.0,84,0.00,,---,0.00,VWS V14.01,2013-01-01 09:05:00,
2013-01-01 01:06:00,13.1,9.2,-100.00,NNW,345,0.0,0.0,84,0.00,,---,0.00,VWS V14.01,2013-01-01 09:06:00,
2013-01-01 01:07:00,13.1,9.2,-100.00,NNW,345,0.0,0.0,84,0.00,,---,0.00,VWS V14.01,2013-01-01 09:07:00,
2013-01-01 01:08:00,13.1,9.2,-100.00,NNW,345,0.0,0.0,84,0.00,,---,0.00,VWS V14.01,2013-01-01 09:08:00,
2013-01-01 01:09:00,13.1,9.2,-100.00,NNW,345,0.0,0.0,84,0.00,,---,0.00,VWS V14.01,2013-01-01 09:09:00,
2013-01-01 01:10:00,13.1,9.2,-100.00,NNW,345,0.0,0.0,84,0.00,,---,0.00,VWS V14.01,2013-01-01 09:10:00,
2013-01-01 01:11:00,12.9,9.0,-100.00,NNW,345,0.0,0.0,84,0.00,,---,0.00,VWS V14.01,2013-01-01 09:11:00,
2013-01-01 01:12:00,12.9,9.0,-100.00,NNW,345,0.0,0.0,84,0.00,,---,0.00,VWS V14.01,2013-01-01 09:12:00,
2013-01-01 01:13:00,12.9,9.0,-100.00,NNW,345,0.0,0.0,84,0.00,,---,0.00,VWS V14.01,2013-01-01 09:13:00,
2013-01-01 01:14:00,12.9,9.0,-100.00,NNW,345,0.0,0.0,84,0.00,,---,0.00,VWS V14.01,2013-01-01 09:14:00,
2013-01-01 01:15:00,12.7,8.8,-100.00,NNW,345,0.0,0.0,84,0.00,,---,0.00,VWS V14.01,2013-01-01 09:15:00,
2013-01-01 01:16:00,12.7,8.8,-100.00,NNW,345,0.0,0.0,84,0.00,,---,0.00,VWS V14.01,2013-01-01 09:16:00,
2013-01-01 01:17:00,12.7,8.8,-100.00,NNW,345,0.0,0.0,84,0.00,,---,0.00,VWS V14.01,2013-01-01 09:17:00,
2013-01-01 01:18:00,12.7,8.8,-100.00,NNW,345,0.0,0.0,84,0.00,,---,0.00,VWS V14.01,2013-01-01 09:18:00,
2013-01-01 01:19:00,12.7,8.8,-100.00,NNW,345,0.0,0.0,84,0.00,,---,0.00,VWS V14.01,2013-01-01 09:19:00,
2013-01-01 01:20:00,12.7,8.8,-100.00,NNW,345,0.0,0.0,84,0.00,,---,0.00,VWS V14.01,2013-01-01 09:20:00,
2013-01-01 01:21:00,12.7,8.8,-100.00,NNW,345,0.0,0.0,84,0.00,,---,0.00,VWS V14.01,2013-01-01 09:21:00,
2013-01-01 01:22:00,12.6,8.6,-100.00,NNW,345,0.0,0.0,84,0.00,,---,0.00,VWS V14.01,2013-01-01 09:22:00,
2013-01-01 01:23:00,12.6,8.6,-100.00,NNW,345,0.0,0.0,84,0.00,,---,0.00,VWS V14.01,2013-01-01 09:23:00,
2013-01-01 01:24:00,12.6,8.6,-100.00,NNW,345,0.0,0.0,84,0.00,,---,0.00,VWS V14.01,2013-01-01 09:24:00,
2013-01-01 01:25:00,12.6,8.6,-100.00,NNW,345,0.0,0.0,84,0.00,,---,0.00,VWS V14.01,2013-01-01 09:25:00,
2013-01-01 01:26:00,12.6,8.6,-100.00,NNW,345,0.0,0.0,84,0.00,,,0.00,VWS V14.01,2013-01-01 09:26:00,
2013-01-01 01:27:00,12.6,8.6,-100.00,NNW,345,0.0,0.0,84,0.00,,---,0.00,VWS V14.01,2013-01-01 09:27:00,
2013-01-01 01:28:00,12.6,8.6,-100.00,NNW,345,0.0,0.0,84,0.00,,---,0.00,VWS V14.01,2013-01-01 09:28:00,
2013-01-01 01:29:00,12.6,8.6,-100.00,NNW,345,0.0,0.0,84,0.00,,---,0.00,VWS V14.01,2013-01-01 09:29:00,
2013-01-01 01:30:00,12.6,8.6,-100.00,NNW,345,0.0,0.0,84,0.00,,---,0.00,VWS V14.01,2013-01-01 09:30:00,
2013-01-01 01:31:00,12.6,8.6,-100.00,NNW,345,0.0,0.0,84,0.00,,---,0.00,VWS V14.01,2013-01-01 09:31:00,
2013-01-01 01:32:00,12.4,8.5,-100.00,NNW,345,0.0,0.0,84,0.00,,---,0.00,VWS V14.01,2013-01-01 09:32:00,
2013-01-01 01:33:00,12.4,8.5,-100.00,NNW,345,0.0,0.0,84,0.00,,---,0.00,VWS V14.01,2013-01-01 09:33:00,
2013-01-01 01:34:00,12.4,8.5,-100.00,NNW,345,0.0,0.0,84,0.00,,---,0.00,VWS V14.01,2013-01-01 09:34:00,
2013-01-01 01:35:00,12.2,8.3,-100.00,NNW,345,0.0,0.0,84,0.00,,---,0.00,VWS V14.01,2013-01-01 09:35:00,
2013-01-01 01:36:00,12.2,8.3,-100.00,NNW,345,0.0,0.0,84,0.00,,---,0.00,VWS V14.01,2013-01-01 09:36:00,
2013-01-01 01:37:00,12.2,8.3,-100.00,NNW,345,0.0,0.0,84,0.00,,---,0.00,VWS V14.01,2013-01-01 09:37:00,
2013-01-01 01:38:00,12.2,8.3,-100.00,NNW,345,0.0,0.0,84,0.00,,---,0.00,VWS V14.01,2013-01-01 09:38:00,
2013-01-01 01:39:00,12.4,8.5,-100.00,NNW,345,0.0,0.0,84,0.00,,---,0.00,VWS V14.01,2013-01-01 09:39:00,
2013-01-01 01:40:00,12.4,8.5,-100.00,NNW,345,0.0,0.0,84,0.00,,---,0.00,VWS V14.01,2013-01-01 09:40:00,
2013-01-01 01:41:00,12.6,8.6,-100.00,NNW,345,0.0,0.0,84,0.00,,---,0.00,VWS V14.01,2013-01-01 09:41:00,
2013-01-01 01:42:00,12.6,8.6,-100.00,NNW,345,0.0,0.0,84,0.00,,---,0.00,VWS V14.01,2013-01-01 09:42:00,
2013-01-01 01:43:00,12.7,8.8,-100.00,NNW,345,0.0,0.0,84,0.00,,---,0.00,VWS V14.01,2013-01-01 09:43:00,
2013-01-01 01:44:00,12.7,8.8,-100.00,NNW,345,0.0,0.0,84,0.00,,---,0.00,VWS V14.01,2013-01-01 09:44:00,
2013-01-01 01:45:00,13.1,9.2,-100.00,NNW,345,0.0,0.0,84,0.00,,---,0.00,VWS V14.01,2013-01-01 09:45:00,
2013-01-01 01:46:00,13.3,9.4,-100.00,NNW,345,0.0,0.0,84,0.00,,---,0.00,VWS V14.01,2013-01-01 09:46:00,
2013-01-01 01:47:00,13.5,9.5,-100.00,NNW,345,0.0,0.0,84,0.00,,---,0.00,VWS V14.01,2013-01-01 09:47:00,
2013-01-01 01:48:00,13.6,9.7,-100.00,NNW,345,0.0,0.0,84,0.00,,---,0.00,VWS V14.01,2013-01-01 09:48:00,
2013-01-01 01:49:00,13.6,9.7,-100.00,NNW,345,0.0,0.0,84,0.00,,---,0.00,VWS V14.01,2013-01-01 09:49:00,
2013-01-01 01:50:00,14.2,10.2,-100.00,NNW,345,0.0,0.0,84,0.00,,---,0.00,VWS V14.01,2013-01-01 09:50:00,
2013-01-01 01:51:00,14.4,10.7,-100.00,NNW,345,0.0,0.0,85,0.00,,---,0.00,VWS V14.01,2013-01-01 09:51:00,
2013-01-01 01:52:00,14.5,10.9,-100.00,NNW,345,0.0,0.0,85,0.00,,---,0.00,VWS V14.01,2013-01-01 09:52:00,
2013-01-01 01:53:00,14.9,11.5,-100.00,NNW,345,0.0,0.0,86,0.00,,---,0.00,VWS V14.01,2013-01-01 09:53:00,
2013-01-01 01:54:00,15.1,11.9,-100.00,NNW,345,0.0,0.0,87,0.00,,---,0.00,VWS V14.01,2013-01-01 09:54:00,
2013-01-01 01:55:00,15.3,12.1,-100.00,NNW,345,0.0,0.0,87,0.00,,---,0.00,VWS V14.01,2013-01-01 09:55:00,
2013-01-01 01:56:00,15.4,12.5,-100.00,NNW,345,0.0,0.0,88,0.00,,---,0.00,VWS V14.01,2013-01-01 09:56:00,
2013-01-01 01:57:00,15.6,12.7,-100.00,NNW,344,0.0,0.0,88,0.00,,---,0.00,VWS V14.01,2013-01-01 09:57:00,
2013-01-01 01:58:00,15.6,12.7,-100.00,NNW,344,0.0,0.0,88,0.00,,---,0.00,VWS V14.01,2013-01-01 09:58:00,
2013-01-01 01:59:00,15.8,12.9,-100.00,NNW,344,0.0,0.0,88,0.00,,---,0.00,VWS V14.01,2013-01-01 09:59:00,
2013-01-01 02:00:00,16.0,13.1,-100.00,NNW,344,0.0,0.0,88,0.00,,---,0.00,VWS V14.01,2013-01-01 10:00:00,
2013-01-01 02:01:00,16.2,13.2,-100.00,NNW,344,0.0,0.0,88,0.00,,---,0.00,VWS V14.01,2013-01-01 10:01:00,
2013-01-01 02:02:00,16.2,13.2,-100.00,NNW,344,0.0,0.0,88,0.00,,---,0.00,VWS V14.01,2013-01-01 10:02:00,
2013-01-01 02:03:00,16.3,13.4,-100.00,NNW,344,0.0,0.0,88,0.00,,---,0.00,VWS V14.01,2013-01-01 10:03:00,
2013-01-01 02:04:00,16.5,13.9,-100.00,NNW,344,0.0,0.0,89,0.00,,---,0.00,VWS V14.01,2013-01-01 10:04:00,
2013-01-01 02:05:00,16.7,14.0,-100.00,NNW,344,0.0,0.0,89,0.00,,---,0.00,VWS V14.01,2013-01-01 10:05:00,
2013-01-01 02:06:00,16.7,14.0,-100.00,NNW,344,0.0,0.0,89,0.00,,---,0.00,VWS V14.01,2013-01-01 10:06:00,
2013-01-01 02:07:00,16.9,14.2,-100.00,NNW,344,0.0,0.0,89,0.00,,---,0.00,VWS V14.01,2013-01-01 10:07:00,
2013-01-01 02:08:00,16.9,14.2,-100.00,NNW,344,0.0,0.0,89,0.00,,---,0.00,VWS V14.01,2013-01-01 10:08:00,
2013-01-01 02:09:00,16.9,14.2,-100.00,NNW,344,0.0,0.0,89,0.00,,---,0.00,VWS V14.01,2013-01-01 10:09:00,
2013-01-01 02:10:00,16.9,14.2,-100.00,NNW,344,0.0,0.0,89,0.00,,---,0.00,VWS V14.01,2013-01-01 10:10:00,
2013-01-01 02:11:00,16.9,14.2,-100.00,NNW,344,0.0,0.0,89,0.00,,---,0.00,VWS V14.01,2013-01-01 10:11:00,
2013-01-01 02:12:00,16.9,14.2,-100.00,NNW,344,0.0,0.0,89,0.00,,---,0.00,VWS V14.01,2013-01-01 10:12:00,
2013-01-01 02:13:00,17.1,14.4,-100.00,NNW,344,0.0,0.0,89,0.00,,---,0.00,VWS V14.01,2013-01-01 10:13:00,
2013-01-01 02:14:00,17.1,14.4,-100.00,NNW,344,0.0,0.0,89,0.00,,---,0.00,VWS V14.01,2013-01-01 10:14:00,
2013-01-01 02:15:00,17.1,14.4,-100.00,NNW,344,0.0,0.0,89,0.00,,---,0.00,VWS V14.01,2013-01-01 10:15:00,
2013-01-01 02:16:00,17.1,14.4,-100.00,North,5,0.0,0.0,89,0.00,,---,0.00,VWS V14.01,2013-01-01 10:16:00,
2013-01-01 02:17:00,17.1,14.4,-100.00,North,5,0.0,0.0,89,0.00,,---,0.00,VWS V14.01,2013-01-01 10:17:00,
2013-01-01 02:18:00,17.1,14.4,-100.00,North,5,0.0,0.0,89,0.00,,---,0.00,VWS V14.01,2013-01-01 10:18:00,
2013-01-01 02:19:00,17.1,14.4,-100.00,North,5,0.0,0.0,89,0.00,,---,0.00,VWS V14.01,2013-01-01 10:19:00,
2013-01-01 02:20:00,17.1,14.1,-100.00,North,5,0.0,0.0,88,0.00,,---,0.00,VWS V14.01,2013-01-01 10:20:00,
2013-01-01 02:21:00,17.1,14.4,-100.00,North,5,0.0,0.0,89,0.00,,---,0.00,VWS V14.01,2013-01-01 10:21:00,
2013-01-01 02:22:00,17.2,14.6,-100.00,NW,326,0.0,0.0,89,0.00,,---,0.00,VWS V14.01,2013-01-01 10:22:00,
2013-01-01 02:23:00,17.2,14.6,-100.00,NW,324,0.0,3.6,89,0.00,,---,0.00,VWS V14.01,2013-01-01 10:23:00,
2013-01-01 02:24:00,17.2,14.3,-100.00,NW,324,0.0,0.0,88,0.00,,---,0.00,VWS V14.01,2013-01-01 10:24:00,
2013-01-01 02:25:00,17.2,14.6,-100.00,NNE,25,0.0,0.0,89,0.00,,---,0.00,VWS V14.01,2013-01-01 10:25:00,
2013-01-01 02:26:00,17.2,14.6,-100.00,East,86,4.0,4.0,89,0.00,,---,0.00,VWS V14.01,2013-01-01 10:26:00,
2013-01-01 02:27:00,17.2,14.6,-100.00,NE,51,0.0,4.0,89,0.00,,---,0.00,VWS V14.01,2013-01-01 10:27:00,
2013-01-01 02:28:00,17.4,14.7,-100.00,North,0,0.0,0.0,89,0.00,,---,0.00,VWS V14.01,2013-01-01 10:28:00,
2013-01-01 02:29:00,17.4,14.7,-100.00,ENE,73,0.0,0.0,89,0.00,,---,0.00,VWS V14.01,2013-01-01 10:29:00,
2013-01-01 02:30:00,17.4,14.7,-100.00,ENE,72,0.0,0.0,89,0.00,,---,0.00,VWS V14.01,2013-01-01 10:30:00,
2013-01-01 02:31:00,17.4,14.7,-100.00,ENE,72,0.0,0.0,89,0.00,,---,0.00,VWS V14.01,2013-01-01 10:31:00,
2013-01-01 02:32:00,17.4,14.7,-100.00,ENE,72,0.0,0.0,89,0.00,,---,0.00,VWS V14.01,2013-01-01 10:32:00,
2013-01-01 02:33:00,17.4,14.7,-100.00,ENE,72,0.0,0.0,89,0.00,,---,0.00,VWS V14.01,2013-01-01 10:33:00,
2013-01-01 02:34:00,17.4,14.7,-100.00,ENE,72,0.0,0.0,89,0.00,,---,0.00,VWS V14.01,2013-01-01 10:34:00,
2013-01-01 02:35:00,17.4,14.7,-100.00,ENE,72,0.0,0.0,89,0.00,,---,0.00,VWS V14.01,2013-01-01 10:35:00,
2013-01-01 02:36:00,17.4,14.7,-100.00,ENE,72,0.0,0.0,89,0.00,,---,0.00,VWS V14.01,2013-01-01 10:36:00,
2013-01-01 02:37:00,17.4,14.7,-100.00,ENE,72,0.0,0.0,89,0.00,,---,0.00,VWS V14.01,2013-01-01 10:37:00,
2013-01-01 02:38:00,17.4,14.7,-100.00,ENE,72,0.0,0.0,89,0.00,,---,0.00,VWS V14.01,2013-01-01 10:38:00,
2013-01-01 02:39:00,17.6,14.9,-100.00,ENE,72,0.0,0.0,89,0.00,,---,0.00,VWS V14.01,2013-01-01 10:39:00,
2013-01-01 02:40:00,17.6,14.9,-100.00,ENE,72,0.0,0.0,89,0.00,,---,0.00,VWS V14.01,2013-01-01 10:40:00,
2013-01-01 02:41:00,17.6,14.9,-100.00,ENE,72,0.0,0.0,89,0.00,,---,0.00,VWS V14.01,2013-01-01 10:41:00,
2013-01-01 02:42:00,17.6,14.9,-100.00,ENE,72,0.0,0.0,89,0.00,,---,0.00,VWS V14.01,2013-01-01 10:42:00,
2013-01-01 02:43:00,17.6,14.9,-100.00,ENE,72,0.0,0.0,89,0.00,,---,0.00,VWS V14.01,2013-01-01 10:43:00,
2013-01-01 02:44:00,17.6,14.9,-100.00,ENE,72,0.0,0.0,89,0.00,,---,0.00,VWS V14.01,2013-01-01 10:44:00,
2013-01-01 02:45:00,17.6,14.9,-100.00,ENE,72,0.0,0.0,89,0.00,,---,0.00,VWS V14.01,2013-01-01 10:45:00,
2013-01-01 02:46:00,17.6,14.9,-100.00,ENE,72,0.0,0.0,89,0.00,,---,0.00,VWS V14.01,2013-01-01 10:46:00,
2013-01-01 02:47:00,17.6,14.9,-100.00,ENE,72,0.0,0.0,89,0.00,,---,0.00,VWS V14.01,2013-01-01 10:47:00,
2013-01-01 02:48:00,17.6,14.9,-100.00,ENE,72,0.0,0.0,89,0.00,,---,0.00,VWS V14.01,2013-01-01 10:48:00,
2013-01-01 02:49:00,17.6,14.9,-100.00,ENE,72,0.0,0.0,89,0.00,,---,0.00,VWS V14.01,2013-01-01 10:49:00,
2013-01-01 02:50:00,17.6,14.7,-100.00,ENE,72,0.0,0.0,88,0.00,,---,0.00,VWS V14.01,2013-01-01 10:50:00,
2013-01-01 02:51:00,17.6,14.7,-100.00,ENE,72,0.0,0.0,88,0.00,,---,0.00,VWS V14.01,2013-01-01 10:51:00,
2013-01-01 02:52:00,17.8,14.8,-100.00,ENE,72,0.0,0.0,88,0.00,,---,0.00,VWS V14.01,2013-01-01 10:52:00,
2013-01-01 02:53:00,17.8,14.8,-100.00,ENE,72,0.0,0.0,88,0.00,,---,0.00,VWS V14.01,2013-01-01 10:53:00,
2013-01-01 02:54:00,17.8,14.8,-100.00,ENE,72,0.0,0.0,88,0.00,,---,0.00,VWS V14.01,2013-01-01 10:54:00,
2013-01-01 02:55:00,17.8,14.8,-100.00,ENE,72,0.0,0.0,88,0.00,,---,0.00,VWS V14.01,2013-01-01 10:55:00,
2013-01-01 02:56:00,17.8,14.8,-100.00,ENE,72,0.0,0.0,88,0.00,,---,0.00,VWS V14.01,2013-01-01 10:56:00,
2013-01-01 02:57:00,17.8,14.8,-100.00,ENE,72,0.0,0.0,88,0.00,,---,0.00,VWS V14.01,2013-01-01 10:57:00,
2013-01-01 02:58:00,17.8,14.8,-100.00,ENE,72,0.0,0.0,88,0.00,,---,0.00,VWS V14.01,2013-01-01 10:58:00,
2013-01-01 02:59:00,18.0,15.0,-100.00,ENE,72,0.0,0.0,88,0.00,,---,0.00,VWS V14.01,2013-01-01 10:59:00,
2013-01-01 03:00:00,18.0,15.0,-100.00,ENE,72,0.0,0.0,88,0.00,,---,0.00,VWS V14.01,2013-01-01 11:00:00,
2013-01-01 03:01:00,18.0,15.0,-100.00,ENE,72,0.0,0.0,88,0.00,,---,0.00,VWS V14.01,2013-01-01 11:01:00,
2013-01-01 03:02:00,18.1,15.2,-100.00,ENE,72,0.0,0.0,88,0.00,,---,0.00,VWS V14.01,2013-01-01 11:02:00,
2013-01-01 03:03:00,18.1,15.2,-100.00,ENE,72,0.0,0.0,88,0.00,,---,0.00,VWS V14.01,2013-01-01 11:03:00,
2013-01-01 03:04:00,18.1,15.2,-100.00,ENE,72,0.0,0.0,88,0.00,,---,0.00,VWS V14.01,2013-01-01 11:04:00,
2013-01-01 03:05:00,18.1,15.2,-100.00,ENE,72,0.0,0.0,88,0.00,,---,0.00,VWS V14.01,2013-01-01 11:05:00,
2013-01-01 03:06:00,18.1,15.2,-100.00,ENE,72,0.0,0.0,88,0.00,,---,0.00,VWS V14.01,2013-01-01 11:06:00,
2013-01-01 03:07:00,18.1,15.2,-100.00,ENE,72,0.0,0.0,88,0.00,,---,0.00,VWS V14.01,2013-01-01 11:07:00,
2013-01-01 03:08:00,18.1,15.2,-100.00,ENE,72,0.0,0.0,88,0.00,,---,0.00,VWS V14.01,2013-01-01 11:08:00,
2013-01-01 03:09:00,18.0,15.0,-100.00,ENE,72,0.0,0.0,88,0.00,,---,0.00,VWS V14.01,2013-01-01 11:09:00,
2013-01-01 03:10:00,18.0,15.0,-100.00,ENE,72,0.0,0.0,88,0.00,,---,0.00,VWS V14.01,2013-01-01 11:10:00,
2013-01-01 03:11:00,18.0,15.0,-100.00,ENE,72,0.0,0.0,88,0.00,,---,0.00,VWS V14.01,2013-01-01 11:11:00,
2013-01-01 03:12:00,18.0,15.0,-100.00,WNW,302,0.0,0.0,88,0.00,,---,0.00,VWS V14.01,2013-01-01 11:12:00,
2013-01-01 03:13:00,17.8,14.6,-100.00,WNW,291,0.0,0.0,87,0.00,,---,0.00,VWS V14.01,2013-01-01 11:13:00,
2013-01-01 03:14:00,17.8,14.6,-100.00,WNW,291,0.0,0.0,87,0.00,,---,0.00,VWS V14.01,2013-01-01 11:14:00,
2013-01-01 03:15:00,17.4,13.7,-100.00,WNW,291,0.0,0.0,85,0.00,,---,0.00,VWS V14.01,2013-01-01 11:15:00,
2013-01-01 03:16:00,17.1,12.8,-100.00,WNW,291,0.0,0.0,83,0.00,,---,0.00,VWS V14.01,2013-01-01 11:16:00,
2013-01-01 03:17:00,17.1,12.8,-100.00,WNW,285,0.0,0.0,83,0.00,,---,0.00,VWS V14.01,2013-01-01 11:17:00,
2013-01-01 03:18:00,16.9,12.4,-100.00,WNW,285,0.0,0.0,82,0.00,,---,0.00,VWS V14.01,2013-01-01 11:18:00,
2013-01-01 03:19:00,16.7,12.2,-100.00,WNW,288,0.0,0.0,82,0.00,,---,0.00,VWS V14.01,2013-01-01 11:19:00,
2013-01-01 03:20:00,16.5,12.0,-100.00,WNW,288,0.0,0.0,82,0.00,,---,0.00,VWS V14.01,2013-01-01 11:20:00,
2013-01-01 03:21:00,16.5,12.0,-100.00,West,271,0.0,0.0,82,0.00,,---,0.00,VWS V14.01,2013-01-01 11:21:00,
2013-01-01 03:22:00,16.5,12.0,-100.00,West,271,0.0,0.0,82,0.00,,---,0.00,VWS V14.01,2013-01-01 11:22:00,
2013-01-01 03:23:00,16.3,11.8,-100.00,West,271,0.0,0.0,82,0.00,,---,0.00,VWS V14.01,2013-01-01 11:23:00,
2013-01-01 03:24:00,16.2,11.6,-100.00,West,271,0.0,0.0,82,0.00,,---,0.00,VWS V14.01,2013-01-01 11:24:00,
2013-01-01 03:25:00,16.2,11.9,-100.00,West,271,0.0,0.0,83,0.00,,---,0.00,VWS V14.01,2013-01-01 11:25:00,
2013-01-01 03:26:00,16.2,11.9,-100.00,West,271,0.0,0.0,83,0.00,,---,0.00,VWS V14.01,2013-01-01 11:26:00,
2013-01-01 03:27:00,16.2,11.9,-100.00,West,271,0.0,0.0,83,0.00,,---,0.00,VWS V14.01,2013-01-01 11:27:00,
2013-01-01 03:28:00,16.2,11.9,-100.00,West,271,0.0,0.0,83,0.00,,---,0.00,VWS V14.01,2013-01-01 11:28:00,
2013-01-01 03:29:00,16.2,11.9,-100.00,West,271,0.0,0.0,83,0.00,,---,0.00,VWS V14.01,2013-01-01 11:29:00,
2013-01-01 03:30:00,16.2,11.9,-100.00,West,271,0.0,0.0,83,0.00,,---,0.00,VWS V14.01,2013-01-01 11:30:00,
2013-01-01 03:31:00,16.2,11.9,-100.00,West,271,0.0,0.0,83,0.00,,---,0.00,VWS V14.01,2013-01-01 11:31:00,
2013-01-01 03:32:00,16.2,12.2,-100.00,West,271,0.0,0.0,84,0.00,,---,0.00,VWS V14.01,2013-01-01 11:32:00,
2013-01-01 03:33:00,16.2,12.2,-100.00,West,271,0.0,0.0,84,0.00,,---,0.00,VWS V14.01,2013-01-01 11:33:00,
2013-01-01 03:34:00,16.2,12.2,-100.00,West,271,0.0,0.0,84,0.00,,---,0.00,VWS V14.01,2013-01-01 11:34:00,
2013-01-01 03:35:00,16.3,12.4,-100.00,West,271,0.0,0.0,84,0.00,,---,0.00,VWS V14.01,2013-01-01 11:35:00,
2013-01-01 03:36:00,16.3,12.4,-100.00,West,271,0.0,0.0,84,0.00,,---,0.00,VWS V14.01,2013-01-01 11:36:00,
2013-01-01 03:37:00,16.3,12.4,-100.00,West,271,0.0,0.0,84,0.00,,---,0.00,VWS V14.01,2013-01-01 11:37:00,
2013-01-01 03:38:00,16.3,12.4,-100.00,West,271,0.0,0.0,84,0.00,,---,0.00,VWS V14.01,2013-01-01 11:38:00,
2013-01-01 03:39:00,16.3,12.4,-100.00,West,271,0.0,0.0,84,0.00,,---,0.00,VWS V14.01,2013-01-01 11:39:00,
2013-01-01 03:40:00,16.2,12.2,-100.00,West,271,0.0,0.0,84,0.00,,---,0.00,VWS V14.01,2013-01-01 11:40:00,
2013-01-01 03:41:00,16.2,12.2,-100.00,West,271,0.0,0.0,84,0.00,,---,0.00,VWS V14.01,2013-01-01 11:41:00,
2013-01-01 03:42:00,16.2,12.2,-100.00,West,271,0.0,0.0,84,0.00,,---,0.00,VWS V14.01,2013-01-01 11:42:00,
2013-01-01 03:43:00,16.2,12.2,-100.00,West,271,0.0,0.0,84,0.00,,---,0.00,VWS V14.01,2013-01-01 11:43:00,
2013-01-01 03:44:00,16.3,12.4,-100.00,West,271,0.0,0.0,84,0.00,,---,0.00,VWS V14.01,2013-01-01 11:44:00,
2013-01-01 03:45:00,16.3,12.6,-100.00,West,266,0.0,0.0,85,0.00,,---,0.00,VWS V14.01,2013-01-01 11:45:00,
2013-01-01 03:46:00,16.5,12.8,-100.00,West,266,0.0,0.0,85,0.00,,---,0.00,VWS V14.01,2013-01-01 11:46:00,
2013-01-01 03:47:00,16.5,12.8,-100.00,West,268,0.0,0.0,85,0.00,,---,0.00,VWS V14.01,2013-01-01 11:47:00,
2013-01-01 03:48:00,16.5,12.8,-100.00,West,272,0.0,0.0,85,0.00,,---,0.00,VWS V14.01,2013-01-01 11:48:00,
2013-01-01 03:49:00,16.5,12.8,-100.00,WNW,294,0.0,0.0,85,0.00,,---,0.00,VWS V14.01,2013-01-01 11:49:00,
2013-01-01 03:50:00,16.5,12.8,-100.00,WNW,295,0.0,0.0,85,0.00,,---,0.00,VWS V14.01,2013-01-01 11:50:00,
2013-01-01 03:51:00,16.5,12.8,-100.00,WNW,295,0.0,0.0,85,0.00,,---,0.00,VWS V14.01,2013-01-01 11:51:00,
2013-01-01 03:52:00,16.5,12.8,-100.00,WNW,298,0.0,0.0,85,0.00,,---,0.00,VWS V14.01,2013-01-01 11:52:00,
2013-01-01 03:53:00,16.5,12.8,-100.00,WNW,298,0.0,0.0,85,0.00,,---,0.00,VWS V14.01,2013-01-01 11:53:00,
2013-01-01 03:54:00,16.5,12.8,-100.00,WNW,298,0.0,0.0,85,0.00,,---,0.00,VWS V14.01,2013-01-01 11:54:00,
2013-01-01 03:55:00,16.5,12.8,-100.00,WNW,298,0.0,0.0,85,0.00,,---,0.00,VWS V14.01,2013-01-01 11:55:00,
2013-01-01 03:56:00,16.5,12.8,-100.00,WNW,298,0.0,0.0,85,0.00,,---,0.00,VWS V14.01,2013-01-01 11:56:00,
2013-01-01 03:57:00,16.5,12.8,-100.00,WNW,298,0.0,0.0,85,0.00,,---,0.00,VWS V14.01,2013-01-01 11:57:00,
2013-01-01 03:58:00,16.5,12.8,-100.00,WNW,298,0.0,0.0,85,0.00,,---,0.00,VWS V14.01,2013-01-01 11:58:00,
2013-01-01 03:59:00,16.7,13.0,-100.00,WNW,298,0.0,0.0,85,0.00,,---,0.00,VWS V14.01,2013-01-01 11:59:00,
2013-01-01 04:00:00,16.7,13.2,-100.00,WNW,298,0.0,0.0,86,0.00,,---,0.00,VWS V14.01,2013-01-01 12:00:00,
2013-01-01 04:01:00,16.9,13.4,-100.00,NW,320,0.0,0.0,86,0.00,,---,0.00,VWS V14.01,2013-01-01 12:01:00,
2013-01-01 04:02:00,16.9,13.4,-100.00,NW,320,0.0,0.0,86,0.00,,---,0.00,VWS V14.01,2013-01-01 12:02:00,
2013-01-01 04:03:00,16.9,13.4,-100.00,NW,320,0.0,0.0,86,0.00,,---,0.00,VWS V14.01,2013-01-01 12:03:00,
2013-01-01 04:04:00,17.1,13.9,-100.00,NW,320,0.0,0.0,87,0.00,,---,0.00,VWS V14.01,2013-01-01 12:04:00,
2013-01-01 04:05:00,17.1,13.9,-100.00,NW,321,0.0,0.0,87,0.00,,---,0.00,VWS V14.01,2013-01-01 12:05:00,
2013-01-01 04:06:00,17.1,13.9,-100.00,NW,320,0.0,0.0,87,0.00,,---,0.00,VWS V14.01,2013-01-01 12:06:00,
2013-01-01 04:07:00,17.2,14.0,-100.00,NW,320,0.0,0.0,87,0.00,,---,0.00,VWS V14.01,2013-01-01 12:07:00,
2013-01-01 04:08:00,17.2,14.0,-100.00,NW,320,0.0,0.0,87,0.00,,---,0.00,VWS V14.01,2013-01-01 12:08:00,
2013-01-01 04:09:00,17.2,14.0,-100.00,NW,320,0.0,0.0,87,0.00,,---,0.00,VWS V14.01,2013-01-01 12:09:00,
2013-01-01 04:10:00,17.2,14.0,-100.00,NW,320,0.0,0.0,87,0.00,,---,0.00,VWS V14.01,2013-01-01 12:10:00,
2013-01-01 04:11:00,17.4,14.5,-100.00,NE,34,0.0,0.0,88,0.00,,---,0.00,VWS V14.01,2013-01-01 12:11:00,
2013-01-01 04:12:00,17.4,14.5,-100.00,NE,36,0.0,0.0,88,0.00,,---,0.00,VWS V14.01,2013-01-01 12:12:00,
2013-01-01 04:13:00,17.4,14.5,-100.00,NE,36,0.0,0.0,88,0.00,,---,0.00,VWS V14.01,2013-01-01 12:13:00,
2013-01-01 04:14:00,17.4,14.5,-100.00,NE,43,0.0,0.0,88,0.00,,---,0.00,VWS V14.01,2013-01-01 12:14:00,
2013-01-01 04:15:00,17.4,14.5,-100.00,East,80,0.0,0.0,88,0.00,,---,0.00,VWS V14.01,2013-01-01 12:15:00,
2013-01-01 04:16:00,17.4,14.5,-100.00,ENE,60,0.0,0.0,88,0.00,,---,0.00,VWS V14.01,2013-01-01 12:16:00,
2013-01-01 04:17:00,17.4,14.5,-100.00,NNW,341,0.0,0.0,88,0.00,,---,0.00,VWS V14.01,2013-01-01 12:17:00,
2013-01-01 04:18:00,17.4,14.5,-100.00,NNW,341,0.0,0.0,88,0.00,,---,0.00,VWS V14.01,2013-01-01 12:18:00,
2013-01-01 04:19:00,17.4,14.5,-100.00,NNW,341,0.0,0.0,88,0.00,,---,0.00,VWS V14.01,2013-01-01 12:19:00,
2013-01-01 04:20:00,17.4,14.5,-100.00,NNW,341,0.0,0.0,88,0.00,,---,0.00,VWS V14.01,2013-01-01 12:20:00,
2013-01-01 04:21:00,17.2,14.3,-100.00,North,0,0.0,0.0,88,0.00,,---,0.00,VWS V14.01,2013-01-01 12:21:00,
2013-01-01 04:22:00,17.2,14.3,-100.00,NE,54,0.0,0.0,88,0.00,,---,0.00,VWS V14.01,2013-01-01 12:22:00,
2013-01-01 04:23:00,17.2,14.3,-100.00,NE,54,0.0,0.0,88,0.00,,---,0.00,VWS V14.01,2013-01-01 12:23:00,
2013-01-01 04:24:00,17.2,14.3,-100.00,ENE,68,2.2,4.9,88,0.00,,---,0.00,VWS V14.01,2013-01-01 12:24:00,
2013-01-01 04:25:00,17.2,14.3,-100.00,ENE,69,0.0,2.2,88,0.00,,---,0.00,VWS V14.01,2013-01-01 12:25:00,
2013-01-01 04:26:00,17.1,14.1,-100.00,ENE,69,0.0,0.0,88,0.00,,---,0.00,VWS V14.01,2013-01-01 12:26:00,
2013-01-01 04:27:00,17.1,14.1,-100.00,East,85,0.0,0.0,88,0.00,,---,0.00,VWS V14.01,2013-01-01 12:27:00,
2013-01-01 04:28:00,17.1,14.1,-100.00,East,85,0.0,0.0,88,0.00,,---,0.00,VWS V14.01,2013-01-01 12:28:00,
2013-01-01 04:29:00,17.1,14.1,-100.00,East,90,0.0,0.0,88,0.00,,---,0.00,VWS V14.01,2013-01-01 12:29:00,
2013-01-01 04:30:00,17.2,14.3,-100.00,East,90,0.0,0.0,88,0.00,,---,0.00,VWS V14.01,2013-01-01 12:30:00,
2013-01-01 04:31:00,17.2,14.3,-100.00,East,90,0.0,0.0,88,0.00,,---,0.00,VWS V14.01,2013-01-01 12:31:00,
2013-01-01 04:32:00,17.2,14.3,-100.00,East,90,0.0,0.0,88,0.00,,---,0.00,VWS V14.01,2013-01-01 12:32:00,
2013-01-01 04:33:00,17.2,14.3,-100.00,East,90,0.0,0.0,88,0.00,,---,0.00,VWS V14.01,2013-01-01 12:33:00,
2013-01-01 04:34:00,17.2,14.3,-100.00,East,90,0.0,0.0,88,0.00,,---,0.00,VWS V14.01,2013-01-01 12:34:00,
2013-01-01 04:35:00,17.2,14.3,-100.00,East,90,0.0,0.0,88,0.00,,---,0.00,VWS V14.01,2013-01-01 12:35:00,
2013-01-01 04:36:00,17.2,14.3,-100.00,East,90,0.0,0.0,88,0.00,,---,0.00,VWS V14.01,2013-01-01 12:36:00,
2013-01-01 04:37:00,17.4,14.5,-100.00,East,90,0.0,0.0,88,0.00,,---,0.00,VWS V14.01,2013-01-01 12:37:00,
2013-01-01 04:38:00,17.4,14.5,-100.00,East,90,0.0,0.0,88,0.00,,---,0.00,VWS V14.01,2013-01-01 12:38:00,
2013-01-01 04:39:00,17.4,14.5,-100.00,ENE,76,0.0,2.2,88,0.00,,---,0.00,VWS V14.01,2013-01-01 12:39:00,
2013-01-01 04:40:00,17.4,14.5,-100.00,ENE,75,0.0,2.7,88,0.00,,---,0.00,VWS V14.01,2013-01-01 12:40:00,
2013-01-01 04:41:00,17.4,14.5,-100.00,ENE,63,0.0,0.0,88,0.00,,---,0.00,VWS V14.01,2013-01-01 12:41:00,
2013-01-01 04:42:00,17.2,14.3,-100.00,East,84,0.0,0.0,88,0.00,,---,0.00,VWS V14.01,2013-01-01 12:42:00,
2013-01-01 04:43:00,17.2,14.3,-100.00,East,84,0.0,0.0,88,0.00,,---,0.00,VWS V14.01,2013-01-01 12:43:00,
2013-01-01 04:44:00,17.2,14.3,-100.00,East,84,0.0,0.0,88,0.00,,---,0.00,VWS V14.01,2013-01-01 12:44:00,
2013-01-01 04:45:00,17.2,14.3,-100.00,East,84,0.0,0.0,88,0.00,,---,0.00,VWS V14.01,2013-01-01 12:45:00,
2013-01-01 04:46:00,17.4,14.5,-100.00,East,84,0.0,0.0,88,0.00,,---,0.00,VWS V14.01,2013-01-01 12:46:00,
2013-01-01 04:47:00,17.4,14.5,-100.00,East,83,0.0,0.0,88,0.00,,---,0.00,VWS V14.01,2013-01-01 12:47:00,
2013-01-01 04:48:00,17.4,14.5,-100.00,East,83,0.0,0.0,88,0.00,,---,0.00,VWS V14.01,2013-01-01 12:48:00,
2013-01-01 04:49:00,17.4,14.5,-100.00,East,83,0.0,0.0,88,0.00,,---,0.00,VWS V14.01,2013-01-01 12:49:00,
2013-01-01 04:50:00,17.4,14.5,-100.00,East,83,0.0,0.0,88,0.00,,---,0.00,VWS V14.01,2013-01-01 12:50:00,
2013-01-01 04:51:00,17.4,14.5,-100.00,East,83,0.0,0.0,88,0.00,,---,0.00,VWS V14.01,2013-01-01 12:51:00,
2013-01-01 04:52:00,17.2,14.3,-100.00,East,83,0.0,0.0,88,0.00,,---,0.00,VWS V14.01,2013-01-01 12:52:00,
2013-01-01 04:53:00,17.2,14.3,-100.00,East,83,0.0,0.0,88,0.00,,---,0.00,VWS V14.01,2013-01-01 12:53:00,
2013-01-01 04:54:00,17.2,14.3,-100.00,East,83,0.0,0.0,88,0.00,,---,0.00,VWS V14.01,2013-01-01 12:54:00,
2013-01-01 04:55:00,17.2,14.3,-100.00,East,83,0.0,0.0,88,0.00,,---,0.00,VWS V14.01,2013-01-01 12:55:00,
2013-01-01 04:56:00,17.2,14.3,-100.00,East,83,0.0,0.0,88,0.00,,---,0.00,VWS V14.01,2013-01-01 12:56:00,
2013-01-01 04:57:00,17.4,14.5,-100.00,East,83,0.0,0.0,88,0.00,,---,0.00,VWS V14.01,2013-01-01 12:57:00,
2013-01-01 04:58:00,17.4,14.5,-100.00,East,83,0.0,0.0,88,0.00,,---,0.00,VWS V14.01,2013-01-01 12:58:00,
2013-01-01 04:59:00,17.4,14.5,-100.00,East,83,0.0,0.0,88,0.00,,---,0.00,VWS V14.01,2013-01-01 12:59:00,
2013-01-01 05:00:00,17.4,14.5,-100.00,East,83,0.0,0.0,88,0.00,,---,0.00,VWS V14.01,2013-01-01 13:00:00,
2013-01-01 05:01:00,17.4,14.5,-100.00,East,83,0.0,0.0,88,0.00,,---,0.00,VWS V14.01,2013-01-01 13:01:00,
2013-01-01 05:02:00,17.4,14.5,-100.00,SE,139,0.0,0.0,88,0.00,,---,0.00,VWS V14.01,2013-01-01 13:02:00,
2013-01-01 05:03:00,17.4,14.5,-100.00,SE,139,0.0,0.0,88,0.00,,---,0.00,VWS V14.01,2013-01-01 13:03:00,
2013-01-01 05:04:00,17.4,14.5,-100.00,SE,138,0.0,0.0,88,0.00,,---,0.00,VWS V14.01,2013-01-01 13:04:00,
2013-01-01 05:05:00,17.4,14.5,-100.00,SE,139,0.0,0.0,88,0.00,,---,0.00,VWS V14.01,2013-01-01 13:05:00,
2013-01-01 05:06:00,17.6,14.7,-100.00,SE,138,0.0,0.0,88,0.00,,---,0.00,VWS V14.01,2013-01-01 13:06:00,
2013-01-01 05:07:00,17.6,14.7,-100.00,SE,138,0.0,0.0,88,0.00,,---,0.00,VWS V14.01,2013-01-01 13:07:00,
2013-01-01 05:08:00,17.6,14.7,-100.00,SE,138,0.0,0.0,88,0.00,,---,0.00,VWS V14.01,2013-01-01 13:08:00,
2013-01-01 05:09:00,17.6,14.7,-100.00,SE,139,0.0,0.0,88,0.00,,---,0.00,VWS V14.01,2013-01-01 13:09:00,
2013-01-01 05:10:00,17.6,14.7,-100.00,SE,139,0.0,0.0,88,0.00,,---,0.00,VWS V14.01,2013-01-01 13:10:00,
2013-01-01 05:11:00,17.6,14.7,-100.00,SE,138,0.0,0.0,88,0.00,,---,0.00,VWS V14.01,2013-01-01 13:11:00,
2013-01-01 05:12:00,17.6,14.7,-100.00,SE,138,0.0,0.0,88,0.00,,---,0.00,VWS V14.01,2013-01-01 13:12:00,
2013-01-01 05:13:00,17.6,14.7,-100.00,SE,138,0.0,0.0,88,0.00,,---,0.00,VWS V14.01,2013-01-01 13:13:00,
2013-01-01 05:14:00,17.6,14.7,-100.00,SE,138,0.0,0.0,88,0.00,,---,0.00,VWS V14.01,2013-01-01 13:14:00,
2013-01-01 05:15:00,17.6,14.7,-100.00,SE,138,0.0,0.0,88,0.00,,---,0.00,VWS V14.01,2013-01-01 13:15:00,
2013-01-01 05:16:00,17.6,14.7,-100.00,SE,144,0.0,0.0,88,0.00,,---,0.00,VWS V14.01,2013-01-01 13:16:00,
2013-01-01 05:17:00,17.6,14.7,-100.00,SE,144,0.0,0.0,88,0.00,,---,0.00,VWS V14.01,2013-01-01 13:17:00,
2013-01-01 05:18:00,17.6,14.7,-100.00,SE,144,0.0,0.0,88,0.00,,---,0.00,VWS V14.01,2013-01-01 13:18:00,
2013-01-01 05:19:00,17.6,14.7,-100.00,SE,145,0.0,0.0,88,0.00,,---,0.00,VWS V14.01,2013-01-01 13:19:00,
2013-01-01 05:20:00,17.6,14.7,-100.00,SSW,192,0.0,3.6,88,0.00,,---,0.00,VWS V14.01,2013-01-01 13:20:00,
2013-01-01 05:21:00,17.6,14.7,-100.00,SSE,158,0.0,3.6,88,0.00,,---,0.00,VWS V14.01,2013-01-01 13:21:00,
2013-01-01 05:22:00,17.6,14.7,-100.00,SSE,162,2.7,3.6,88,0.00,,---,0.00,VWS V14.01,2013-01-01 13:22:00,
2013-01-01 05:23:00,17.6,14.7,-100.00,SSE,162,0.0,3.6,88,0.00,,---,0.00,VWS V14.01,2013-01-01 13:23:00,
2013-01-01 05:24:00,17.6,14.4,-100.00,SSE,162,0.0,0.0,87,0.00,,---,0.00,VWS V14.01,2013-01-01 13:24:00,
2013-01-01 05:25:00,17.6,14.4,-100.00,SSE,162,0.0,0.0,87,0.00,,---,0.00,VWS V14.01,2013-01-01 13:25:00,
2013-01-01 05:26:00,17.6,14.4,-100.00,SSE,166,3.1,3.1,87,0.00,,---,0.00,VWS V14.01,2013-01-01 13:26:00,
2013-01-01 05:27:00,17.6,14.4,-100.00,South,169,2.7,3.6,87,0.00,,---,0.00,VWS V14.01,2013-01-01 13:27:00,
2013-01-01 05:28:00,17.6,14.4,-100.00,South,169,2.2,3.6,87,0.00,,---,0.00,VWS V14.01,2013-01-01 13:28:00,
2013-01-01 05:29:00,17.6,14.4,-100.00,SSE,164,0.0,2.7,87,0.00,,---,0.00,VWS V14.01,2013-01-01 13:29:00,
2013-01-01 05:30:00,17.6,14.4,-100.00,SSE,164,0.0,2.2,87,0.00,,---,0.00,VWS V14.01,2013-01-01 13:30:00,
2013-01-01 05:31:00,17.6,14.4,-100.00,SSW,202,0.0,0.0,87,0.00,,---,0.00,VWS V14.01,2013-01-01 13:31:00,
2013-01-01 05:32:00,17.4,14.2,-100.00,SSE,150,0.0,0.0,87,0.00,,---,0.00,VWS V14.01,2013-01-01 13:32:00,
2013-01-01 05:33:00,17.4,14.2,-100.00,SSE,150,0.0,0.0,87,0.00,,---,0.00,VWS V14.01,2013-01-01 13:33:00,
2013-01-01 05:34:00,17.4,14.2,-100.00,SSE,150,0.0,0.0,87,0.00,,---,0.00,VWS V14.01,2013-01-01 13:34:00,
2013-01-01 05:35:00,17.4,14.2,-100.00,SSE,158,0.0,0.0,87,0.00,,---,0.00,VWS V14.01,2013-01-01 13:35:00,
2013-01-01 05:36:00,17.4,14.2,-100.00,SSE,158,0.0,0.0,87,0.00,,---,0.00,VWS V14.01,2013-01-01 13:36:00,
2013-01-01 05:37:00,17.4,14.2,-100.00,SSE,158,0.0,0.0,87,0.00,,---,0.00,VWS V14.01,2013-01-01 13:37:00,
2013-01-01 05:38:00,17.4,14.2,-100.00,SSE,158,0.0,0.0,87,0.00,,---,0.00,VWS V14.01,2013-01-01 13:38:00,
2013-01-01 05:39:00,17.4,14.2,-100.00,SSE,160,0.0,0.0,87,0.00,,---,0.00,VWS V14.01,2013-01-01 13:39:00,
2013-01-01 05:40:00,17.4,14.2,-100.00,SSE,160,0.0,0.0,87,0.00,,---,0.00,VWS V14.01,2013-01-01 13:40:00,
2013-01-01 05:41:00,17.4,14.2,-100.00,SSE,160,0.0,0.0,87,0.00,,---,0.00,VWS V14.01,2013-01-01 13:41:00,
2013-01-01 05:42:00,17.2,13.8,-100.00,SSE,167,0.0,0.0,86,0.00,,---,0.00,VWS V14.01,2013-01-01 13:42:00,
2013-01-01 05:43:00,17.2,13.8,-100.00,SSE,167,0.0,0.0,86,0.00,,---,0.00,VWS V14.01,2013-01-01 13:43:00,
2013-01-01 05:44:00,17.1,13.6,-100.00,SSE,156,0.0,0.0,86,0.00,,---,0.00,VWS V14.01,2013-01-01 13:44:00,
2013-01-01 05:45:00,17.1,13.6,-100.00,SSE,160,0.0,0.0,86,0.00,,---,0.00,VWS V14.01,2013-01-01 13:45:00,
2013-01-01 05:46:00,17.1,13.6,-100.00,SSE,160,0.0,0.0,86,0.00,,---,0.00,VWS V14.01,2013-01-01 13:46:00,
2013-01-01 05:47:00,17.1,13.6,-100.00,SSE,160,0.0,0.0,86,0.00,,---,0.00,VWS V14.01,2013-01-01 13:47:00,
2013-01-01 05:48:00,17.1,13.6,-100.00,SSE,160,0.0,0.0,86,0.00,,---,0.00,VWS V14.01,2013-01-01 13:48:00,
2013-01-01 05:49:00,17.1,13.6,-100.00,SSE,160,0.0,0.0,86,0.00,,---,0.00,VWS V14.01,2013-01-01 13:49:00,
2013-01-01 05:50:00,17.1,13.6,-100.00,SSE,160,0.0,0.0,86,0.00,,---,0.00,VWS V14.01,2013-01-01 13:50:00,
2013-01-01 05:51:00,16.9,13.4,-100.00,SSE,160,0.0,0.0,86,0.00,,---,0.00,VWS V14.01,2013-01-01 13:51:00,
2013-01-01 05:52:00,16.9,13.4,-100.00,SSE,160,0.0,2.7,86,0.00,,---,0.00,VWS V14.01,2013-01-01 13:52:00,
2013-01-01 05:53:00,16.9,13.4,-100.00,SSE,161,2.2,2.7,86,0.00,,---,0.00,VWS V14.01,2013-01-01 13:53:00,
2013-01-01 05:54:00,16.9,13.4,-100.00,SSE,159,2.2,2.7,86,0.00,,---,0.00,VWS V14.01,2013-01-01 13:54:00,
2013-01-01 05:55:00,16.9,13.4,-100.00,SSE,159,0.0,2.2,86,0.00,,---,0.00,VWS V14.01,2013-01-01 13:55:00,
2013-01-01 05:56:00,16.9,13.4,-100.00,SSE,159,0.0,0.0,86,0.00,,---,0.00,VWS V14.01,2013-01-01 13:56:00,
2013-01-01 05:57:00,16.9,13.4,-100.00,SSE,162,0.0,0.0,86,0.00,,---,0.00,VWS V14.01,2013-01-01 13:57:00,
2013-01-01 05:58:00,16.9,13.4,-100.00,SSE,162,0.0,0.0,86,0.00,,---,0.00,VWS V14.01,2013-01-01 13:58:00,
2013-01-01 05:59:00,16.9,13.4,-100.00,SSE,162,0.0,0.0,86,0.00,,---,0.00,VWS V14.01,2013-01-01 13:59:00,
2013-01-01 06:00:00,17.1,13.6,-100.00,SSE,162,0.0,0.0,86,0.00,,---,0.00,VWS V14.01,2013-01-01 14:00:00,
2013-01-01 06:01:00,17.1,13.6,-100.00,SSE,162,0.0,0.0,86,0.00,,---,0.00,VWS V14.01,2013-01-01 14:01:00,
2013-01-01 06:02:00,17.1,13.6,-100.00,SSE,162,0.0,0.0,86,0.00,,---,0.00,VWS V14.01,2013-01-01 14:02:00,
2013-01-01 06:03:00,17.1,13.6,-100.00,SSE,162,0.0,0.0,86,0.00,,---,0.00,VWS V14.01,2013-01-01 14:03:00,
2013-01-01 06:04:00,17.1,13.6,-100.00,SSE,163,2.7,2.7,86,0.00,,---,0.00,VWS V14.01,2013-01-01 14:04:00,
2013-01-01 06:05:00,17.1,13.6,-100.00,SSE,164,0.0,4.0,86,0.00,,---,0.00,VWS V14.01,2013-01-01 14:05:00,
2013-01-01 06:06:00,17.1,13.6,-100.00,SSE,164,0.0,0.0,86,0.00,,---,0.00,VWS V14.01,2013-01-01 14:06:00,
2013-01-01 06:07:00,17.1,13.6,-100.00,SSE,164,0.0,0.0,86,0.00,,---,0.00,VWS V14.01,2013-01-01 14:07:00,
2013-01-01 06:08:00,17.1,13.6,-100.00,SSE,164,0.0,0.0,86,0.00,,---,0.00,VWS V14.01,2013-01-01 14:08:00,
2013-01-01 06:09:00,17.1,13.6,-100.00,SSE,164,0.0,0.0,86,0.00,,---,0.00,VWS V14.01,2013-01-01 14:09:00,
2013-01-01 06:10:00,17.1,13.6,-100.00,SSE,164,0.0,0.0,86,0.00,,---,0.00,VWS V14.01,2013-01-01 14:10:00,
2013-01-01 06:11:00,17.1,13.6,-100.00,SSE,167,0.0,0.0,86,0.00,,---,0.00,VWS V14.01,2013-01-01 14:11:00,
2013-01-01 06:12:00,17.2,13.8,-100.00,SSW,195,0.0,0.0,86,0.00,,---,0.00,VWS V14.01,2013-01-01 14:12:00,
2013-01-01 06:13:00,17.2,13.8,-100.00,SSW,192,0.0,0.0,86,0.00,,---,0.00,VWS V14.01,2013-01-01 14:13:00,
2013-01-01 06:14:00,17.2,13.8,-100.00,SSW,192,0.0,0.0,86,0.00,,---,0.00,VWS V14.01,2013-01-01 14:14:00,
2013-01-01 06:15:00,17.2,13.8,-100.00,South,177,0.0,0.0,86,0.00,,---,0.00,VWS V14.01,2013-01-01 14:15:00,
2013-01-01 06:16:00,17.2,13.8,-100.00,SSE,154,0.0,0.0,86,0.00,,---,0.00,VWS V14.01,2013-01-01 14:16:00,
2013-01-01 06:17:00,17.2,13.8,-100.00,SSE,149,3.1,3.6,86,0.00,,---,0.00,VWS V14.01,2013-01-01 14:17:00,
2013-01-01 06:18:00,17.2,13.8,-100.00,South,176,4.0,4.0,86,0.00,,---,0.00,VWS V14.01,2013-01-01 14:18:00,
2013-01-01 06:19:00,17.2,13.8,-100.00,SSW,210,3.1,4.0,86,0.00,,---,0.00,VWS V14.01,2013-01-01 14:19:00,
2013-01-01 06:20:00,17.2,13.8,-100.00,SSW,210,0.0,3.1,86,0.00,,---,0.00,VWS V14.01,2013-01-01 14:20:00,
2013-01-01 06:21:00,17.2,13.8,-100.00,SSW,210,0.0,0.0,86,0.00,,---,0.00,VWS V14.01,2013-01-01 14:21:00,
2013-01-01 06:22:00,17.2,13.8,-100.00,South,183,0.0,0.0,86,0.00,,---,0.00,VWS V14.01,2013-01-01 14:22:00,
2013-01-01 06:23:00,17.1,13.6,-100.00,SSE,155,0.0,0.0,86,0.00,,---,0.00,VWS V14.01,2013-01-01 14:23:00,
2013-01-01 06:24:00,17.1,13.6,-100.00,South,172,2.2,4.0,86,0.00,,---,0.00,VWS V14.01,2013-01-01 14:24:00,
2013-01-01 06:25:00,17.1,13.6,-100.00,SSE,148,0.0,2.7,86,0.00,,---,0.00,VWS V14.01,2013-01-01 14:25:00,
2013-01-01 06:26:00,17.1,13.6,-100.00,SSE,164,2.7,2.7,86,0.00,,---,0.00,VWS V14.01,2013-01-01 14:26:00,
2013-01-01 06:27:00,17.1,13.6,-100.00,SSE,158,0.0,0.0,86,0.00,,---,0.00,VWS V14.01,2013-01-01 14:27:00,
2013-01-01 06:28:00,17.1,13.6,-100.00,South,185,0.0,0.0,86,0.00,,---,0.00,VWS V14.01,2013-01-01 14:28:00,
2013-01-01 06:29:00,17.1,13.6,-100.00,SSE,152,4.0,4.0,86,0.00,,---,0.00,VWS V14.01,2013-01-01 14:29:00,
2013-01-01 06:30:00,17.1,13.6,-100.00,South,184,0.0,4.0,86,0.00,,---,0.00,VWS V14.01,2013-01-01 14:30:00,
2013-01-01 06:31:00,17.1,13.6,-100.00,South,174,2.7,3.1,86,0.00,,---,0.00,VWS V14.01,2013-01-01 14:31:00,
2013-01-01 06:32:00,17.1,13.6,-100.00,South,173,0.0,3.1,86,0.00,,---,0.00,VWS V14.01,2013-01-01 14:32:00,
2013-01-01 06:33:00,17.1,13.6,-100.00,SSE,163,2.7,3.1,86,0.00,,---,0.00,VWS V14.01,2013-01-01 14:33:00,
2013-01-01 06:34:00,17.1,13.6,-100.00,SSE,155,4.0,4.9,86,0.00,,---,0.00,VWS V14.01,2013-01-01 14:34:00,
2013-01-01 06:35:00,17.1,13.6,-100.00,SSE,165,4.5,4.5,86,0.00,,---,0.00,VWS V14.01,2013-01-01 14:35:00,
2013-01-01 06:36:00,17.1,13.6,-100.00,SSE,163,4.5,5.4,86,0.00,,---,0.00,VWS V14.01,2013-01-01 14:36:00,
2013-01-01 06:37:00,17.1,13.6,-100.00,SSE,162,2.2,2.2,86,0.00,,---,0.00,VWS V14.01,2013-01-01 14:37:00,
2013-01-01 06:38:00,17.1,13.6,-100.00,SSE,162,0.0,2.2,86,0.00,,---,0.00,VWS V14.01,2013-01-01 14:38:00,
2013-01-01 06:39:00,17.1,13.6,-100.00,SSE,162,0.0,0.0,86,0.00,,---,0.00,VWS V14.01,2013-01-01 14:39:00,
2013-01-01 06:40:00,17.1,13.6,-100.00,SSE,162,0.0,0.0,86,0.00,,---,0.00,VWS V14.01,2013-01-01 14:40:00,
2013-01-01 06:41:00,17.1,13.6,-100.00,SSE,167,0.0,0.0,86,0.00,,---,0.00,VWS V14.01,2013-01-01 14:41:00,
2013-01-01 06:42:00,17.1,13.6,-100.00,SSE,167,0.0,0.0,86,0.00,,---,0.00,VWS V14.01,2013-01-01 14:42:00,
2013-01-01 06:43:00,17.1,13.6,-100.00,SSE,167,0.0,0.0,86,0.00,,---,0.00,VWS V14.01,2013-01-01 14:43:00,
2013-01-01 06:44:00,17.1,13.6,-100.00,SSE,167,0.0,0.0,86,0.00,,---,0.00,VWS V14.01,2013-01-01 14:44:00,
2013-01-01 06:45:00,16.9,13.4,-100.00,SSE,167,0.0,0.0,86,0.00,,---,0.00,VWS V14.01,2013-01-01 14:45:00,
2013-01-01 06:46:00,16.9,13.2,-100.00,SSE,167,0.0,0.0,85,0.00,,---,0.00,VWS V14.01,2013-01-01 14:46:00,
2013-01-01 06:47:00,16.9,13.2,-100.00,SSE,167,0.0,0.0,85,0.00,,---,0.00,VWS V14.01,2013-01-01 14:47:00,
2013-01-01 06:48:00,16.9,13.2,-100.00,SSE,167,0.0,0.0,85,0.00,,---,0.00,VWS V14.01,2013-01-01 14:48:00,
2013-01-01 06:49:00,16.9,13.2,-100.00,SE,142,2.7,2.7,85,0.00,,---,0.00,VWS V14.01,2013-01-01 14:49:00,
2013-01-01 06:50:00,16.9,13.2,-100.00,SSE,160,0.0,2.7,85,0.00,,---,0.00,VWS V14.01,2013-01-01 14:50:00,
2013-01-01 06:51:00,16.9,13.2,-100.00,SSE,160,2.7,2.7,85,0.00,,---,0.00,VWS V14.01,2013-01-01 14:51:00,
2013-01-01 06:52:00,16.9,13.2,-100.00,SSE,168,0.0,0.0,85,0.00,,---,0.00,VWS V14.01,2013-01-01 14:52:00,
2013-01-01 06:53:00,16.9,13.2,-100.00,South,173,3.1,3.1,85,0.00,,---,0.00,VWS V14.01,2013-01-01 14:53:00,
2013-01-01 06:54:00,16.9,13.2,-100.00,SSE,164,2.7,4.0,85,0.00,,---,0.00,VWS V14.01,2013-01-01 14:54:00,
2013-01-01 06:55:00,16.9,13.2,-100.00,South,182,2.2,3.1,85,0.00,,---,0.00,VWS V14.01,2013-01-01 14:55:00,
2013-01-01 06:56:00,16.9,13.2,-100.00,SSE,156,2.2,3.6,85,0.00,,---,0.00,VWS V14.01,2013-01-01 14:56:00,
2013-01-01 06:57:00,16.9,13.2,-100.00,SSE,161,0.0,3.6,85,0.00,,---,0.00,VWS V14.01,2013-01-01 14:57:00,
2013-01-01 06:58:00,16.9,13.2,-100.00,SSE,161,0.0,3.6,85,0.00,,---,0.00,VWS V14.01,2013-01-01 14:58:00,
2013-01-01 06:59:00,16.9,13.2,-100.00,SSE,164,0.0,0.0,85,0.00,,---,0.00,VWS V14.01,2013-01-01 14:59:00,
2013-01-01 07:00:00,16.9,13.2,-100.00,SSE,147,3.6,3.6,85,0.00,,---,0.00,VWS V14.01,2013-01-01 15:00:00,
2013-01-01 07:01:00,16.9,13.2,-100.00,SE,145,0.0,3.6,85,0.00,,---,0.00,VWS V14.01,2013-01-01 15:01:00,
2013-01-01 07:02:00,16.9,13.2,-100.00,South,189,3.1,3.6,85,0.00,,---,0.00,VWS V14.01,2013-01-01 15:02:00,
2013-01-01 07:03:00,16.9,13.2,-100.00,SSE,156,3.6,3.6,85,0.00,,---,0.00,VWS V14.01,2013-01-01 15:03:00,
2013-01-01 07:04:00,16.9,13.2,-100.00,SSE,166,4.0,4.0,85,0.00,,---,0.00,VWS V14.01,2013-01-01 15:04:00,
2013-01-01 07:05:00,16.9,13.2,-100.00,South,173,3.1,4.0,85,0.00,,---,0.00,VWS V14.01,2013-01-01 15:05:00,
2013-01-01 07:06:00,16.9,13.2,-100.00,South,180,3.1,3.1,85,0.00,,---,0.00,VWS V14.01,2013-01-01 15:06:00,
2013-01-01 07:07:00,16.7,13.0,-100.00,SSE,156,3.1,3.6,85,0.00,,---,0.00,VWS V14.01,2013-01-01 15:07:00,
2013-01-01 07:08:00,16.7,13.0,-100.00,SE,140,4.0,4.0,85,0.00,,---,0.00,VWS V14.01,2013-01-01 15:08:00,
2013-01-01 07:09:00,16.7,13.0,-100.00,South,178,2.7,4.0,85,0.00,,---,0.00,VWS V14.01,2013-01-01 15:09:00,
2013-01-01 07:10:00,16.7,13.0,-100.00,SSE,152,3.6,4.9,85,0.00,,---,0.00,VWS V14.01,2013-01-01 15:10:00,
2013-01-01 07:11:00,16.7,13.0,-100.00,SSE,149,3.6,3.6,85,0.00,,---,0.00,VWS V14.01,2013-01-01 15:11:00,
2013-01-01 07:12:00,16.7,13.0,-100.00,South,177,3.1,4.0,85,0.00,,---,0.00,VWS V14.01,2013-01-01 15:12:00,
2013-01-01 07:13:00,16.7,13.0,-100.00,SSE,168,5.4,5.4,85,0.00,,---,0.00,VWS V14.01,2013-01-01 15:13:00,
2013-01-01 07:14:00,16.7,12.7,-100.00,South,172,3.1,5.4,84,0.00,,---,0.00,VWS V14.01,2013-01-01 15:14:00,
2013-01-01 07:15:00,16.7,12.7,-100.00,SSE,156,3.1,3.6,84,0.00,,---,0.00,VWS V14.01,2013-01-01 15:15:00,
2013-01-01 07:16:00,16.7,12.7,-100.00,SSE,156,3.1,5.8,84,0.00,,---,0.00,VWS V14.01,2013-01-01 15:16:00,
2013-01-01 07:17:00,16.7,12.7,-100.00,SSE,164,3.1,3.1,84,0.00,,---,0.00,VWS V14.01,2013-01-01 15:17:00,
2013-01-01 07:18:00,16.7,12.7,-100.00,SSE,159,3.1,4.0,84,0.00,,---,0.00,VWS V14.01,2013-01-01 15:18:00,
2013-01-01 07:19:00,16.7,12.7,-100.00,South,171,2.7,4.0,84,0.00,,---,0.00,VWS V14.01,2013-01-01 15:19:00,
2013-01-01 07:20:00,16.7,12.7,-100.00,SSE,153,3.1,4.0,84,0.00,,---,0.00,VWS V14.01,2013-01-01 15:20:00,
2013-01-01 07:21:00,16.7,12.7,-100.00,SSE,151,2.7,3.6,84,0.00,,---,0.00,VWS V14.01,2013-01-01 15:21:00,
2013-01-01 07:22:00,16.7,12.7,-100.00,South,190,0.0,3.6,84,0.00,,---,0.00,VWS V14.01,2013-01-01 15:22:00,
2013-01-01 07:23:00,16.7,12.7,-100.00,South,186,0.0,3.6,84,0.00,,---,0.00,VWS V14.01,2013-01-01 15:23:00,
2013-01-01 07:24:00,16.7,12.7,-100.00,SSE,166,0.0,0.0,84,0.00,,---,0.00,VWS V14.01,2013-01-01 15:24:00,
2013-01-01 07:25:00,16.7,12.7,-100.00,South,177,3.6,3.6,84,0.00,,---,0.00,VWS V14.01,2013-01-01 15:25:00,
2013-01-01 07:26:00,16.7,12.7,-100.00,SSE,151,3.6,3.6,84,0.00,,---,0.00,VWS V14.01,2013-01-01 15:26:00,
2013-01-01 07:27:00,16.7,12.7,-100.00,SE,142,3.1,3.1,84,0.00,,---,0.00,VWS V14.01,2013-01-01 15:27:00,
2013-01-01 07:28:00,16.7,12.7,-100.00,SSE,153,2.7,4.0,84,0.00,,---,0.00,VWS V14.01,2013-01-01 15:28:00,
2013-01-01 07:29:00,16.7,12.7,-100.00,SSE,158,3.1,3.6,84,0.00,,---,0.00,VWS V14.01,2013-01-01 15:29:00,
2013-01-01 07:30:00,16.7,12.7,-100.00,South,169,0.0,3.1,84,0.00,,---,0.00,VWS V14.01,2013-01-01 15:30:00,
2013-01-01 07:31:00,16.7,12.7,-100.00,SSE,160,2.7,2.7,84,0.00,,---,0.00,VWS V14.01,2013-01-01 15:31:00,
2013-01-01 07:32:00,16.7,12.7,-100.00,SSE,162,0.0,0.0,84,0.00,,---,0.00,VWS V14.01,2013-01-01 15:32:00,
2013-01-01 07:33:00,16.7,12.7,-100.00,SSE,165,0.0,0.0,84,0.00,,---,0.00,VWS V14.01,2013-01-01 15:33:00,
2013-01-01 07:34:00,16.7,12.7,-100.00,South,177,5.4,5.4,84,0.00,,---,0.00,VWS V14.01,2013-01-01 15:34:00,
2013-01-01 07:35:00,16.7,12.7,-100.00,South,169,4.0,5.4,84,0.00,,---,0.00,VWS V14.01,2013-01-01 15:35:00,
2013-01-01 07:36:00,16.7,12.7,-100.00,South,169,3.6,5.4,84,0.00,,---,0.00,VWS V14.01,2013-01-01 15:36:00,
2013-01-01 07:37:00,16.7,12.7,-100.00,SSE,155,6.3,6.3,84,0.00,,---,0.00,VWS V14.01,2013-01-01 15:37:00,
2013-01-01 07:38:00,16.7,12.7,-100.00,South,170,4.9,6.3,84,0.00,,---,0.00,VWS V14.01,2013-01-01 15:38:00,
2013-01-01 07:39:00,16.7,12.4,-100.00,SSE,165,3.1,5.4,83,0.00,,---,0.00,VWS V14.01,2013-01-01 15:39:00,
2013-01-01 07:40:00,16.7,12.4,-100.00,East,94,2.2,5.4,83,0.00,,---,0.00,VWS V14.01,2013-01-01 15:40:00,
2013-01-01 07:41:00,16.7,12.4,-100.00,South,177,0.0,5.8,83,0.00,,---,0.00,VWS V14.01,2013-01-01 15:41:00,
2013-01-01 07:42:00,16.7,12.4,-100.00,SSE,163,6.3,6.3,83,0.00,,---,0.00,VWS V14.01,2013-01-01 15:42:00,
2013-01-01 07:43:00,16.7,12.4,-100.00,SE,132,4.0,6.3,83,0.00,,---,0.00,VWS V14.01,2013-01-01 15:43:00,
2013-01-01 07:44:00,16.7,12.4,-100.00,SSE,164,4.9,4.9,83,0.00,,---,0.00,VWS V14.01,2013-01-01 15:44:00,
2013-01-01 07:45:00,16.7,12.4,-100.00,SSE,153,2.7,5.8,83,0.00,,---,0.00,VWS V14.01,2013-01-01 15:45:00,
2013-01-01 07:46:00,16.7,12.4,-100.00,South,176,3.1,4.0,83,0.00,,---,0.00,VWS V14.01,2013-01-01 15:46:00,
2013-01-01 07:47:00,16.7,12.4,-100.00,SSE,164,4.0,4.0,83,0.00,,---,0.00,VWS V14.01,2013-01-01 15:47:00,
2013-01-01 07:48:00,16.7,12.4,-100.00,SSE,153,3.1,4.0,83,0.00,,---,0.00,VWS V14.01,2013-01-01 15:48:00,
2013-01-01 07:49:00,16.7,12.4,-100.00,South,170,0.0,4.0,83,0.00,,---,0.00,VWS V14.01,2013-01-01 15:49:00,
2013-01-01 07:50:00,16.7,12.4,-100.00,SSW,211,2.2,2.2,83,0.00,,---,0.00,VWS V14.01,2013-01-01 15:50:00,
2013-01-01 07:51:00,16.7,12.4,-100.00,SSW,211,2.7,2.7,83,0.00,,---,0.00,VWS V14.01,2013-01-01 15:51:00,
2013-01-01 07:52:00,16.9,12.9,-100.00,SW,215,2.2,3.1,84,0.00,,---,0.00,VWS V14.01,2013-01-01 15:52:00,
2013-01-01 07:53:00,16.9,12.9,-100.00,South,176,2.2,3.1,84,0.00,,---,0.00,VWS V14.01,2013-01-01 15:53:00,
2013-01-01 07:54:00,16.9,12.9,-100.00,SSE,148,3.1,3.1,84,0.00,,---,0.00,VWS V14.01,2013-01-01 15:54:00,
2013-01-01 07:55:00,16.9,12.9,-100.00,SSE,155,2.2,4.0,84,0.00,,---,0.00,VWS V14.01,2013-01-01 15:55:00,
2013-01-01 07:56:00,16.9,12.9,-100.00,South,180,2.7,3.1,84,0.00,,---,0.00,VWS V14.01,2013-01-01 15:56:00,
2013-01-01 07:57:00,16.9,12.9,-100.00,SSW,212,2.7,2.7,84,0.00,,---,0.00,VWS V14.01,2013-01-01 15:57:00,
2013-01-01 07:58:00,16.9,12.9,-100.00,South,183,3.1,3.1,84,0.00,,---,0.00,VWS V14.01,2013-01-01 15:58:00,
2013-01-01 07:59:00,16.9,12.9,-100.00,SSE,152,3.1,5.4,84,0.00,,---,0.00,VWS V14.01,2013-01-01 15:59:00,
2013-01-01 08:00:00,16.9,12.9,-100.00,SSE,163,4.0,4.9,84,0.00,,---,0.00,VWS V14.01,2013-01-01 16:00:00,
2013-01-01 08:01:00,16.9,12.9,-100.00,SSE,167,3.1,4.0,84,0.00,,---,0.00,VWS V14.01,2013-01-01 16:01:00,
2013-01-01 08:02:00,16.9,12.9,-100.00,SSE,168,2.2,2.7,84,0.00,,---,0.00,VWS V14.01,2013-01-01 16:02:00,
2013-01-01 08:03:00,16.9,12.9,-100.00,SSW,203,3.1,3.1,84,0.00,,---,0.00,VWS V14.01,2013-01-01 16:03:00,
2013-01-01 08:04:00,16.9,12.9,-100.00,SE,131,4.0,4.0,84,0.00,,---,0.00,VWS V14.01,2013-01-01 16:04:00,
2013-01-01 08:05:00,16.9,12.9,-100.00,SSE,153,2.7,4.0,84,0.00,,---,0.00,VWS V14.01,2013-01-01 16:05:00,
2013-01-01 08:06:00,16.9,12.9,-100.00,South,179,2.7,3.1,84,0.00,,---,0.00,VWS V14.01,2013-01-01 16:06:00,
2013-01-01 08:07:00,16.9,12.6,-100.00,South,175,4.0,4.9,83,0.00,,---,0.00,VWS V14.01,2013-01-01 16:07:00,
2013-01-01 08:08:00,16.9,12.6,-100.00,South,174,3.1,4.9,83,0.00,,---,0.00,VWS V14.01,2013-01-01 16:08:00,
2013-01-01 08:09:00,16.9,12.6,-100.00,SE,146,2.7,3.6,83,0.00,,---,0.00,VWS V14.01,2013-01-01 16:09:00,
2013-01-01 08:10:00,16.9,12.6,-100.00,SSE,150,4.0,4.0,83,0.00,,---,0.00,VWS V14.01,2013-01-01 16:10:00,
2013-01-01 08:11:00,16.9,12.6,-100.00,SSE,161,4.0,4.0,83,0.00,,---,0.00,VWS V14.01,2013-01-01 16:11:00,
2013-01-01 08:12:00,16.9,12.6,-100.00,SSE,153,2.7,3.6,83,0.00,,---,0.00,VWS V14.01,2013-01-01 16:12:00,
2013-01-01 08:13:00,16.9,12.6,-100.00,SSE,165,0.0,3.6,83,0.00,,---,0.00,VWS V14.01,2013-01-01 16:13:00,
2013-01-01 08:14:00,16.9,12.6,-100.00,SSE,165,0.0,2.2,83,0.00,,---,0.00,VWS V14.01,2013-01-01 16:14:00,
2013-01-01 08:15:00,16.9,12.6,-100.00,SSE,165,0.0,0.0,83,0.00,,---,0.00,VWS V14.01,2013-01-01 16:15:00,
2013-01-01 08:16:00,16.9,12.6,-100.00,SSE,165,0.0,0.0,83,0.00,,---,0.00,VWS V14.01,2013-01-01 16:16:00,
2013-01-01 08:17:00,16.9,12.6,-100.00,SSE,161,0.0,0.0,83,0.00,,---,0.00,VWS V14.01,2013-01-01 16:17:00,
2013-01-01 08:18:00,16.9,12.6,-100.00,SSE,168,0.0,0.0,83,0.00,,---,0.00,VWS V14.01,2013-01-01 16:18:00,
2013-01-01 08:19:00,16.9,12.6,-100.00,SSE,168,0.0,0.0,83,0.00,,---,0.00,VWS V14.01,2013-01-01 16:19:00,
2013-01-01 08:20:00,16.9,12.6,-100.00,SSE,168,0.0,0.0,83,0.00,,---,0.00,VWS V14.01,2013-01-01 16:20:00,
2013-01-01 08:21:00,17.1,12.8,-100.00,South,169,0.0,0.0,83,0.00,,---,0.00,VWS V14.01,2013-01-01 16:21:00,
2013-01-01 08:22:00,17.1,13.1,-100.00,South,169,0.0,0.0,84,0.00,,---,0.00,VWS V14.01,2013-01-01 16:22:00,
2013-01-01 08:23:00,17.1,13.1,-100.00,South,169,0.0,0.0,84,0.00,,---,0.00,VWS V14.01,2013-01-01 16:23:00,
2013-01-01 08:24:00,17.1,13.1,-100.00,South,185,2.2,3.1,84,0.00,,---,0.00,VWS V14.01,2013-01-01 16:24:00,
2013-01-01 08:25:00,17.2,13.2,-100.00,South,185,0.0,2.2,84,0.00,,---,0.00,VWS V14.01,2013-01-01 16:25:00,
2013-01-01 08:26:00,17.2,13.2,-100.00,SSE,168,2.7,2.7,84,0.00,,---,0.00,VWS V14.01,2013-01-01 16:26:00,
2013-01-01 08:27:00,17.4,13.4,-100.00,South,176,0.0,3.1,84,0.00,,---,0.00,VWS V14.01,2013-01-01 16:27:00,
2013-01-01 08:28:00,17.4,13.4,-100.00,South,175,0.0,3.1,84,0.00,,---,0.00,VWS V14.01,2013-01-01 16:28:00,
2013-01-01 08:29:00,17.4,13.4,-100.00,South,171,3.1,3.6,84,0.00,,---,0.00,VWS V14.01,2013-01-01 16:29:00,
2013-01-01 08:30:00,17.4,13.4,-100.00,South,178,3.6,3.6,84,0.00,,---,0.00,VWS V14.01,2013-01-01 16:30:00,
2013-01-01 08:31:00,17.4,13.4,-100.00,SSW,197,2.7,3.6,84,0.00,,---,0.00,VWS V14.01,2013-01-01 16:31:00,
2013-01-01 08:32:00,17.4,13.4,-100.00,South,171,2.7,2.7,84,0.00,,---,0.00,VWS V14.01,2013-01-01 16:32:00,
2013-01-01 08:33:00,17.4,13.4,-100.00,SE,125,3.1,3.1,84,0.00,,---,0.00,VWS V14.01,2013-01-01 16:33:00,
2013-01-01 08:34:00,17.4,13.1,-100.00,SSE,150,3.6,4.0,83,0.00,,---,0.00,VWS V14.01,2013-01-01 16:34:00,
2013-01-01 08:35:00,17.6,13.3,-100.00,South,186,2.7,4.0,83,0.00,,---,0.00,VWS V14.01,2013-01-01 16:35:00,
2013-01-01 08:36:00,17.6,13.3,-100.00,South,184,3.6,3.6,83,0.00,,---,0.00,VWS V14.01,2013-01-01 16:36:00,
2013-01-01 08:37:00,17.6,13.3,-100.00,SSW,197,5.8,5.8,83,0.00,,---,0.00,VWS V14.01,2013-01-01 16:37:00,
2013-01-01 08:38:00,17.6,13.3,-100.00,SSE,150,4.0,5.8,83,0.00,,---,0.00,VWS V14.01,2013-01-01 16:38:00,
2013-01-01 08:39:00,17.6,13.3,-100.00,SSE,157,3.1,4.0,83,0.00,,---,0.00,VWS V14.01,2013-01-01 16:39:00,
2013-01-01 08:40:00,17.8,13.5,-100.00,South,181,3.6,4.9,83,0.00,,---,0.00,VWS V14.01,2013-01-01 16:40:00,
2013-01-01 08:41:00,17.8,13.5,-100.00,SSW,208,3.1,3.6,83,0.00,,---,0.00,VWS V14.01,2013-01-01 16:41:00,
2013-01-01 08:42:00,17.8,13.5,-100.00,South,169,0.0,4.0,83,0.00,,---,0.00,VWS V14.01,2013-01-01 16:42:00,
2013-01-01 08:43:00,17.8,13.5,-100.00,SSE,152,2.2,4.0,83,0.00,,---,0.00,VWS V14.01,2013-01-01 16:43:00,
2013-01-01 08:44:00,17.8,13.5,-100.00,South,191,3.6,3.6,83,0.00,,---,0.00,VWS V14.01,2013-01-01 16:44:00,
2013-01-01 08:45:00,17.8,13.2,-100.00,SSE,159,0.0,3.6,82,0.00,,---,0.00,VWS V14.01,2013-01-01 16:45:00,
2013-01-01 08:46:00,17.8,13.2,-100.00,South,183,0.0,0.0,82,0.00,,---,0.00,VWS V14.01,2013-01-01 16:46:00,
2013-01-01 08:47:00,17.6,13.1,-100.00,South,180,2.7,4.0,82,0.00,,---,0.00,VWS V14.01,2013-01-01 16:47:00,
2013-01-01 08:48:00,17.8,12.9,-100.00,South,174,3.6,4.0,81,0.00,,---,0.00,VWS V14.01,2013-01-01 16:48:00,
2013-01-01 08:49:00,17.8,12.9,-100.00,SSE,155,3.1,4.0,81,0.00,,---,0.00,VWS V14.01,2013-01-01 16:49:00,
2013-01-01 08:50:00,17.6,13.1,-100.00,SSE,167,2.2,3.6,82,0.00,,---,0.00,VWS V14.01,2013-01-01 16:50:00,
2013-01-01 08:51:00,17.8,12.9,-100.00,South,189,2.7,3.6,81,0.00,,---,0.00,VWS V14.01,2013-01-01 16:51:00,
2013-01-01 08:52:00,17.8,12.9,-100.00,South,184,3.1,6.3,81,0.00,,---,0.00,VWS V14.01,2013-01-01 16:52:00,
2013-01-01 08:53:00,17.8,12.9,-100.00,South,174,5.4,6.3,81,0.00,,---,0.00,VWS V14.01,2013-01-01 16:53:00,
2013-01-01 08:54:00,17.8,13.2,-100.00,South,184,2.7,5.4,82,0.00,,---,0.00,VWS V14.01,2013-01-01 16:54:00,
2013-01-01 08:55:00,17.8,13.2,-100.00,South,173,0.0,3.6,82,0.00,,---,0.00,VWS V14.01,2013-01-01 16:55:00,
2013-01-01 08:56:00,18.0,13.4,-100.00,South,181,2.7,3.6,82,0.00,,---,0.00,VWS V14.01,2013-01-01 16:56:00,
2013-01-01 08:57:00,18.0,13.4,-100.00,SSE,162,3.1,3.1,82,0.00,,---,0.00,VWS V14.01,2013-01-01 16:57:00,
2013-01-01 08:58:00,18.1,13.6,-100.00,South,185,3.1,3.6,82,0.00,,---,0.00,VWS V14.01,2013-01-01 16:58:00,
2013-01-01 08:59:00,18.1,13.6,-100.00,SSE,150,4.0,4.0,82,0.00,,---,0.00,VWS V14.01,2013-01-01 16:59:00,
2013-01-01 09:00:00,18.1,13.6,-100.00,South,171,0.0,5.8,82,0.00,,---,0.00,VWS V14.01,2013-01-01 17:00:00,
2013-01-01 09:01:00,18.1,13.6,-100.00,East,88,5.8,5.8,82,0.00,,---,0.00,VWS V14.01,2013-01-01 17:01:00,
2013-01-01 09:02:00,18.1,13.3,-100.00,South,181,3.1,3.6,81,0.00,,---,0.00,VWS V14.01,2013-01-01 17:02:00,
2013-01-01 09:03:00,18.1,13.3,-100.00,South,172,3.1,3.6,81,0.00,,---,0.00,VWS V14.01,2013-01-01 17:03:00,
2013-01-01 09:04:00,18.1,13.3,-100.00,South,184,2.7,4.0,81,0.00,,---,0.00,VWS V14.01,2013-01-01 17:04:00,
2013-01-01 09:05:00,18.1,13.3,-100.00,SSE,159,3.6,3.6,81,0.00,,---,0.00,VWS V14.01,2013-01-01 17:05:00,
2013-01-01 09:06:00,18.1,13.3,-100.00,South,173,3.1,3.6,81,0.00,,---,0.00,VWS V14.01,2013-01-01 17:06:00,
2013-01-01 09:07:00,18.1,13.6,-100.00,South,191,2.7,4.0,82,0.00,,---,0.00,VWS V14.01,2013-01-01 17:07:00,
2013-01-01 09:08:00,18.1,13.6,-100.00,South,191,2.7,4.0,82,0.00,,---,0.00,VWS V14.01,2013-01-01 17:08:00,
2013-01-01 09:09:00,18.3,13.8,-100.00,South,191,0.0,2.7,82,0.00,,---,0.00,VWS V14.01,2013-01-01 17:09:00,
2013-01-01 09:10:00,18.1,13.3,-100.00,SW,218,2.7,3.1,81,0.00,,---,0.00,VWS V14.01,2013-01-01 17:10:00,
2013-01-01 09:11:00,18.1,13.3,-100.00,South,179,2.7,3.1,81,0.00,,---,0.00,VWS V14.01,2013-01-01 17:11:00,
2013-01-01 09:12:00,18.1,13.3,-100.00,South,182,2.2,2.7,81,0.00,,---,0.00,VWS V14.01,2013-01-01 17:12:00,
2013-01-01 09:13:00,18.1,13.3,-100.00,SSE,165,2.7,3.6,81,0.00,,---,0.00,VWS V14.01,2013-01-01 17:13:00,
2013-01-01 09:14:00,18.1,13.3,-100.00,SSE,163,2.2,3.1,81,0.00,,---,0.00,VWS V14.01,2013-01-01 17:14:00,
2013-01-01 09:15:00,18.3,13.5,-100.00,SSE,160,3.6,3.6,81,0.00,,---,0.00,VWS V14.01,2013-01-01 17:15:00,
2013-01-01 09:16:00,18.3,13.5,-100.00,SSE,160,0.0,3.6,81,0.00,,---,0.00,VWS V14.01,2013-01-01 17:16:00,
2013-01-01 09:17:00,18.3,13.2,-100.00,SE,144,4.9,5.8,80,0.00,,---,0.00,VWS V14.01,2013-01-01 17:17:00,
2013-01-01 09:18:00,18.3,13.2,-100.00,SSE,168,3.1,5.8,80,0.00,,---,0.00,VWS V14.01,2013-01-01 17:18:00,
2013-01-01 09:19:00,18.3,13.2,-100.00,South,183,3.6,4.0,80,0.00,,---,0.00,VWS V14.01,2013-01-01 17:19:00,
2013-01-01 09:20:00,18.3,13.2,-100.00,SSE,154,4.0,4.0,80,0.00,,---,0.00,VWS V14.01,2013-01-01 17:20:00,
2013-01-01 09:21:00,18.3,13.2,-100.00,South,187,4.0,5.4,80,0.00,,---,0.00,VWS V14.01,2013-01-01 17:21:00,
2013-01-01 09:22:00,18.3,13.2,-100.00,South,172,2.7,2.7,80,0.00,,---,0.00,VWS V14.01,2013-01-01 17:22:00,
2013-01-01 09:23:00,18.3,13.2,-100.00,SSE,164,3.6,4.0,80,0.00,,---,0.00,VWS V14.01,2013-01-01 17:23:00,
2013-01-01 09:24:00,18.3,13.2,-100.00,South,169,3.6,3.6,80,0.00,,---,0.00,VWS V14.01,2013-01-01 17:24:00,
2013-01-01 09:25:00,18.3,13.2,-100.00,South,181,0.0,3.6,80,0.00,,---,0.00,VWS V14.01,2013-01-01 17:25:00,
2013-01-01 09:26:00,18.3,13.2,-100.00,South,176,0.0,0.0,80,0.00,,---,0.00,VWS V14.01,2013-01-01 17:26:00,
2013-01-01 09:27:00,18.3,13.2,-100.00,South,176,0.0,0.0,80,0.00,,---,0.00,VWS V14.01,2013-01-01 17:27:00,
2013-01-01 09:28:00,18.3,13.2,-100.00,South,176,0.0,0.0,80,0.00,,---,0.00,VWS V14.01,2013-01-01 17:28:00,
2013-01-01 09:29:00,18.3,13.2,-100.00,South,169,0.0,0.0,80,0.00,,---,0.00,VWS V14.01,2013-01-01 17:29:00,
2013-01-01 09:30:00,18.5,13.4,-100.00,SSE,161,3.1,4.0,80,0.00,,---,0.00,VWS V14.01,2013-01-01 17:30:00,
2013-01-01 09:31:00,18.5,13.4,-100.00,SSE,158,0.0,3.6,80,0.00,,---,0.00,VWS V14.01,2013-01-01 17:31:00,
2013-01-01 09:32:00,18.5,13.4,-100.00,SSE,159,0.0,0.0,80,0.00,,---,0.00,VWS V14.01,2013-01-01 17:32:00,
2013-01-01 09:33:00,18.5,13.4,-100.00,SSE,159,0.0,0.0,80,0.00,,---,0.00,VWS V14.01,2013-01-01 17:33:00,
2013-01-01 09:34:00,18.7,13.6,-100.00,SSE,148,0.0,3.1,80,0.00,,---,0.00,VWS V14.01,2013-01-01 17:34:00,
2013-01-01 09:35:00,18.7,13.6,-100.00,SSE,148,0.0,0.0,80,0.00,,---,0.00,VWS V14.01,2013-01-01 17:35:00,
2013-01-01 09:36:00,18.7,13.6,-100.00,South,171,0.0,0.0,80,0.00,,---,0.00,VWS V14.01,2013-01-01 17:36:00,
2013-01-01 09:37:00,18.9,13.7,-100.00,South,171,0.0,0.0,80,0.00,,---,0.00,VWS V14.01,2013-01-01 17:37:00,
2013-01-01 09:38:00,19.0,13.9,-100.00,SSE,164,2.7,2.7,80,0.00,,---,0.00,VWS V14.01,2013-01-01 17:38:00,
2013-01-01 09:39:00,19.0,13.9,-100.00,SW,222,2.7,2.7,80,0.00,,---,0.00,VWS V14.01,2013-01-01 17:39:00,
2013-01-01 09:40:00,19.2,14.1,-100.00,SW,222,0.0,2.7,80,0.00,,---,0.00,VWS V14.01,2013-01-01 17:40:00,
2013-01-01 09:41:00,19.2,14.1,-100.00,SSE,166,0.0,0.0,80,0.00,,---,0.00,VWS V14.01,2013-01-01 17:41:00,
2013-01-01 09:42:00,19.2,14.1,-100.00,South,171,0.0,0.0,80,0.00,,---,0.00,VWS V14.01,2013-01-01 17:42:00,
2013-01-01 09:43:00,19.4,14.5,-100.00,South,171,0.0,0.0,81,0.00,,---,0.00,VWS V14.01,2013-01-01 17:43:00,
2013-01-01 09:44:00,19.4,14.5,-100.00,South,171,0.0,0.0,81,0.00,,---,0.00,VWS V14.01,2013-01-01 17:44:00,
2013-01-01 09:45:00,19.4,14.5,-100.00,South,171,0.0,0.0,81,0.00,,---,0.00,VWS V14.01,2013-01-01 17:45:00,
2013-01-01 09:46:00,19.6,14.4,-100.00,South,180,0.0,0.0,80,0.00,,---,0.00,VWS V14.01,2013-01-01 17:46:00,
2013-01-01 09:47:00,19.6,14.1,-100.00,SSE,168,0.0,0.0,79,0.00,,---,0.00,VWS V14.01,2013-01-01 17:47:00,
2013-01-01 09:48:00,19.6,14.1,-100.00,SSE,168,0.0,0.0,79,0.00,,---,0.00,VWS V14.01,2013-01-01 17:48:00,
2013-01-01 09:49:00,19.6,14.1,-100.00,South,170,0.0,0.0,79,0.00,,---,0.00,VWS V14.01,2013-01-01 17:49:00,
2013-01-01 09:50:00,19.6,14.1,-100.00,South,178,3.6,3.6,79,0.00,,---,0.00,VWS V14.01,2013-01-01 17:50:00,
2013-01-01 09:51:00,19.8,14.3,-100.00,South,176,0.0,3.6,79,0.00,,---,0.00,VWS V14.01,2013-01-01 17:51:00,
2013-01-01 09:52:00,19.8,14.3,-100.00,South,175,0.0,2.2,79,0.00,,---,0.00,VWS V14.01,2013-01-01 17:52:00,
2013-01-01 09:53:00,19.8,14.3,-100.00,SW,219,2.7,2.7,79,0.00,,---,0.00,VWS V14.01,2013-01-01 17:53:00,
2013-01-01 09:54:00,19.9,14.5,-100.00,SW,219,0.0,2.7,79,0.00,,---,0.00,VWS V14.01,2013-01-01 17:54:00,
2013-01-01 09:55:00,19.9,14.5,-100.00,SW,233,3.1,3.1,79,0.00,,---,0.00,VWS V14.01,2013-01-01 17:55:00,
2013-01-01 09:56:00,20.1,14.7,-100.00,SSW,211,2.2,3.1,79,0.00,,---,0.00,VWS V14.01,2013-01-01 17:56:00,
2013-01-01 09:57:00,20.1,14.7,-100.00,SSE,152,0.0,2.7,79,0.00,,---,0.00,VWS V14.01,2013-01-01 17:57:00,
2013-01-01 09:58:00,20.1,14.7,-100.00,SSE,152,0.0,2.7,79,0.00,,---,0.00,VWS V14.01,2013-01-01 17:58:00,
2013-01-01 09:59:00,20.3,14.8,-100.00,SSE,159,0.0,0.0,79,0.00,,---,0.00,VWS V14.01,2013-01-01 17:59:00,
2013-01-01 10:00:00,20.3,14.6,-100.00,SSE,159,0.0,0.0,78,0.00,,---,0.00,VWS V14.01,2013-01-01 18:00:00,
2013-01-01 10:01:00,20.1,14.1,-100.00,SSE,168,0.0,3.1,77,0.00,,---,0.00,VWS V14.01,2013-01-01 18:01:00,
2013-01-01 10:02:00,20.1,13.8,-100.00,SSE,168,0.0,0.0,76,0.00,,---,0.00,VWS V14.01,2013-01-01 18:02:00,
2013-01-01 10:03:00,20.1,13.8,-100.00,South,169,0.0,0.0,76,0.00,,---,0.00,VWS V14.01,2013-01-01 18:03:00,
2013-01-01 10:04:00,20.1,13.8,-100.00,SSW,200,0.0,3.6,76,0.00,,---,0.00,VWS V14.01,2013-01-01 18:04:00,
2013-01-01 10:05:00,20.3,14.0,-100.00,SE,145,3.6,3.6,76,0.00,,---,0.00,VWS V14.01,2013-01-01 18:05:00,
2013-01-01 10:06:00,20.3,14.0,-100.00,South,173,3.1,4.0,76,0.00,,---,0.00,VWS V14.01,2013-01-01 18:06:00,
2013-01-01 10:07:00,20.3,14.0,-100.00,SSE,160,0.0,0.0,76,0.00,,---,0.00,VWS V14.01,2013-01-01 18:07:00,
2013-01-01 10:08:00,20.3,14.0,-100.00,SSE,156,3.1,3.1,76,0.00,,---,0.00,VWS V14.01,2013-01-01 18:08:00,
2013-01-01 10:09:00,20.5,14.1,-100.00,SSE,159,3.6,3.6,76,0.00,,---,0.00,VWS V14.01,2013-01-01 18:09:00,
2013-01-01 10:10:00,20.5,14.4,-100.00,SSE,168,2.7,5.4,77,0.00,,---,0.00,VWS V14.01,2013-01-01 18:10:00,
2013-01-01 10:11:00,20.7,14.6,-100.00,South,184,3.1,3.6,77,0.00,,---,0.00,VWS V14.01,2013-01-01 18:11:00,
2013-01-01 10:12:00,20.5,13.8,-100.00,SSE,151,0.0,3.6,75,0.00,,---,0.00,VWS V14.01,2013-01-01 18:12:00,
2013-01-01 10:13:00,20.3,13.4,-100.00,SSE,151,0.0,3.6,74,0.00,,---,0.00,VWS V14.01,2013-01-01 18:13:00,
2013-01-01 10:14:00,20.5,13.2,-100.00,ENE,70,0.0,0.0,73,0.00,,---,0.00,VWS V14.01,2013-01-01 18:14:00,
2013-01-01 10:15:00,20.3,12.7,-100.00,SSE,151,0.0,0.0,72,0.00,,---,0.00,VWS V14.01,2013-01-01 18:15:00,
2013-01-01 10:16:00,20.3,12.7,-100.00,SSE,166,0.0,0.0,72,0.00,,---,0.00,VWS V14.01,2013-01-01 18:16:00,
2013-01-01 10:17:00,20.3,12.7,-100.00,SSE,164,0.0,0.0,72,0.00,,---,0.00,VWS V14.01,2013-01-01 18:17:00,
2013-01-01 10:18:00,20.3,12.7,-100.00,SSE,164,0.0,0.0,72,0.00,,---,0.00,VWS V14.01,2013-01-01 18:18:00,
2013-01-01 10:19:00,20.3,12.7,-100.00,SSE,156,3.6,3.6,72,0.00,,---,0.00,VWS V14.01,2013-01-01 18:19:00,
2013-01-01 10:20:00,20.3,12.7,-100.00,SSW,194,4.0,4.0,72,0.00,,---,0.00,VWS V14.01,2013-01-01 18:20:00,
2013-01-01 10:21:00,20.3,12.7,-100.00,South,174,2.7,4.0,72,0.00,,---,0.00,VWS V14.01,2013-01-01 18:21:00,
2013-01-01 10:22:00,20.5,13.2,-100.00,SSE,159,4.0,4.0,73,0.00,,---,0.00,VWS V14.01,2013-01-01 18:22:00,
2013-01-01 10:23:00,20.5,13.2,-100.00,SSW,194,2.7,4.0,73,0.00,,---,0.00,VWS V14.01,2013-01-01 18:23:00,
2013-01-01 10:24:00,20.5,13.2,-100.00,SSE,151,5.8,5.8,73,0.00,,---,0.00,VWS V14.01,2013-01-01 18:24:00,
2013-01-01 10:25:00,20.7,13.7,-100.00,SSE,166,3.6,6.3,74,0.00,,---,0.00,VWS V14.01,2013-01-01 18:25:00,
2013-01-01 10:26:00,20.7,13.7,-100.00,SSE,149,0.0,3.6,74,0.00,,---,0.00,VWS V14.01,2013-01-01 18:26:00,
2013-01-01 10:27:00,20.7,13.1,-100.00,South,179,3.6,3.6,72,0.00,,---,0.00,VWS V14.01,2013-01-01 18:27:00,
2013-01-01 10:28:00,20.7,13.1,-100.00,South,174,3.1,3.6,72,0.00,,---,0.00,VWS V14.01,2013-01-01 18:28:00,
2013-01-01 10:29:00,20.8,13.2,-100.00,South,183,2.7,4.0,72,0.00,,---,0.00,VWS V14.01,2013-01-01 18:29:00,
2013-01-01 10:30:00,20.8,13.2,-100.00,SSW,197,2.7,4.0,72,0.00,,---,0.00,VWS V14.01,2013-01-01 18:30:00,
2013-01-01 10:31:00,21.0,13.7,-100.00,South,184,2.7,3.6,73,0.00,,---,0.00,VWS V14.01,2013-01-01 18:31:00,
2013-01-01 10:32:00,21.0,13.7,-100.00,SW,221,2.2,2.2,73,0.00,,---,0.00,VWS V14.01,2013-01-01 18:32:00,
2013-01-01 10:33:00,21.2,13.9,-100.00,SSW,192,0.0,2.2,73,0.00,,---,0.00,VWS V14.01,2013-01-01 18:33:00,
2013-01-01 10:34:00,21.2,13.9,-100.00,SW,214,3.6,3.6,73,0.00,,---,0.00,VWS V14.01,2013-01-01 18:34:00,
2013-01-01 10:35:00,21.2,13.9,-100.00,SSE,150,2.7,4.0,73,0.00,,---,0.00,VWS V14.01,2013-01-01 18:35:00,
2013-01-01 10:36:00,21.4,14.1,-100.00,South,186,3.6,4.0,73,0.00,,---,0.00,VWS V14.01,2013-01-01 18:36:00,
2013-01-01 10:37:00,21.4,13.8,-100.00,SSW,195,3.1,4.0,72,0.00,,---,0.00,VWS V14.01,2013-01-01 18:37:00,
2013-01-01 10:38:00,21.4,13.4,-100.00,SW,229,2.7,4.0,71,0.00,,---,0.00,VWS V14.01,2013-01-01 18:38:00,
2013-01-01 10:39:00,21.4,13.4,-100.00,SW,229,4.0,4.0,71,0.00,,---,0.00,VWS V14.01,2013-01-01 18:39:00,
2013-01-01 10:40:00,21.6,13.6,-100.00,SW,228,3.1,4.0,71,0.00,,---,0.00,VWS V14.01,2013-01-01 18:40:00,
2013-01-01 10:41:00,21.6,13.0,-100.00,SW,218,0.0,3.1,69,0.00,,---,0.00,VWS V14.01,2013-01-01 18:41:00,
2013-01-01 10:42:00,21.6,13.0,-100.00,South,190,2.2,3.1,69,0.00,,---,0.00,VWS V14.01,2013-01-01 18:42:00,
2013-01-01 10:43:00,21.6,13.0,-100.00,SSW,196,3.6,3.6,69,0.00,,---,0.00,VWS V14.01,2013-01-01 18:43:00,
2013-01-01 10:44:00,21.7,13.5,-100.00,SSW,207,0.0,3.6,70,0.00,,---,0.00,VWS V14.01,2013-01-01 18:44:00,
2013-01-01 10:45:00,21.9,14.0,-100.00,SSW,211,2.2,2.2,71,0.00,,---,0.00,VWS V14.01,2013-01-01 18:45:00,
2013-01-01 10:46:00,21.9,14.0,-100.00,SSW,192,2.7,3.1,71,0.00,,---,0.00,VWS V14.01,2013-01-01 18:46:00,
2013-01-01 10:47:00,21.9,14.0,-100.00,SW,229,3.1,4.0,71,0.00,,---,0.00,VWS V14.01,2013-01-01 18:47:00,
2013-01-01 10:48:00,22.1,14.1,-100.00,South,174,2.7,4.0,71,0.00,,---,0.00,VWS V14.01,2013-01-01 18:48:00,
2013-01-01 10:49:00,22.1,14.1,-100.00,WSW,241,4.0,4.0,71,0.00,,---,0.00,VWS V14.01,2013-01-01 18:49:00,
2013-01-01 10:50:00,22.3,14.0,-100.00,South,188,2.7,4.0,70,0.00,,---,0.00,VWS V14.01,2013-01-01 18:50:00,
2013-01-01 10:51:00,22.3,14.0,-100.00,South,184,4.0,4.9,70,0.00,,---,0.00,VWS V14.01,2013-01-01 18:51:00,
2013-01-01 10:52:00,22.1,13.2,-100.00,South,173,3.6,3.6,68,0.00,,---,0.00,VWS V14.01,2013-01-01 18:52:00,
2013-01-01 10:53:00,22.1,13.2,-100.00,WSW,239,2.7,3.6,68,0.00,,---,0.00,VWS V14.01,2013-01-01 18:53:00,
2013-01-01 10:54:00,22.1,13.2,-100.00,SSE,150,4.0,4.0,68,0.00,,---,0.00,VWS V14.01,2013-01-01 18:54:00,
2013-01-01 10:55:00,22.1,13.2,-100.00,SW,231,2.7,4.0,68,0.00,,---,0.00,VWS V14.01,2013-01-01 18:55:00,
2013-01-01 10:56:00,22.1,13.2,-100.00,SSW,195,3.6,3.6,68,0.00,,---,0.00,VWS V14.01,2013-01-01 18:56:00,
2013-01-01 10:57:00,22.1,13.2,-100.00,SW,231,3.6,4.0,68,0.00,,---,0.00,VWS V14.01,2013-01-01 18:57:00,
2013-01-01 10:58:00,22.1,13.2,-100.00,SE,138,4.9,4.9,68,0.00,,---,0.00,VWS V14.01,2013-01-01 18:58:00,
2013-01-01 10:59:00,22.1,13.2,-100.00,SE,136,2.7,4.9,68,0.00,,---,0.00,VWS V14.01,2013-01-01 18:59:00,
2013-01-01 11:00:00,22.1,13.2,-100.00,SSE,163,3.1,4.0,68,0.00,,---,0.00,VWS V14.01,2013-01-01 19:00:00,
2013-01-01 11:01:00,22.3,13.3,-100.00,SW,222,2.7,3.1,68,0.00,,---,0.00,VWS V14.01,2013-01-01 19:01:00,
2013-01-01 11:02:00,22.3,13.3,-100.00,SSW,210,4.0,4.0,68,0.00,,---,0.00,VWS V14.01,2013-01-01 19:02:00,
2013-01-01 11:03:00,22.3,13.0,-100.00,WSW,251,3.1,4.0,67,0.00,,---,0.00,VWS V14.01,2013-01-01 19:03:00,
2013-01-01 11:04:00,22.3,13.0,-100.00,South,170,4.0,4.0,67,0.00,,---,0.00,VWS V14.01,2013-01-01 19:04:00,
2013-01-01 11:05:00,22.5,13.2,-100.00,South,173,4.0,5.8,67,0.00,,---,0.00,VWS V14.01,2013-01-01 19:05:00,
2013-01-01 11:06:00,22.5,13.5,-100.00,South,187,3.6,4.0,68,0.00,,---,0.00,VWS V14.01,2013-01-01 19:06:00,
2013-01-01 11:07:00,22.6,13.7,-100.00,South,191,2.7,4.0,68,0.00,,---,0.00,VWS V14.01,2013-01-01 19:07:00,
2013-01-01 11:08:00,22.6,14.0,-100.00,South,179,3.6,4.0,69,0.00,,---,0.00,VWS V14.01,2013-01-01 19:08:00,
2013-01-01 11:09:00,22.8,14.2,-100.00,South,170,2.7,4.9,69,0.00,,---,0.00,VWS V14.01,2013-01-01 19:09:00,
2013-01-01 11:10:00,22.8,14.2,-100.00,SE,130,3.1,3.6,69,0.00,,---,0.00,VWS V14.01,2013-01-01 19:10:00,
2013-01-01 11:11:00,23.0,14.4,-100.00,WSW,256,3.6,4.0,69,0.00,,---,0.00,VWS V14.01,2013-01-01 19:11:00,
2013-01-01 11:12:00,23.2,13.9,-100.00,SW,218,2.7,3.6,67,0.00,,---,0.00,VWS V14.01,2013-01-01 19:12:00,
2013-01-01 11:13:00,23.4,14.0,-100.00,SW,236,3.6,3.6,67,0.00,,---,0.00,VWS V14.01,2013-01-01 19:13:00,
2013-01-01 11:14:00,23.5,13.9,-100.00,SSE,158,3.6,4.0,66,0.00,,---,0.00,VWS V14.01,2013-01-01 19:14:00,
2013-01-01 11:15:00,23.4,13.7,-100.00,SSE,152,5.4,5.4,66,0.00,,---,0.00,VWS V14.01,2013-01-01 19:15:00,
2013-01-01 11:16:00,23.4,13.7,-100.00,South,170,3.1,5.4,66,0.00,,---,0.00,VWS V14.01,2013-01-01 19:16:00,
2013-01-01 11:17:00,23.4,13.4,-100.00,South,179,0.0,4.0,65,0.00,,---,0.00,VWS V14.01,2013-01-01 19:17:00,
2013-01-01 11:18:00,23.2,12.8,-100.00,SW,220,3.1,4.0,64,0.00,,---,0.00,VWS V14.01,2013-01-01 19:18:00,
2013-01-01 11:19:00,23.0,12.6,-100.00,South,177,4.0,4.0,64,0.00,,---,0.00,VWS V14.01,2013-01-01 19:19:00,
2013-01-01 11:20:00,23.0,12.6,-100.00,SSW,193,4.0,4.0,64,0.00,,---,0.00,VWS V14.01,2013-01-01 19:20:00,
2013-01-01 11:21:00,22.8,12.5,-100.00,SSE,158,5.4,5.4,64,0.00,,---,0.00,VWS V14.01,2013-01-01 19:21:00,
2013-01-01 11:22:00,22.6,12.3,-100.00,SSW,199,2.2,4.0,64,0.00,,---,0.00,VWS V14.01,2013-01-01 19:22:00,
2013-01-01 11:23:00,22.6,12.3,-100.00,SSW,206,0.0,4.0,64,0.00,,---,0.00,VWS V14.01,2013-01-01 19:23:00,
2013-01-01 11:24:00,22.5,12.5,-100.00,SSE,151,4.9,4.9,65,0.00,,---,0.00,VWS V14.01,2013-01-01 19:24:00,
2013-01-01 11:25:00,22.3,12.3,-100.00,SSE,165,2.7,5.4,65,0.00,,---,0.00,VWS V14.01,2013-01-01 19:25:00,
2013-01-01 11:26:00,22.3,12.3,-100.00,South,190,4.9,5.4,65,0.00,,---,0.00,VWS V14.01,2013-01-01 19:26:00,
2013-01-01 11:27:00,22.3,12.7,-100.00,SSE,151,3.6,3.6,66,0.00,,---,0.00,VWS V14.01,2013-01-01 19:27:00,
2013-01-01 11:28:00,22.3,12.7,-100.00,South,173,2.7,6.3,66,0.00,,---,0.00,VWS V14.01,2013-01-01 19:28:00,
2013-01-01 11:29:00,22.1,12.5,-100.00,SW,215,3.6,4.0,66,0.00,,---,0.00,VWS V14.01,2013-01-01 19:29:00,
2013-01-01 11:30:00,22.1,12.5,-100.00,South,188,4.9,4.9,66,0.00,,---,0.00,VWS V14.01,2013-01-01 19:30:00,
2013-01-01 11:31:00,21.9,12.3,-100.00,South,185,3.1,4.9,66,0.00,,---,0.00,VWS V14.01,2013-01-01 19:31:00,
2013-01-01 11:32:00,21.9,12.3,-100.00,South,173,3.6,3.6,66,0.00,,---,0.00,VWS V14.01,2013-01-01 19:32:00,
2013-01-01 11:33:00,21.9,12.3,-100.00,South,180,3.6,3.6,66,0.00,,---,0.00,VWS V14.01,2013-01-01 19:33:00,
2013-01-01 11:34:00,21.9,12.3,-100.00,SSE,166,4.0,5.4,66,0.00,,---,0.00,VWS V14.01,2013-01-01 19:34:00,
2013-01-01 11:35:00,21.9,12.7,-100.00,South,190,2.2,4.9,67,0.00,,---,0.00,VWS V14.01,2013-01-01 19:35:00,
2013-01-01 11:36:00,22.1,12.8,-100.00,SSW,208,2.7,3.1,67,0.00,,---,0.00,VWS V14.01,2013-01-01 19:36:00,
2013-01-01 11:37:00,22.3,13.0,-100.00,South,184,4.9,4.9,67,0.00,,---,0.00,VWS V14.01,2013-01-01 19:37:00,
2013-01-01 11:38:00,22.3,13.0,-100.00,SSE,161,3.6,5.4,67,0.00,,---,0.00,VWS V14.01,2013-01-01 19:38:00,
2013-01-01 11:39:00,22.3,13.0,-100.00,SSE,162,4.0,4.0,67,0.00,,---,0.00,VWS V14.01,2013-01-01 19:39:00,
2013-01-01 11:40:00,22.3,13.0,-100.00,South,170,3.6,4.0,67,0.00,,---,0.00,VWS V14.01,2013-01-01 19:40:00,
2013-01-01 11:41:00,22.3,12.7,-100.00,WSW,246,3.6,5.4,66,0.00,,---,0.00,VWS V14.01,2013-01-01 19:41:00,
2013-01-01 11:42:00,22.5,12.8,-100.00,South,185,4.0,4.0,66,0.00,,---,0.00,VWS V14.01,2013-01-01 19:42:00,
2013-01-01 11:43:00,22.5,12.8,-100.00,South,173,3.6,4.9,66,0.00,,---,0.00,VWS V14.01,2013-01-01 19:43:00,
2013-01-01 11:44:00,22.5,12.8,-100.00,South,185,3.6,5.4,66,0.00,,---,0.00,VWS V14.01,2013-01-01 19:44:00,
2013-01-01 11:45:00,22.6,13.0,-100.00,SSE,168,3.6,3.6,66,0.00,,---,0.00,VWS V14.01,2013-01-01 19:45:00,
2013-01-01 11:46:00,22.6,13.0,-100.00,SSE,165,2.7,3.6,66,0.00,,---,0.00,VWS V14.01,2013-01-01 19:46:00,
2013-01-01 11:47:00,22.6,12.7,-100.00,South,180,3.1,4.0,65,0.00,,---,0.00,VWS V14.01,2013-01-01 19:47:00,
2013-01-01 11:48:00,22.6,12.7,-100.00,SSW,211,3.1,4.0,65,0.00,,---,0.00,VWS V14.01,2013-01-01 19:48:00,
2013-01-01 11:49:00,22.6,12.7,-100.00,SW,216,4.0,4.0,65,0.00,,---,0.00,VWS V14.01,2013-01-01 19:49:00,
2013-01-01 11:50:00,22.6,13.0,-100.00,SW,236,3.1,4.0,66,0.00,,---,0.00,VWS V14.01,2013-01-01 19:50:00,
2013-01-01 11:51:00,22.6,12.7,-100.00,South,190,4.0,5.4,65,0.00,,---,0.00,VWS V14.01,2013-01-01 19:51:00,
2013-01-01 11:52:00,22.6,12.7,-100.00,SW,232,4.9,4.9,65,0.00,,---,0.00,VWS V14.01,2013-01-01 19:52:00,
2013-01-01 11:53:00,22.6,12.7,-100.00,SSW,199,3.1,4.9,65,0.00,,---,0.00,VWS V14.01,2013-01-01 19:53:00,
2013-01-01 11:54:00,22.5,12.5,-100.00,SW,217,3.6,4.0,65,0.00,,---,0.00,VWS V14.01,2013-01-01 19:54:00,
2013-01-01 11:55:00,22.5,12.5,-100.00,SW,215,2.7,5.8,65,0.00,,---,0.00,VWS V14.01,2013-01-01 19:55:00,
2013-01-01 11:56:00,22.5,12.5,-100.00,SSW,204,4.0,4.0,65,0.00,,---,0.00,VWS V14.01,2013-01-01 19:56:00,
2013-01-01 11:57:00,22.3,12.3,-100.00,SW,225,3.1,4.0,65,0.00,,---,0.00,VWS V14.01,2013-01-01 19:57:00,
2013-01-01 11:58:00,22.3,12.3,-100.00,SSE,167,2.7,4.0,65,0.00,,---,0.00,VWS V14.01,2013-01-01 19:58:00,
2013-01-01 11:59:00,22.1,12.1,-100.00,SSE,149,6.3,6.3,65,0.00,,---,0.00,VWS V14.01,2013-01-01 19:59:00,
2013-01-01 12:00:00,22.1,12.1,-100.00,SSE,153,3.6,6.3,65,0.00,,---,0.00,VWS V14.01,2013-01-01 20:00:00,
2013-01-01 12:01:00,22.1,12.1,-100.00,SW,215,2.7,4.9,65,0.00,,---,0.00,VWS V14.01,2013-01-01 20:01:00,
2013-01-01 12:02:00,22.1,12.1,-100.00,SSE,149,4.0,4.0,65,0.00,,---,0.00,VWS V14.01,2013-01-01 20:02:00,
2013-01-01 12:03:00,22.1,12.1,-100.00,SSE,147,6.3,6.3,65,0.00,,---,0.00,VWS V14.01,2013-01-01 20:03:00,
2013-01-01 12:04:00,22.3,12.7,-100.00,South,171,6.3,6.3,66,0.00,,---,0.00,VWS V14.01,2013-01-01 20:04:00,
2013-01-01 12:05:00,22.3,12.7,-100.00,SSE,157,3.1,6.3,66,0.00,,---,0.00,VWS V14.01,2013-01-01 20:05:00,
2013-01-01 12:06:00,22.3,12.7,-100.00,SSE,147,3.6,6.3,66,0.00,,---,0.00,VWS V14.01,2013-01-01 20:06:00,
2013-01-01 12:07:00,22.5,12.5,-100.00,SSE,160,2.7,3.1,65,0.00,,---,0.00,VWS V14.01,2013-01-01 20:07:00,
2013-01-01 12:08:00,22.5,12.5,-100.00,SSE,166,3.6,5.8,65,0.00,,---,0.00,VWS V14.01,2013-01-01 20:08:00,
2013-01-01 12:09:00,22.5,12.1,-100.00,SSW,199,3.1,4.0,64,0.00,,---,0.00,VWS V14.01,2013-01-01 20:09:00,
2013-01-01 12:10:00,22.6,12.7,-100.00,SW,226,2.7,3.1,65,0.00,,---,0.00,VWS V14.01,2013-01-01 20:10:00,
2013-01-01 12:11:00,22.6,12.7,-100.00,SSW,196,3.1,4.0,65,0.00,,---,0.00,VWS V14.01,2013-01-01 20:11:00,
2013-01-01 12:12:00,22.8,12.8,-100.00,SW,219,4.0,5.8,65,0.00,,---,0.00,VWS V14.01,2013-01-01 20:12:00,
2013-01-01 12:13:00,22.8,12.8,-100.00,WSW,246,3.6,5.8,65,0.00,,---,0.00,VWS V14.01,2013-01-01 20:13:00,
2013-01-01 12:14:00,22.8,12.5,-100.00,SW,228,3.1,3.6,64,0.00,,---,0.00,VWS V14.01,2013-01-01 20:14:00,
2013-01-01 12:15:00,22.8,12.5,-100.00,SW,233,2.2,4.0,64,0.00,,---,0.00,VWS V14.01,2013-01-01 20:15:00,
2013-01-01 12:16:00,23.0,13.0,-100.00,South,186,0.0,2.7,65,0.00,,---,0.00,VWS V14.01,2013-01-01 20:16:00,
2013-01-01 12:17:00,23.0,13.0,-100.00,SSE,164,2.7,2.7,65,0.00,,---,0.00,VWS V14.01,2013-01-01 20:17:00,
2013-01-01 12:18:00,23.2,12.8,-100.00,SSE,162,3.6,4.0,64,0.00,,---,0.00,VWS V14.01,2013-01-01 20:18:00,
2013-01-01 12:19:00,23.2,12.8,-100.00,SSW,198,2.7,4.0,64,0.00,,---,0.00,VWS V14.01,2013-01-01 20:19:00,
2013-01-01 12:20:00,23.4,13.4,-100.00,SSW,193,3.6,3.6,65,0.00,,---,0.00,VWS V14.01,2013-01-01 20:20:00,
2013-01-01 12:21:00,23.5,13.5,-100.00,SW,234,2.7,3.6,65,0.00,,---,0.00,VWS V14.01,2013-01-01 20:21:00,
2013-01-01 12:22:00,23.5,13.2,-100.00,South,169,3.1,3.1,64,0.00,,---,0.00,VWS V14.01,2013-01-01 20:22:00,
2013-01-01 12:23:00,23.5,13.2,-100.00,South,178,2.7,4.0,64,0.00,,---,0.00,VWS V14.01,2013-01-01 20:23:00,
2013-01-01 12:24:00,23.7,13.0,-100.00,South,183,2.7,3.1,63,0.00,,---,0.00,VWS V14.01,2013-01-01 20:24:00,
2013-01-01 12:25:00,23.9,13.1,-100.00,SW,228,2.7,3.6,63,0.00,,---,0.00,VWS V14.01,2013-01-01 20:25:00,
2013-01-01 12:26:00,23.9,12.8,-100.00,WSW,245,3.6,4.9,62,0.00,,---,0.00,VWS V14.01,2013-01-01 20:26:00,
2013-01-01 12:27:00,23.9,12.8,-100.00,SW,219,2.7,2.7,62,0.00,,---,0.00,VWS V14.01,2013-01-01 20:27:00,
2013-01-01 12:28:00,24.1,13.0,-100.00,South,173,3.1,3.6,62,0.00,,---,0.00,VWS V14.01,2013-01-01 20:28:00,
2013-01-01 12:29:00,23.9,12.8,-100.00,South,169,3.6,3.6,62,0.00,,---,0.00,VWS V14.01,2013-01-01 20:29:00,
2013-01-01 12:30:00,24.1,13.0,-100.00,SSE,154,4.0,4.9,62,0.00,,---,0.00,VWS V14.01,2013-01-01 20:30:00,
2013-01-01 12:31:00,23.9,12.4,-100.00,SSW,201,4.0,5.4,61,0.00,,---,0.00,VWS V14.01,2013-01-01 20:31:00,
2013-01-01 12:32:00,23.9,12.4,-100.00,South,181,2.7,2.7,61,0.00,,---,0.00,VWS V14.01,2013-01-01 20:32:00,
2013-01-01 12:33:00,23.9,12.4,-100.00,SSE,153,3.6,3.6,61,0.00,,---,0.00,VWS V14.01,2013-01-01 20:33:00,
2013-01-01 12:34:00,23.9,12.4,-100.00,South,174,5.4,5.4,61,0.00,,---,0.00,VWS V14.01,2013-01-01 20:34:00,
2013-01-01 12:35:00,23.9,12.1,-100.00,SSE,158,4.0,5.4,60,0.00,,---,0.00,VWS V14.01,2013-01-01 20:35:00,
2013-01-01 12:36:00,23.7,11.9,-100.00,SSE,155,3.1,4.0,60,0.00,,---,0.00,VWS V14.01,2013-01-01 20:36:00,
2013-01-01 12:37:00,23.7,12.2,-100.00,South,171,3.6,5.8,61,0.00,,---,0.00,VWS V14.01,2013-01-01 20:37:00,
2013-01-01 12:38:00,23.7,11.9,-100.00,SW,221,3.1,5.8,60,0.00,,---,0.00,VWS V14.01,2013-01-01 20:38:00,
2013-01-01 12:39:00,23.7,12.2,-100.00,SE,146,4.0,4.0,61,0.00,,---,0.00,VWS V14.01,2013-01-01 20:39:00,
2013-01-01 12:40:00,23.7,12.2,-100.00,SSE,167,6.3,6.3,61,0.00,,---,0.00,VWS V14.01,2013-01-01 20:40:00,
2013-01-01 12:41:00,23.7,12.2,-100.00,South,178,4.0,6.3,61,0.00,,,0.00,VWS V14.01,2013-01-01 20:41:00,
2013-01-01 12:42:00,23.7,12.6,-100.00,SSW,193,2.2,2.2,62,0.00,,---,0.00,VWS V14.01,2013-01-01 20:42:00,
2013-01-01 12:43:00,23.7,12.2,-100.00,WSW,239,3.1,3.1,61,0.00,,---,0.00,VWS V14.01,2013-01-01 20:43:00,
2013-01-01 12:44:00,23.7,12.6,-100.00,SSW,198,3.1,4.0,62,0.00,,---,0.00,VWS V14.01,2013-01-01 20:44:00,
2013-01-01 12:45:00,23.5,12.4,-100.00,SSW,199,3.1,3.6,62,0.00,,---,0.00,VWS V14.01,2013-01-01 20:45:00,
2013-01-01 12:46:00,23.7,12.6,-100.00,WSW,240,2.7,3.1,62,0.00,,---,0.00,VWS V14.01,2013-01-01 20:46:00,
2013-01-01 12:47:00,23.5,12.4,-100.00,WSW,250,0.0,0.0,62,0.00,,---,0.00,VWS V14.01,2013-01-01 20:47:00,
2013-01-01 12:48:00,23.5,12.4,-100.00,WSW,238,0.0,0.0,62,0.00,,---,0.00,VWS V14.01,2013-01-01 20:48:00,
2013-01-01 12:49:00,23.5,12.4,-100.00,SSE,147,2.7,4.0,62,0.00,,---,0.00,VWS V14.01,2013-01-01 20:49:00,
2013-01-01 12:50:00,23.5,12.8,-100.00,South,189,4.0,4.0,63,0.00,,---,0.00,VWS V14.01,2013-01-01 20:50:00,
2013-01-01 12:51:00,23.5,12.8,-100.00,SSW,207,4.9,4.9,63,0.00,,---,0.00,VWS V14.01,2013-01-01 20:51:00,
2013-01-01 12:52:00,23.5,12.8,-100.00,SSE,159,3.1,3.1,63,0.00,,---,0.00,VWS V14.01,2013-01-01 20:52:00,
2013-01-01 12:53:00,23.5,12.8,-100.00,SSE,164,4.0,4.0,63,0.00,,---,0.00,VWS V14.01,2013-01-01 20:53:00,
2013-01-01 12:54:00,23.5,12.8,-100.00,SSW,206,0.0,4.0,63,0.00,,---,0.00,VWS V14.01,2013-01-01 20:54:00,
2013-01-01 12:55:00,23.5,12.4,-100.00,SW,216,3.1,4.0,62,0.00,,,0.00,VWS V14.01,2013-01-01 20:55:00,
2013-01-01 12:56:00,23.5,12.4,-100.00,SSW,210,3.1,3.1,62,0.00,,---,0.00,VWS V14.01,2013-01-01 20:56:00,
2013-01-01 12:57:00,23.5,12.4,-100.00,SSW,207,0.0,2.2,62,0.00,,---,0.00,VWS V14.01,2013-01-01 20:57:00,
2013-01-01 12:58:00,23.5,12.4,-100.00,South,169,3.1,3.1,62,0.00,,---,0.00,VWS V14.01,2013-01-01 20:58:00,
2013-01-01 12:59:00,23.5,12.4,-100.00,South,175,0.0,3.6,62,0.00,,---,0.00,VWS V14.01,2013-01-01 20:59:00,
2013-01-01 13:00:00,23.5,12.4,-100.00,South,179,2.2,2.2,62,0.00,,---,0.00,VWS V14.01,2013-01-01 21:00:00,
2013-01-01 13:01:00,23.5,12.4,-100.00,SSE,163,4.0,4.0,62,0.00,,---,0.00,VWS V14.01,2013-01-01 21:01:00,
2013-01-01 13:02:00,23.5,12.4,-100.00,SW,219,2.7,2.7,62,0.00,,---,0.00,VWS V14.01,2013-01-01 21:02:00,
2013-01-01 13:03:00,23.5,12.8,-100.00,SW,229,0.0,3.1,63,0.00,,---,0.00,VWS V14.01,2013-01-01 21:03:00,
2013-01-01 13:04:00,23.5,12.4,-100.00,South,170,2.2,2.2,62,0.00,,---,0.00,VWS V14.01,2013-01-01 21:04:00,
2013-01-01 13:05:00,23.4,11.9,-100.00,SSE,156,3.6,4.0,61,0.00,,---,0.00,VWS V14.01,2013-01-01 21:05:00,
2013-01-01 13:06:00,23.4,11.9,-100.00,SSE,167,3.1,3.6,61,0.00,,---,0.00,VWS V14.01,2013-01-01 21:06:00,
2013-01-01 13:07:00,23.4,11.9,-100.00,SSW,211,2.2,2.7,61,0.00,,---,0.00,VWS V14.01,2013-01-01 21:07:00,
2013-01-01 13:08:00,23.4,12.3,-100.00,SSE,153,2.7,2.7,62,0.00,,,0.00,VWS V14.01,2013-01-01 21:08:00,
2013-01-01 13:09:00,23.4,12.3,-100.00,South,186,0.0,2.7,62,0.00,,---,0.00,VWS V14.01,2013-01-01 21:09:00,
2013-01-01 13:10:00,23.4,12.3,-100.00,South,184,0.0,0.0,62,0.00,,---,0.00,VWS V14.01,2013-01-01 21:10:00,
2013-01-01 13:11:00,23.4,12.3,-100.00,South,176,0.0,0.0,62,0.00,,,0.00,VWS V14.01,2013-01-01 21:11:00,
2013-01-01 13:12:00,23.2,12.1,-100.00,SSW,210,0.0,0.0,62,0.00,,---,0.00,VWS V14.01,2013-01-01 21:12:00,
2013-01-01 13:13:00,23.2,12.1,-100.00,WSW,248,0.0,0.0,62,0.00,,---,0.00,VWS V14.01,2013-01-01 21:13:00,
2013-01-01 13:14:00,23.2,12.1,-100.00,WSW,241,4.0,4.0,62,0.00,,---,0.00,VWS V14.01,2013-01-01 21:14:00,
2013-01-01 13:15:00,23.2,12.1,-100.00,South,176,2.7,4.0,62,0.00,,---,0.00,VWS V14.01,2013-01-01 21:15:00,
2013-01-01 13:16:00,23.2,12.1,-100.00,South,190,0.0,3.1,62,0.00,,---,0.00,VWS V14.01,2013-01-01 21:16:00,
2013-01-01 13:17:00,23.2,12.1,-100.00,SW,234,0.0,0.0,62,0.00,,---,0.00,VWS V14.01,2013-01-01 21:17:00,
2013-01-01 13:18:00,23.4,12.3,-100.00,SW,234,0.0,0.0,62,0.00,,---,0.00,VWS V14.01,2013-01-01 21:18:00,
2013-01-01 13:19:00,23.2,12.1,-100.00,SW,234,0.0,0.0,62,0.00,,---,0.00,VWS V14.01,2013-01-01 21:19:00,
2013-01-01 13:20:00,23.2,12.1,-100.00,SW,234,0.0,0.0,62,0.00,,---,0.00,VWS V14.01,2013-01-01 21:20:00,
2013-01-01 13:21:00,23.2,12.1,-100.00,WSW,258,0.0,0.0,62,0.00,,---,0.00,VWS V14.01,2013-01-01 21:21:00,
2013-01-01 13:22:00,23.2,12.5,-100.00,West,272,0.0,0.0,63,0.00,,---,0.00,VWS V14.01,2013-01-01 21:22:00,
2013-01-01 13:23:00,23.2,12.5,-100.00,South,180,0.0,0.0,63,0.00,,---,0.00,VWS V14.01,2013-01-01 21:23:00,
2013-01-01 13:24:00,23.2,12.5,-100.00,South,180,0.0,0.0,63,0.00,,---,0.00,VWS V14.01,2013-01-01 21:24:00,
2013-01-01 13:25:00,23.2,12.5,-100.00,SSW,200,0.0,0.0,63,0.00,,---,0.00,VWS V14.01,2013-01-01 21:25:00,
2013-01-01 13:26:00,23.2,12.5,-100.00,SSW,193,0.0,0.0,63,0.00,,---,0.00,VWS V14.01,2013-01-01 21:26:00,
2013-01-01 13:27:00,23.2,12.5,-100.00,SSW,194,2.2,3.6,63,0.00,,---,0.00,VWS V14.01,2013-01-01 21:27:00,
2013-01-01 13:28:00,23.2,12.5,-100.00,ENE,72,0.0,3.6,63,0.00,,---,0.00,VWS V14.01,2013-01-01 21:28:00,
2013-01-01 13:29:00,23.2,12.5,-100.00,ENE,72,0.0,2.2,63,0.00,,---,0.00,VWS V14.01,2013-01-01 21:29:00,
2013-01-01 13:30:00,23.4,12.6,-100.00,ENE,72,0.0,0.0,63,0.00,,---,0.00,VWS V14.01,2013-01-01 21:30:00,
2013-01-01 13:31:00,23.4,12.3,-100.00,WNW,295,0.0,0.0,62,0.00,,---,0.00,VWS V14.01,2013-01-01 21:31:00,
2013-01-01 13:32:00,23.4,11.9,-100.00,WNW,303,2.7,2.7,61,0.00,,---,0.00,VWS V14.01,2013-01-01 21:32:00,
2013-01-01 13:33:00,23.2,11.7,-100.00,WSW,249,2.2,3.1,61,0.00,,---,0.00,VWS V14.01,2013-01-01 21:33:00,
2013-01-01 13:34:00,23.2,12.1,-100.00,WSW,251,2.2,3.1,62,0.00,,---,0.00,VWS V14.01,2013-01-01 21:34:00,
2013-01-01 13:35:00,23.2,11.7,-100.00,WNW,291,4.0,4.0,61,0.00,,---,0.00,VWS V14.01,2013-01-01 21:35:00,
2013-01-01 13:36:00,23.0,11.9,-100.00,WSW,251,2.7,4.0,62,0.00,,---,0.00,VWS V14.01,2013-01-01 21:36:00,
2013-01-01 13:37:00,23.0,11.9,-100.00,WSW,240,0.0,0.0,62,0.00,,---,0.00,VWS V14.01,2013-01-01 21:37:00,
2013-01-01 13:38:00,23.0,11.9,-100.00,WSW,240,0.0,0.0,62,0.00,,---,0.00,VWS V14.01,2013-01-01 21:38:00,
2013-01-01 13:39:00,23.0,11.9,-100.00,SE,139,0.0,0.0,62,0.00,,---,0.00,VWS V14.01,2013-01-01 21:39:00,
2013-01-01 13:40:00,23.0,12.3,-100.00,WNW,291,0.0,0.0,63,0.00,,---,0.00,VWS V14.01,2013-01-01 21:40:00,
2013-01-01 13:41:00,23.0,12.3,-100.00,WSW,237,3.6,3.6,63,0.00,,---,0.00,VWS V14.01,2013-01-01 21:41:00,
2013-01-01 13:42:00,23.0,12.3,-100.00,WSW,249,0.0,0.0,63,0.00,,---,0.00,VWS V14.01,2013-01-01 21:42:00,
2013-01-01 13:43:00,23.0,11.9,-100.00,West,259,0.0,0.0,62,0.00,,---,0.00,VWS V14.01,2013-01-01 21:43:00,
2013-01-01 13:44:00,23.0,11.9,-100.00,West,275,4.9,4.9,62,0.00,,---,0.00,VWS V14.01,2013-01-01 21:44:00,
2013-01-01 13:45:00,23.0,11.9,-100.00,WSW,255,2.7,4.9,62,0.00,,---,0.00,VWS V14.01,2013-01-01 21:45:00,
2013-01-01 13:46:00,23.0,11.9,-100.00,SW,215,2.7,2.7,62,0.00,,---,0.00,VWS V14.01,2013-01-01 21:46:00,
2013-01-01 13:47:00,23.0,12.3,-100.00,WSW,245,3.1,3.1,63,0.00,,---,0.00,VWS V14.01,2013-01-01 21:47:00,
2013-01-01 13:48:00,23.0,12.3,-100.00,WSW,248,2.7,4.0,63,0.00,,---,0.00,VWS V14.01,2013-01-01 21:48:00,
2013-01-01 13:49:00,23.0,12.3,-100.00,WSW,245,2.7,3.6,63,0.00,,---,0.00,VWS V14.01,2013-01-01 21:49:00,
2013-01-01 13:50:00,23.2,12.5,-100.00,WNW,290,2.7,4.0,63,0.00,,---,0.00,VWS V14.01,2013-01-01 21:50:00,
2013-01-01 13:51:00,23.2,12.1,-100.00,WNW,290,0.0,2.7,62,0.00,,---,0.00,VWS V14.01,2013-01-01 21:51:00,
2013-01-01 13:52:00,23.2,11.7,-100.00,NW,305,0.0,0.0,61,0.00,,---,0.00,VWS V14.01,2013-01-01 21:52:00,
2013-01-01 13:53:00,23.2,11.7,-100.00,NW,305,0.0,0.0,61,0.00,,---,0.00,VWS V14.01,2013-01-01 21:53:00,
2013-01-01 13:54:00,23.2,11.4,-100.00,WNW,294,0.0,0.0,60,0.00,,---,0.00,VWS V14.01,2013-01-01 21:54:00,
2013-01-01 13:55:00,23.2,11.4,-100.00,WNW,294,0.0,0.0,60,0.00,,---,0.00,VWS V14.01,2013-01-01 21:55:00,
2013-01-01 13:56:00,23.2,11.4,-100.00,SW,222,0.0,0.0,60,0.00,,---,0.00,VWS V14.01,2013-01-01 21:56:00,
2013-01-01 13:57:00,23.2,11.4,-100.00,West,268,0.0,0.0,60,0.00,,---,0.00,VWS V14.01,2013-01-01 21:57:00,
2013-01-01 13:58:00,23.2,11.4,-100.00,West,277,0.0,0.0,60,0.00,,---,0.00,VWS V14.01,2013-01-01 21:58:00,
2013-01-01 13:59:00,23.2,11.4,-100.00,West,277,0.0,0.0,60,0.00,,---,0.00,VWS V14.01,2013-01-01 21:59:00,
2013-01-01 14:00:00,23.2,11.4,-100.00,West,277,0.0,0.0,60,0.00,,---,0.00,VWS V14.01,2013-01-01 22:00:00,
2013-01-01 14:01:00,23.4,11.5,-100.00,West,265,0.0,0.0,60,0.00,,---,0.00,VWS V14.01,2013-01-01 22:01:00,
2013-01-01 14:02:00,23.4,11.5,-100.00,West,265,0.0,0.0,60,0.00,,---,0.00,VWS V14.01,2013-01-01 22:02:00,
2013-01-01 14:03:00,23.4,11.5,-100.00,West,265,0.0,0.0,60,0.00,,---,0.00,VWS V14.01,2013-01-01 22:03:00,
2013-01-01 14:04:00,23.4,11.5,-100.00,WNW,299,0.0,0.0,60,0.00,,---,0.00,VWS V14.01,2013-01-01 22:04:00,
2013-01-01 14:05:00,23.4,11.9,-100.00,NNW,329,0.0,0.0,61,0.00,,---,0.00,VWS V14.01,2013-01-01 22:05:00,
2013-01-01 14:06:00,23.5,12.1,-100.00,NW,317,0.0,0.0,61,0.00,,---,0.00,VWS V14.01,2013-01-01 22:06:00,
2013-01-01 14:07:00,23.5,12.1,-100.00,North,353,0.0,0.0,61,0.00,,---,0.00,VWS V14.01,2013-01-01 22:07:00,
2013-01-01 14:08:00,23.5,11.7,-100.00,NNW,341,0.0,0.0,60,0.00,,---,0.00,VWS V14.01,2013-01-01 22:08:00,
2013-01-01 14:09:00,23.5,11.7,-100.00,NW,314,2.2,2.7,60,0.00,,---,0.00,VWS V14.01,2013-01-01 22:09:00,
2013-01-01 14:10:00,23.5,11.7,-100.00,NW,314,0.0,2.7,60,0.00,,---,0.00,VWS V14.01,2013-01-01 22:10:00,
2013-01-01 14:11:00,23.5,11.7,-100.00,NNW,345,0.0,0.0,60,0.00,,---,0.00,VWS V14.01,2013-01-01 22:11:00,
2013-01-01 14:12:00,23.7,11.9,-100.00,WNW,293,2.2,2.2,60,0.00,,---,0.00,VWS V14.01,2013-01-01 22:12:00,
2013-01-01 14:13:00,23.7,11.9,-100.00,North,353,3.6,3.6,60,0.00,,---,0.00,VWS V14.01,2013-01-01 22:13:00,
2013-01-01 14:14:00,23.7,11.9,-100.00,NW,326,3.1,3.6,60,0.00,,---,0.00,VWS V14.01,2013-01-01 22:14:00,
2013-01-01 14:15:00,23.7,11.9,-100.00,NNE,24,3.1,5.4,60,0.00,,---,0.00,VWS V14.01,2013-01-01 22:15:00,
2013-01-01 14:16:00,23.7,11.9,-100.00,North,349,3.6,3.6,60,0.00,,---,0.00,VWS V14.01,2013-01-01 22:16:00,
2013-01-01 14:17:00,23.7,11.9,-100.00,NNW,348,0.0,0.0,60,0.00,,---,0.00,VWS V14.01,2013-01-01 22:17:00,
2013-01-01 14:18:00,23.7,11.9,-100.00,ENE,69,2.7,3.6,60,0.00,,---,0.00,VWS V14.01,2013-01-01 22:18:00,
2013-01-01 14:19:00,23.7,11.9,-100.00,North,11,2.7,3.1,60,0.00,,---,0.00,VWS V14.01,2013-01-01 22:19:00,
2013-01-01 14:20:00,23.7,11.9,-100.00,North,357,0.0,2.7,60,0.00,,---,0.00,VWS V14.01,2013-01-01 22:20:00,
2013-01-01 14:21:00,23.7,11.9,-100.00,North,4,5.4,5.4,60,0.00,,---,0.00,VWS V14.01,2013-01-01 22:21:00,
2013-01-01 14:22:00,23.7,11.9,-100.00,North,357,0.0,0.0,60,0.00,,---,0.00,VWS V14.01,2013-01-01 22:22:00,
2013-01-01 14:23:00,23.7,12.2,-100.00,NNE,20,0.0,4.0,61,0.00,,---,0.00,VWS V14.01,2013-01-01 22:23:00,
2013-01-01 14:24:00,23.7,12.2,-100.00,NNE,23,3.1,5.4,61,0.00,,---,0.00,VWS V14.01,2013-01-01 22:24:00,
2013-01-01 14:25:00,23.7,12.2,-100.00,NNE,23,0.0,3.1,61,0.00,,---,0.00,VWS V14.01,2013-01-01 22:25:00,
2013-01-01 14:26:00,23.7,12.2,-100.00,North,353,0.0,0.0,61,0.00,,---,0.00,VWS V14.01,2013-01-01 22:26:00,
2013-01-01 14:27:00,23.7,12.2,-100.00,North,2,2.7,3.1,61,0.00,,---,0.00,VWS V14.01,2013-01-01 22:27:00,
2013-01-01 14:28:00,23.7,12.2,-100.00,North,353,3.6,3.6,61,0.00,,---,0.00,VWS V14.01,2013-01-01 22:28:00,
2013-01-01 14:29:00,23.7,12.2,-100.00,North,6,0.0,3.6,61,0.00,,---,0.00,VWS V14.01,2013-01-01 22:29:00,
2013-01-01 14:30:00,23.7,12.2,-100.00,North,8,2.7,2.7,61,0.00,,---,0.00,VWS V14.01,2013-01-01 22:30:00,
2013-01-01 14:31:00,23.7,12.2,-100.00,North,350,3.1,3.1,61,0.00,,---,0.00,VWS V14.01,2013-01-01 22:31:00,
2013-01-01 14:32:00,23.7,12.2,-100.00,NNW,334,3.6,3.6,61,0.00,,---,0.00,VWS V14.01,2013-01-01 22:32:00,
2013-01-01 14:33:00,23.7,12.2,-100.00,NNW,340,3.1,5.4,61,0.00,,---,0.00,VWS V14.01,2013-01-01 22:33:00,
2013-01-01 14:34:00,23.7,12.2,-100.00,NNW,340,2.2,3.6,61,0.00,,---,0.00,VWS V14.01,2013-01-01 22:34:00,
2013-01-01 14:35:00,23.7,12.2,-100.00,North,0,0.0,2.2,61,0.00,,---,0.00,VWS V14.01,2013-01-01 22:35:00,
2013-01-01 14:36:00,23.7,12.2,-100.00,NW,325,0.0,0.0,61,0.00,,---,0.00,VWS V14.01,2013-01-01 22:36:00,
2013-01-01 14:37:00,23.7,12.2,-100.00,NNW,339,2.2,2.7,61,0.00,,---,0.00,VWS V14.01,2013-01-01 22:37:00,
2013-01-01 14:38:00,23.7,12.6,-100.00,NNW,339,2.2,2.7,62,0.00,,---,0.00,VWS V14.01,2013-01-01 22:38:00,
2013-01-01 14:39:00,23.7,12.6,-100.00,NNW,338,2.2,3.1,62,0.00,,---,0.00,VWS V14.01,2013-01-01 22:39:00,
2013-01-01 14:40:00,23.7,12.2,-100.00,NW,321,0.0,3.1,61,0.00,,---,0.00,VWS V14.01,2013-01-01 22:40:00,
2013-01-01 14:41:00,23.7,12.2,-100.00,North,353,3.1,3.1,61,0.00,,---,0.00,VWS V14.01,2013-01-01 22:41:00,
2013-01-01 14:42:00,23.7,12.2,-100.00,North,349,2.2,3.6,61,0.00,,---,0.00,VWS V14.01,2013-01-01 22:42:00,
2013-01-01 14:43:00,23.5,12.1,-100.00,North,349,0.0,3.6,61,0.00,,---,0.00,VWS V14.01,2013-01-01 22:43:00,
2013-01-01 14:44:00,23.5,12.1,-100.00,NNE,22,0.0,0.0,61,0.00,,---,0.00,VWS V14.01,2013-01-01 22:44:00,
2013-01-01 14:45:00,23.5,12.1,-100.00,NNE,29,0.0,0.0,61,0.00,,---,0.00,VWS V14.01,2013-01-01 22:45:00,
2013-01-01 14:46:00,23.5,12.1,-100.00,North,357,2.7,2.7,61,0.00,,---,0.00,VWS V14.01,2013-01-01 22:46:00,
2013-01-01 14:47:00,23.4,11.9,-100.00,NE,38,3.6,3.6,61,0.00,,---,0.00,VWS V14.01,2013-01-01 22:47:00,
2013-01-01 14:48:00,23.4,11.9,-100.00,NE,51,0.0,3.6,61,0.00,,---,0.00,VWS V14.01,2013-01-01 22:48:00,
2013-01-01 14:49:00,23.2,11.7,-100.00,ENE,64,3.1,3.1,61,0.00,,---,0.00,VWS V14.01,2013-01-01 22:49:00,
2013-01-01 14:50:00,23.2,11.7,-100.00,NW,306,0.0,3.1,61,0.00,,---,0.00,VWS V14.01,2013-01-01 22:50:00,
2013-01-01 14:51:00,23.2,11.7,-100.00,NNW,331,3.1,3.6,61,0.00,,---,0.00,VWS V14.01,2013-01-01 22:51:00,
2013-01-01 14:52:00,23.0,11.9,-100.00,North,353,3.1,3.1,62,0.00,,---,0.00,VWS V14.01,2013-01-01 22:52:00,
2013-01-01 14:53:00,23.0,11.9,-100.00,North,353,2.2,5.4,62,0.00,,---,0.00,VWS V14.01,2013-01-01 22:53:00,
2013-01-01 14:54:00,23.0,11.9,-100.00,NW,313,0.0,2.2,62,0.00,,---,0.00,VWS V14.01,2013-01-01 22:54:00,
2013-01-01 14:55:00,22.8,11.8,-100.00,NNE,27,4.9,5.8,62,0.00,,---,0.00,VWS V14.01,2013-01-01 22:55:00,
2013-01-01 14:56:00,22.8,11.8,-100.00,NNE,22,0.0,4.9,62,0.00,,---,0.00,VWS V14.01,2013-01-01 22:56:00,
2013-01-01 14:57:00,22.8,12.1,-100.00,North,9,0.0,0.0,63,0.00,,---,0.00,VWS V14.01,2013-01-01 22:57:00,
2013-01-01 14:58:00,22.6,11.9,-100.00,East,83,0.0,0.0,63,0.00,,---,0.00,VWS V14.01,2013-01-01 22:58:00,
2013-01-01 14:59:00,22.6,11.9,-100.00,East,83,0.0,0.0,63,0.00,,---,0.00,VWS V14.01,2013-01-01 22:59:00,
2013-01-01 15:00:00,22.6,11.9,-100.00,ENE,64,0.0,0.0,63,0.00,,---,0.00,VWS V14.01,2013-01-01 23:00:00,
2013-01-01 15:01:00,22.5,11.8,-100.00,ENE,72,0.0,0.0,63,0.00,,---,0.00,VWS V14.01,2013-01-01 23:01:00,
2013-01-01 15:02:00,22.5,11.8,-100.00,North,0,0.0,0.0,63,0.00,,---,0.00,VWS V14.01,2013-01-01 23:02:00,
2013-01-01 15:03:00,22.5,11.8,-100.00,ESE,114,0.0,0.0,63,0.00,,---,0.00,VWS V14.01,2013-01-01 23:03:00,
2013-01-01 15:04:00,22.3,11.6,-100.00,East,92,2.2,4.0,63,0.00,,---,0.00,VWS V14.01,2013-01-01 23:04:00,
2013-01-01 15:05:00,22.3,11.6,-100.00,NNW,343,2.7,5.8,63,0.00,,---,0.00,VWS V14.01,2013-01-01 23:05:00,
2013-01-01 15:06:00,22.3,12.0,-100.00,NE,43,0.0,3.6,64,0.00,,---,0.00,VWS V14.01,2013-01-01 23:06:00,
2013-01-01 15:07:00,22.1,11.8,-100.00,NNW,332,0.0,2.7,64,0.00,,---,0.00,VWS V14.01,2013-01-01 23:07:00,
2013-01-01 15:08:00,22.1,11.8,-100.00,North,353,4.9,6.3,64,0.00,,---,0.00,VWS V14.01,2013-01-01 23:08:00,
2013-01-01 15:09:00,22.1,11.8,-100.00,NE,45,0.0,4.9,64,0.00,,---,0.00,VWS V14.01,2013-01-01 23:09:00,
2013-01-01 15:10:00,22.1,11.8,-100.00,NNE,14,0.0,0.0,64,0.00,,---,0.00,VWS V14.01,2013-01-01 23:10:00,
2013-01-01 15:11:00,22.1,11.8,-100.00,North,357,0.0,0.0,64,0.00,,---,0.00,VWS V14.01,2013-01-01 23:11:00,
2013-01-01 15:12:00,21.9,11.6,-100.00,ESE,106,0.0,0.0,64,0.00,,---,0.00,VWS V14.01,2013-01-01 23:12:00,
2013-01-01 15:13:00,21.9,11.6,-100.00,ENE,77,0.0,0.0,64,0.00,,---,0.00,VWS V14.01,2013-01-01 23:13:00,
2013-01-01 15:14:00,21.9,11.6,-100.00,ENE,60,0.0,0.0,64,0.00,,---,0.00,VWS V14.01,2013-01-01 23:14:00,
2013-01-01 15:15:00,21.9,11.6,-100.00,NNE,32,3.6,3.6,64,0.00,,---,0.00,VWS V14.01,2013-01-01 23:15:00,
2013-01-01 15:16:00,21.9,11.6,-100.00,NNW,342,3.1,3.6,64,0.00,,---,0.00,VWS V14.01,2013-01-01 23:16:00,
2013-01-01 15:17:00,21.9,11.6,-100.00,North,0,0.0,0.0,64,0.00,,---,0.00,VWS V14.01,2013-01-01 23:17:00,
2013-01-01 15:18:00,21.9,11.6,-100.00,ENE,78,0.0,0.0,64,0.00,,---,0.00,VWS V14.01,2013-01-01 23:18:00,
2013-01-01 15:19:00,21.9,11.6,-100.00,ENE,78,0.0,0.0,64,0.00,,---,0.00,VWS V14.01,2013-01-01 23:19:00,
2013-01-01 15:20:00,21.7,11.8,-100.00,ENE,78,0.0,0.0,65,0.00,,---,0.00,VWS V14.01,2013-01-01 23:20:00,
2013-01-01 15:21:00,21.7,11.8,-100.00,NNW,340,0.0,0.0,65,0.00,,---,0.00,VWS V14.01,2013-01-01 23:21:00,
2013-01-01 15:22:00,21.7,11.8,-100.00,NE,51,4.0,4.0,65,0.00,,---,0.00,VWS V14.01,2013-01-01 23:22:00,
2013-01-01 15:23:00,21.6,11.6,-100.00,North,10,0.0,4.0,65,0.00,,---,0.00,VWS V14.01,2013-01-01 23:23:00,
2013-01-01 15:24:00,21.6,11.6,-100.00,ESE,116,2.7,4.0,65,0.00,,---,0.00,VWS V14.01,2013-01-01 23:24:00,
2013-01-01 15:25:00,21.6,11.6,-100.00,North,0,3.1,4.0,65,0.00,,---,0.00,VWS V14.01,2013-01-01 23:25:00,
2013-01-01 15:26:00,21.4,11.5,-100.00,ESE,115,2.7,3.1,65,0.00,,---,0.00,VWS V14.01,2013-01-01 23:26:00,
2013-01-01 15:27:00,21.4,11.5,-100.00,East,81,2.7,2.7,65,0.00,,---,0.00,VWS V14.01,2013-01-01 23:27:00,
2013-01-01 15:28:00,21.2,11.6,-100.00,ENE,70,0.0,2.7,66,0.00,,---,0.00,VWS V14.01,2013-01-01 23:28:00,
2013-01-01 15:29:00,21.2,11.6,-100.00,SE,137,0.0,3.1,66,0.00,,---,0.00,VWS V14.01,2013-01-01 23:29:00,
2013-01-01 15:30:00,21.0,11.8,-100.00,NNE,32,0.0,0.0,67,0.00,,,0.00,VWS V14.01,2013-01-01 23:30:00,
2013-01-01 15:31:00,21.0,11.8,-100.00,North,353,0.0,0.0,67,0.00,,,0.00,VWS V14.01,2013-01-01 23:31:00,
2013-01-01 15:32:00,20.8,12.0,-100.00,North,353,0.0,0.0,68,0.00,,---,0.00,VWS V14.01,2013-01-01 23:32:00,
2013-01-01 15:33:00,20.8,12.0,-100.00,NNW,341,4.9,4.9,68,0.00,,,0.00,VWS V14.01,2013-01-01 23:33:00,
2013-01-01 15:34:00,20.7,11.8,-100.00,NE,50,5.4,5.4,68,0.00,,,0.00,VWS V14.01,2013-01-01 23:34:00,
2013-01-01 15:35:00,20.7,12.1,-100.00,NNW,341,3.1,5.4,69,0.00,,,0.00,VWS V14.01,2013-01-01 23:35:00,
2013-01-01 15:39:00,20.3,12.4,-100.00,SE,124,2.7,2.7,71,0.00,,---,0.00,VWS V14.01,2013-01-01 23:39:00,
2013-01-01 15:40:00,20.3,12.4,-100.00,NW,315,3.6,3.6,71,0.00,,,0.00,VWS V14.01,2013-01-01 23:40:00,
2013-01-01 15:41:00,20.1,12.2,-100.00,ENE,69,0.0,5.4,71,0.00,,,0.00,VWS V14.01,2013-01-01 23:41:00,
2013-01-01 15:42:00,20.1,12.2,-100.00,North,0,0.0,3.1,71,0.00,,,0.00,VWS V14.01,2013-01-01 23:42:00,
2013-01-01 15:43:00,19.9,12.4,-100.00,East,87,0.0,0.0,72,0.00,,,0.00,VWS V14.01,2013-01-01 23:43:00,
2013-01-01 15:44:00,19.9,12.4,-100.00,North,353,2.7,2.7,72,0.00,,---,0.00,VWS V14.01,2013-01-01 23:44:00,
2013-01-01 15:45:00,19.9,12.7,-100.00,NNW,342,2.2,2.7,73,0.00,,,0.00,VWS V14.01,2013-01-01 23:45:00,
2013-01-01 15:46:00,19.8,12.5,-100.00,ENE,78,0.0,4.9,73,0.00,,,0.00,VWS V14.01,2013-01-01 23:46:00,
2013-01-01 15:47:00,19.8,12.5,-100.00,North,3,4.0,5.4,73,0.00,,,0.00,VWS V14.01,2013-01-01 23:47:00,
2013-01-01 15:48:00,19.8,12.5,-100.00,ENE,62,3.6,4.0,73,0.00,,,0.00,VWS V14.01,2013-01-01 23:48:00,
2013-01-01 15:49:00,19.6,12.4,-100.00,North,0,3.6,4.0,73,0.00,,---,0.00,VWS V14.01,2013-01-01 23:49:00,
2013-01-01 15:50:00,19.6,12.6,-100.00,ESE,111,0.0,4.0,74,0.00,,,0.00,VWS V14.01,2013-01-01 23:50:00,
2013-01-01 15:51:00,19.6,12.6,-100.00,NE,40,3.6,3.6,74,0.00,,,0.00,VWS V14.01,2013-01-01 23:51:00,
2013-01-01 15:52:00,19.6,13.0,-100.00,North,9,3.6,4.0,75,0.00,,,0.00,VWS V14.01,2013-01-01 23:52:00,
2013-01-01 15:53:00,19.4,12.8,-100.00,NNW,335,0.0,4.0,75,0.00,,,0.00,VWS V14.01,2013-01-01 23:53:00,
2013-01-01 15:54:00,19.4,12.8,-100.00,NE,39,2.2,2.7,75,0.00,,---,0.00,VWS V14.01,2013-01-01 23:54:00,
2013-01-01 15:55:00,19.4,12.8,-100.00,NNW,342,0.0,2.7,75,0.00,,,0.00,VWS V14.01,2013-01-01 23:55:00,
2013-01-01 15:56:00,19.4,12.8,-100.00,North,7,0.0,3.1,75,0.00,,,0.00,VWS V14.01,2013-01-01 23:56:00,
2013-01-01 15:57:00,19.4,13.1,-100.00,North,4,0.0,0.0,76,0.00,,,0.00,VWS V14.01,2013-01-01 23:57:00,
2013-01-01 15:58:00,19.2,12.9,-100.00,NNE,18,0.0,4.9,76,0.00,,,0.00,VWS V14.01,2013-01-01 23:58:00,
2013-01-01 15:59:00,19.2,12.9,-100.00,North,357,3.1,3.1,76,0.00,,---,0.00,VWS V14.01,2013-01-01 23:59:00,
2013-01-01 16:00:00,19.2,12.9,-100.00,NNW,340,2.2,3.1,76,0.00,,,0.00,VWS V14.01,2013-01-02 00:00:00,
2013-01-01 16:01:00,19.2,12.9,-100.00,NNW,342,4.0,4.0,76,0.00,,,0.00,VWS V14.01,2013-01-02 00:01:00,
2013-01-01 16:02:00,19.2,13.2,-100.00,NNW,329,3.6,4.0,77,0.00,,,0.00,VWS V14.01,2013-01-02 00:02:00,
2013-01-01 16:03:00,19.2,13.2,-100.00,North,349,2.7,4.0,77,0.00,,,0.00,VWS V14.01,2013-01-02 00:03:00,
2013-01-01 16:04:00,19.0,13.0,-100.00,East,80,2.7,2.7,77,0.00,,---,0.00,VWS V14.01,2013-01-02 00:04:00,
2013-01-01 16:05:00,19.0,13.0,-100.00,North,0,0.0,2.7,77,0.00,,,0.00,VWS V14.01,2013-01-02 00:05:00,
2013-01-01 16:06:00,19.0,13.0,-100.00,North,353,0.0,0.0,77,0.00,,,0.00,VWS V14.01,2013-01-02 00:06:00,
2013-01-01 16:07:00,19.0,13.0,-100.00,NNW,344,3.1,3.1,77,0.00,,,0.00,VWS V14.01,2013-01-02 00:07:00,
2013-01-01 16:08:00,19.0,13.0,-100.00,NNE,22,4.0,4.0,77,0.00,,,0.00,VWS V14.01,2013-01-02 00:08:00,
2013-01-01 16:09:00,19.0,13.3,-100.00,NE,49,3.6,5.4,78,0.00,,---,0.00,VWS V14.01,2013-01-02 00:09:00,
2013-01-01 16:10:00,19.0,13.3,-100.00,North,1,2.7,5.4,78,0.00,,,0.00,VWS V14.01,2013-01-02 00:10:00,
2013-01-01 16:11:00,19.0,13.3,-100.00,North,0,2.7,4.0,78,0.00,,,0.00,VWS V14.01,2013-01-02 00:11:00,
2013-01-01 16:12:00,19.0,13.3,-100.00,North,0,0.0,2.7,78,0.00,,,0.00,VWS V14.01,2013-01-02 00:12:00,
2013-01-01 16:13:00,19.0,13.3,-100.00,NNE,20,0.0,4.5,78,0.00,,,0.00,VWS V14.01,2013-01-02 00:13:00,
2013-01-01 16:14:00,19.0,13.3,-100.00,NNE,20,0.0,0.0,78,0.00,,---,0.00,VWS V14.01,2013-01-02 00:14:00,
2013-01-01 16:15:00,19.0,13.3,-100.00,NNW,332,0.0,0.0,78,0.00,,,0.00,VWS V14.01,2013-01-02 00:15:00,
2013-01-01 16:16:00,19.0,13.3,-100.00,NNE,27,0.0,2.2,78,0.00,,,0.00,VWS V14.01,2013-01-02 00:16:00,
2013-01-01 16:17:00,19.0,13.3,-100.00,North,353,0.0,4.0,78,0.00,,,0.00,VWS V14.01,2013-01-02 00:17:00,
2013-01-01 16:18:00,19.0,13.6,-100.00,East,86,0.0,2.7,79,0.00,,,0.00,VWS V14.01,2013-01-02 00:18:00,
2013-01-01 16:19:00,19.0,13.6,-100.00,NNE,18,0.0,2.2,79,0.00,,---,0.00,VWS V14.01,2013-01-02 00:19:00,
2013-01-01 16:20:00,19.0,13.6,-100.00,North,349,3.1,3.1,79,0.00,,,0.00,VWS V14.01,2013-01-02 00:20:00,
2013-01-01 16:21:00,19.0,13.6,-100.00,NW,324,2.7,4.9,79,0.00,,,0.00,VWS V14.01,2013-01-02 00:21:00,
2013-01-01 16:22:00,18.9,13.4,-100.00,North,11,0.0,2.7,79,0.00,,,0.00,VWS V14.01,2013-01-02 00:22:00,
2013-01-01 16:23:00,19.0,13.6,-100.00,NNW,336,3.6,3.6,79,0.00,,,0.00,VWS V14.01,2013-01-02 00:23:00,
2013-01-01 16:24:00,18.9,13.4,-100.00,North,357,0.0,4.0,79,0.00,,---,0.00,VWS V14.01,2013-01-02 00:24:00,
2013-01-01 16:25:00,18.9,13.4,-100.00,North,353,0.0,4.0,79,0.00,,,0.00,VWS V14.01,2013-01-02 00:25:00,
2013-01-01 16:26:00,18.9,13.4,-100.00,North,353,0.0,0.0,79,0.00,,,0.00,VWS V14.01,2013-01-02 00:26:00,
2013-01-01 16:27:00,18.9,13.4,-100.00,North,357,0.0,4.9,79,0.00,,,0.00,VWS V14.01,2013-01-02 00:27:00,
2013-01-01 16:28:00,18.9,13.4,-100.00,North,4,3.1,3.1,79,0.00,,,0.00,VWS V14.01,2013-01-02 00:28:00,
2013-01-01 16:29:00,18.9,13.7,-100.00,North,357,5.4,5.4,80,0.00,,---,0.00,VWS V14.01,2013-01-02 00:29:00,
2013-01-01 16:30:00,18.7,13.6,-100.00,NNE,30,3.1,5.4,80,0.00,,,0.00,VWS V14.01,2013-01-02 00:30:00,
2013-01-01 16:31:00,18.7,13.6,-100.00,NNW,329,4.0,4.0,80,0.00,,,0.00,VWS V14.01,2013-01-02 00:31:00,
2013-01-01 16:32:00,18.7,13.6,-100.00,NNW,337,0.0,4.0,80,0.00,,,0.00,VWS V14.01,2013-01-02 00:32:00,
2013-01-01 16:33:00,18.7,13.6,-100.00,NNW,337,0.0,0.0,80,0.00,,,0.00,VWS V14.01,2013-01-02 00:33:00,
2013-01-01 16:34:00,18.7,13.6,-100.00,North,349,4.9,5.8,80,0.00,,---,0.00,VWS V14.01,2013-01-02 00:34:00,
2013-01-01 16:35:00,18.7,13.6,-100.00,NNW,335,3.1,5.8,80,0.00,,,0.00,VWS V14.01,2013-01-02 00:35:00,
2013-01-01 16:36:00,18.7,13.6,-100.00,North,350,2.2,3.1,80,0.00,,,0.00,VWS V14.01,2013-01-02 00:36:00,
2013-01-01 16:37:00,18.7,13.6,-100.00,NNW,338,0.0,2.2,80,0.00,,,0.00,VWS V14.01,2013-01-02 00:37:00,
2013-01-01 16:38:00,18.7,13.8,-100.00,North,3,2.7,6.3,81,0.00,,,0.00,VWS V14.01,2013-01-02 00:38:00,
2013-01-01 16:39:00,18.7,13.8,-100.00,NNW,337,0.0,0.0,81,0.00,,---,0.00,VWS V14.01,2013-01-02 00:39:00,
2013-01-01 16:40:00,18.7,13.8,-100.00,North,0,5.4,5.4,81,0.00,,,0.00,VWS V14.01,2013-01-02 00:40:00,
2013-01-01 16:41:00,18.7,13.8,-100.00,North,353,0.0,5.4,81,0.00,,,0.00,VWS V14.01,2013-01-02 00:41:00,
2013-01-01 16:42:00,18.7,13.8,-100.00,NNE,24,3.6,3.6,81,0.00,,,0.00,VWS V14.01,2013-01-02 00:42:00,
2013-01-01 16:43:00,18.7,13.8,-100.00,NNE,25,0.0,3.6,81,0.00,,,0.00,VWS V14.01,2013-01-02 00:43:00,
2013-01-01 16:44:00,18.5,13.6,-100.00,North,353,0.0,2.2,81,0.00,,---,0.00,VWS V14.01,2013-01-02 00:44:00,
2013-01-01 16:45:00,18.5,13.6,-100.00,North,5,0.0,2.2,81,0.00,,,0.00,VWS V14.01,2013-01-02 00:45:00,
2013-01-01 16:46:00,18.5,13.6,-100.00,North,8,4.0,4.0,81,0.00,,,0.00,VWS V14.01,2013-01-02 00:46:00,
2013-01-01 16:47:00,18.5,13.6,-100.00,ENE,58,0.0,4.0,81,0.00,,,0.00,VWS V14.01,2013-01-02 00:47:00,
2013-01-01 16:48:00,18.5,13.6,-100.00,ENE,62,2.7,2.7,81,0.00,,,0.00,VWS V14.01,2013-01-02 00:48:00,
2013-01-01 16:49:00,18.5,13.6,-100.00,East,88,0.0,0.0,81,0.00,,---,0.00,VWS V14.01,2013-01-02 00:49:00,
2013-01-01 16:50:00,18.5,13.9,-100.00,NW,311,2.7,2.7,82,0.00,,,0.00,VWS V14.01,2013-01-02 00:50:00,
2013-01-01 16:51:00,18.5,13.9,-100.00,North,2,2.2,3.1,82,0.00,,,0.00,VWS V14.01,2013-01-02 00:51:00,
2013-01-01 16:52:00,18.3,13.8,-100.00,North,0,3.6,3.6,82,0.00,,,0.00,VWS V14.01,2013-01-02 00:52:00,
2013-01-01 16:53:00,18.3,13.8,-100.00,North,7,3.6,4.0,82,0.00,,,0.00,VWS V14.01,2013-01-02 00:53:00,
2013-01-01 16:54:00,18.3,13.8,-100.00,NNW,340,3.1,3.1,82,0.00,,---,0.00,VWS V14.01,2013-01-02 00:54:00,
2013-01-01 16:55:00,18.3,13.8,-100.00,North,8,0.0,3.6,82,0.00,,,0.00,VWS V14.01,2013-01-02 00:55:00,
2013-01-01 16:56:00,18.3,13.8,-100.00,North,357,3.1,4.0,82,0.00,,,0.00,VWS V14.01,2013-01-02 00:56:00,
2013-01-01 16:57:00,18.3,13.8,-100.00,NE,53,0.0,3.1,82,0.00,,,0.00,VWS V14.01,2013-01-02 00:57:00,
2013-01-01 16:58:00,18.3,14.0,-100.00,NNE,15,2.7,2.7,83,0.00,,,0.00,VWS V14.01,2013-01-02 00:58:00,
2013-01-01 16:59:00,18.3,14.0,-100.00,North,5,0.0,0.0,83,0.00,,---,0.00,VWS V14.01,2013-01-02 00:59:00,
2013-01-01 17:00:00,18.3,14.0,-100.00,North,353,2.2,6.3,83,0.00,,,0.00,VWS V14.01,2013-01-02 01:00:00,
2013-01-01 17:01:00,18.3,14.0,-100.00,NNW,345,0.0,2.7,83,0.00,,,0.00,VWS V14.01,2013-01-02 01:01:00,
2013-01-01 17:02:00,18.3,14.0,-100.00,NE,47,3.6,5.4,83,0.00,,,0.00,VWS V14.01,2013-01-02 01:02:00,
2013-01-01 17:03:00,18.3,14.0,-100.00,East,81,0.0,3.6,83,0.00,,,0.00,VWS V14.01,2013-01-02 01:03:00,
2013-01-01 17:04:00,18.3,14.0,-100.00,ENE,73,0.0,0.0,83,0.00,,---,0.00,VWS V14.01,2013-01-02 01:04:00,
2013-01-01 17:05:00,18.3,14.0,-100.00,North,357,0.0,0.0,83,0.00,,,0.00,VWS V14.01,2013-01-02 01:05:00,
2013-01-01 17:06:00,18.1,13.9,-100.00,North,357,0.0,0.0,83,0.00,,,0.00,VWS V14.01,2013-01-02 01:06:00,
2013-01-01 17:07:00,18.1,13.9,-100.00,North,357,0.0,0.0,83,0.00,,,0.00,VWS V14.01,2013-01-02 01:07:00,
2013-01-01 17:08:00,18.1,14.1,-100.00,North,357,0.0,0.0,84,0.00,,,0.00,VWS V14.01,2013-01-02 01:08:00,
2013-01-01 17:09:00,18.1,14.1,-100.00,North,10,0.0,0.0,84,0.00,,---,0.00,VWS V14.01,2013-01-02 01:09:00,
2013-01-01 17:10:00,18.1,14.1,-100.00,North,0,3.1,3.6,84,0.00,,,0.00,VWS V14.01,2013-01-02 01:10:00,
2013-01-01 17:11:00,18.1,14.1,-100.00,NNW,327,2.7,3.1,84,0.00,,,0.00,VWS V14.01,2013-01-02 01:11:00,
2013-01-01 17:12:00,18.1,14.1,-100.00,North,0,0.0,2.7,84,0.00,,,0.00,VWS V14.01,2013-01-02 01:12:00,
2013-01-01 17:13:00,18.1,14.1,-100.00,North,0,0.0,0.0,84,0.00,,,0.00,VWS V14.01,2013-01-02 01:13:00,
2013-01-01 17:14:00,18.1,14.4,-100.00,North,2,4.5,4.5,85,0.00,,---,0.00,VWS V14.01,2013-01-02 01:14:00,
2013-01-01 17:15:00,18.1,14.4,-100.00,NW,316,0.0,4.5,85,0.00,,,0.00,VWS V14.01,2013-01-02 01:15:00,
2013-01-01 17:16:00,18.1,14.4,-100.00,NNW,348,2.2,4.5,85,0.00,,,0.00,VWS V14.01,2013-01-02 01:16:00,
2013-01-01 17:17:00,18.1,14.4,-100.00,North,353,2.7,2.7,85,0.00,,,0.00,VWS V14.01,2013-01-02 01:17:00,
2013-01-01 17:18:00,18.1,14.4,-100.00,North,353,0.0,2.7,85,0.00,,,0.00,VWS V14.01,2013-01-02 01:18:00,
2013-01-01 17:19:00,18.1,14.4,-100.00,NNW,342,0.0,0.0,85,0.00,,---,0.00,VWS V14.01,2013-01-02 01:19:00,
2013-01-01 17:20:00,18.1,14.4,-100.00,North,357,2.2,2.2,85,0.00,,,0.00,VWS V14.01,2013-01-02 01:20:00,
2013-01-01 17:21:00,18.1,14.4,-100.00,North,357,0.0,3.6,85,0.00,,,0.00,VWS V14.01,2013-01-02 01:21:00,
2013-01-01 17:22:00,18.1,14.4,-100.00,North,7,0.0,3.1,85,0.00,,,0.00,VWS V14.01,2013-01-02 01:22:00,
2013-01-01 17:23:00,18.1,14.4,-100.00,North,7,0.0,0.0,85,0.00,,,0.00,VWS V14.01,2013-01-02 01:23:00,
2013-01-01 17:24:00,18.1,14.7,-100.00,NNW,338,0.0,0.0,86,0.00,,---,0.00,VWS V14.01,2013-01-02 01:24:00,
2013-01-01 17:25:00,18.1,14.7,-100.00,NNW,336,0.0,4.0,86,0.00,,,0.00,VWS V14.01,2013-01-02 01:25:00,
2013-01-01 17:26:00,18.1,14.7,-100.00,North,357,0.0,0.0,86,0.00,,,0.00,VWS V14.01,2013-01-02 01:26:00,
2013-01-01 17:27:00,18.1,14.7,-100.00,North,357,2.2,3.1,86,0.00,,,0.00,VWS V14.01,2013-01-02 01:27:00,
2013-01-01 17:28:00,18.1,14.7,-100.00,NE,40,0.0,3.1,86,0.00,,,0.00,VWS V14.01,2013-01-02 01:28:00,
2013-01-01 17:29:00,18.0,14.5,-100.00,NW,321,3.1,3.1,86,0.00,,---,0.00,VWS V14.01,2013-01-02 01:29:00,
2013-01-01 17:30:00,18.0,14.5,-100.00,North,353,2.2,4.0,86,0.00,,,0.00,VWS V14.01,2013-01-02 01:30:00,
2013-01-01 17:31:00,18.0,14.5,-100.00,NNW,340,2.2,3.6,86,0.00,,,0.00,VWS V14.01,2013-01-02 01:31:00,
2013-01-01 17:32:00,17.8,14.3,-100.00,North,353,2.2,3.6,86,0.00,,,0.00,VWS V14.01,2013-01-02 01:32:00,
2013-01-01 17:33:00,17.8,14.3,-100.00,NNW,341,0.0,3.1,86,0.00,,,0.00,VWS V14.01,2013-01-02 01:33:00,
2013-01-01 17:34:00,17.8,14.3,-100.00,NNW,338,2.7,4.9,86,0.00,,---,0.00,VWS V14.01,2013-01-02 01:34:00,
2013-01-01 17:35:00,17.8,14.3,-100.00,ENE,71,3.1,4.9,86,0.00,,,0.00,VWS V14.01,2013-01-02 01:35:00,
2013-01-01 17:36:00,17.8,14.3,-100.00,NNW,337,2.7,3.1,86,0.00,,,0.00,VWS V14.01,2013-01-02 01:36:00,
2013-01-01 17:37:00,17.8,14.6,-100.00,NNW,342,4.0,4.9,87,0.00,,,0.00,VWS V14.01,2013-01-02 01:37:00,
2013-01-01 17:38:00,17.8,14.6,-100.00,NNE,16,5.4,5.4,87,0.00,,,0.00,VWS V14.01,2013-01-02 01:38:00,
2013-01-01 17:39:00,17.8,14.6,-100.00,North,1,3.1,3.1,87,0.00,,---,0.00,VWS V14.01,2013-01-02 01:39:00,
2013-01-01 17:40:00,17.8,14.6,-100.00,NNE,29,4.9,4.9,87,0.00,,,0.00,VWS V14.01,2013-01-02 01:40:00,
2013-01-01 17:41:00,17.6,14.4,-100.00,ESE,114,0.0,4.9,87,0.00,,,0.00,VWS V14.01,2013-01-02 01:41:00,
2013-01-01 17:42:00,17.6,14.4,-100.00,NNW,343,0.0,0.0,87,0.00,,,0.00,VWS V14.01,2013-01-02 01:42:00,
2013-01-01 17:43:00,17.6,14.4,-100.00,North,0,4.0,4.0,87,0.00,,,0.00,VWS V14.01,2013-01-02 01:43:00,
2013-01-01 17:44:00,17.6,14.4,-100.00,NNW,332,0.0,0.0,87,0.00,,---,0.00,VWS V14.01,2013-01-02 01:44:00,
2013-01-01 17:45:00,17.6,14.7,-100.00,North,0,0.0,0.0,88,0.00,,,0.00,VWS V14.01,2013-01-02 01:45:00,
2013-01-01 17:46:00,17.6,14.7,-100.00,NNW,335,2.7,3.1,88,0.00,,,0.00,VWS V14.01,2013-01-02 01:46:00,
2013-01-01 17:47:00,17.6,14.7,-100.00,North,350,0.0,2.7,88,0.00,,,0.00,VWS V14.01,2013-01-02 01:47:00,
2013-01-01 17:48:00,17.6,14.7,-100.00,North,357,2.7,3.6,88,0.00,,,0.00,VWS V14.01,2013-01-02 01:48:00,
2013-01-01 17:49:00,17.6,14.4,-100.00,NW,324,2.7,2.7,87,0.00,,---,0.00,VWS V14.01,2013-01-02 01:49:00,
2013-01-01 17:50:00,17.6,14.4,-100.00,NNW,334,0.0,2.7,87,0.00,,,0.00,VWS V14.01,2013-01-02 01:50:00,
2013-01-01 17:51:00,17.6,14.4,-100.00,North,357,0.0,4.0,87,0.00,,,0.00,VWS V14.01,2013-01-02 01:51:00,
2013-01-01 17:52:00,17.6,14.4,-100.00,NNW,342,0.0,0.0,87,0.00,,,0.00,VWS V14.01,2013-01-02 01:52:00,
2013-01-01 17:53:00,17.6,14.4,-100.00,NNW,342,0.0,0.0,87,0.00,,,0.00,VWS V14.01,2013-01-02 01:53:00,
2013-01-01 17:54:00,17.6,14.4,-100.00,NNW,342,0.0,0.0,87,0.00,,---,0.00,VWS V14.01,2013-01-02 01:54:00,
2013-01-01 17:55:00,17.6,14.4,-100.00,NNE,15,0.0,0.0,87,0.00,,,0.00,VWS V14.01,2013-01-02 01:55:00,
2013-01-01 17:56:00,17.6,14.4,-100.00,NNE,12,0.0,0.0,87,0.00,,,0.00,VWS V14.01,2013-01-02 01:56:00,
2013-01-01 17:57:00,17.6,14.4,-100.00,North,357,0.0,0.0,87,0.00,,,0.00,VWS V14.01,2013-01-02 01:57:00,
2013-01-01 17:58:00,17.6,14.4,-100.00,NNW,346,4.0,4.0,87,0.00,,,0.00,VWS V14.01,2013-01-02 01:58:00,
2013-01-01 17:59:00,17.6,14.7,-100.00,NNW,345,3.1,3.1,88,0.00,,---,0.00,VWS V14.01,2013-01-02 01:59:00,
2013-01-01 18:00:00,17.6,14.7,-100.00,North,353,0.0,3.1,88,0.00,,,0.00,VWS V14.01,2013-01-02 02:00:00,
2013-01-01 18:01:00,17.6,14.7,-100.00,North,353,0.0,0.0,88,0.00,,,0.00,VWS V14.01,2013-01-02 02:01:00,
2013-01-01 18:02:00,17.6,14.7,-100.00,North,353,0.0,0.0,88,0.00,,,0.00,VWS V14.01,2013-01-02 02:02:00,
2013-01-01 18:03:00,17.6,14.7,-100.00,North,353,0.0,0.0,88,0.00,,,0.00,VWS V14.01,2013-01-02 02:03:00,
2013-01-01 18:04:00,17.6,14.7,-100.00,North,353,0.0,0.0,88,0.00,,---,0.00,VWS V14.01,2013-01-02 02:04:00,
2013-01-01 18:05:00,17.6,14.7,-100.00,NE,34,3.1,3.1,88,0.00,,,0.00,VWS V14.01,2013-01-02 02:05:00,
2013-01-01 18:06:00,17.6,14.4,-100.00,NW,322,0.0,3.6,87,0.00,,,0.00,VWS V14.01,2013-01-02 02:06:00,
2013-01-01 18:07:00,17.6,14.4,-100.00,NNW,341,3.1,3.1,87,0.00,,,0.00,VWS V14.01,2013-01-02 02:07:00,
2013-01-01 18:08:00,17.6,14.4,-100.00,NNW,332,2.7,3.1,87,0.00,,,0.00,VWS V14.01,2013-01-02 02:08:00,
2013-01-01 18:09:00,17.6,14.4,-100.00,North,357,2.7,2.7,87,0.00,,---,0.00,VWS V14.01,2013-01-02 02:09:00,
2013-01-01 18:10:00,17.6,14.4,-100.00,North,357,0.0,2.7,87,0.00,,,0.00,VWS V14.01,2013-01-02 02:10:00,
2013-01-01 18:11:00,17.4,14.2,-100.00,NNW,333,0.0,0.0,87,0.00,,,0.00,VWS V14.01,2013-01-02 02:11:00,
2013-01-01 18:12:00,17.4,14.2,-100.00,NNW,333,0.0,0.0,87,0.00,,,0.00,VWS V14.01,2013-01-02 02:12:00,
2013-01-01 18:13:00,17.4,14.2,-100.00,NNW,339,2.2,3.1,87,0.00,,,0.00,VWS V14.01,2013-01-02 02:13:00,
2013-01-01 18:14:00,17.4,14.2,-100.00,NNW,339,0.0,2.2,87,0.00,,---,0.00,VWS V14.01,2013-01-02 02:14:00,
2013-01-01 18:15:00,17.4,14.2,-100.00,NNW,339,0.0,0.0,87,0.00,,,0.00,VWS V14.01,2013-01-02 02:15:00,
2013-01-01 18:16:00,17.2,14.0,-100.00,NNW,339,0.0,0.0,87,0.00,,,0.00,VWS V14.01,2013-01-02 02:16:00,
2013-01-01 18:17:00,17.2,14.0,-100.00,NNW,339,0.0,0.0,87,0.00,,,0.00,VWS V14.01,2013-01-02 02:17:00,
2013-01-01 18:18:00,17.2,14.0,-100.00,NNW,339,0.0,0.0,87,0.00,,,0.00,VWS V14.01,2013-01-02 02:18:00,
2013-01-01 18:19:00,17.1,13.9,-100.00,NNW,340,0.0,0.0,87,0.00,,---,0.00,VWS V14.01,2013-01-02 02:19:00,
2013-01-01 18:20:00,17.1,13.9,-100.00,NNW,340,0.0,0.0,87,0.00,,,0.00,VWS V14.01,2013-01-02 02:20:00,
2013-01-01 18:21:00,17.1,13.9,-100.00,NNW,332,0.0,0.0,87,0.00,,,0.00,VWS V14.01,2013-01-02 02:21:00,
2013-01-01 18:22:00,17.1,13.9,-100.00,NNW,332,0.0,0.0,87,0.00,,,0.00,VWS V14.01,2013-01-02 02:22:00,
2013-01-01 18:23:00,17.1,13.9,-100.00,NNW,332,0.0,0.0,87,0.00,,,0.00,VWS V14.01,2013-01-02 02:23:00,
2013-01-01 18:24:00,17.1,13.9,-100.00,NNW,332,0.0,0.0,87,0.00,,---,0.00,VWS V14.01,2013-01-02 02:24:00,
2013-01-01 18:25:00,17.1,13.9,-100.00,NNW,332,0.0,0.0,87,0.00,,,0.00,VWS V14.01,2013-01-02 02:25:00,
2013-01-01 18:26:00,17.1,13.9,-100.00,NNW,332,0.0,0.0,87,0.00,,,0.00,VWS V14.01,2013-01-02 02:26:00,
2013-01-01 18:27:00,17.1,13.9,-100.00,NNW,332,0.0,0.0,87,0.00,,,0.00,VWS V14.01,2013-01-02 02:27:00,
2013-01-01 18:28:00,17.1,13.9,-100.00,NNW,332,0.0,0.0,87,0.00,,,0.00,VWS V14.01,2013-01-02 02:28:00,
2013-01-01 18:29:00,17.1,13.9,-100.00,NNE,33,0.0,0.0,87,0.00,,---,0.00,VWS V14.01,2013-01-02 02:29:00,
2013-01-01 18:30:00,17.1,13.9,-100.00,NNE,33,0.0,0.0,87,0.00,,,0.00,VWS V14.01,2013-01-02 02:30:00,
2013-01-01 18:31:00,17.1,13.9,-100.00,NNE,33,0.0,0.0,87,0.00,,,0.00,VWS V14.01,2013-01-02 02:31:00,
2013-01-01 18:32:00,17.1,13.9,-100.00,NNE,33,0.0,0.0,87,0.00,,,0.00,VWS V14.01,2013-01-02 02:32:00,
2013-01-01 18:33:00,17.1,13.9,-100.00,NNE,33,0.0,0.0,87,0.00,,,0.00,VWS V14.01,2013-01-02 02:33:00,
2013-01-01 18:34:00,17.1,13.9,-100.00,North,357,0.0,0.0,87,0.00,,---,0.00,VWS V14.01,2013-01-02 02:34:00,
2013-01-01 18:35:00,17.1,13.9,-100.00,NNE,23,0.0,0.0,87,0.00,,,0.00,VWS V14.01,2013-01-02 02:35:00,
2013-01-01 18:36:00,17.1,13.9,-100.00,NNE,22,0.0,0.0,87,0.00,,,0.00,VWS V14.01,2013-01-02 02:36:00,
2013-01-01 18:37:00,17.1,13.9,-100.00,NNE,22,0.0,0.0,87,0.00,,,0.00,VWS V14.01,2013-01-02 02:37:00,
2013-01-01 18:38:00,17.1,13.9,-100.00,NNE,22,0.0,0.0,87,0.00,,,0.00,VWS V14.01,2013-01-02 02:38:00,
2013-01-01 18:39:00,17.1,13.9,-100.00,NNE,22,0.0,0.0,87,0.00,,---,0.00,VWS V14.01,2013-01-02 02:39:00,
2013-01-01 18:40:00,17.1,13.9,-100.00,NNE,22,0.0,0.0,87,0.00,,,0.00,VWS V14.01,2013-01-02 02:40:00,
2013-01-01 18:41:00,17.1,13.9,-100.00,North,353,2.7,3.6,87,0.00,,,0.00,VWS V14.01,2013-01-02 02:41:00,
2013-01-01 18:42:00,17.1,13.9,-100.00,North,353,0.0,2.7,87,0.00,,,0.00,VWS V14.01,2013-01-02 02:42:00,
2013-01-01 18:43:00,17.1,13.9,-100.00,North,353,0.0,0.0,87,0.00,,,0.00,VWS V14.01,2013-01-02 02:43:00,
2013-01-01 18:44:00,17.1,13.9,-100.00,North,353,0.0,0.0,87,0.00,,---,0.00,VWS V14.01,2013-01-02 02:44:00,
2013-01-01 18:45:00,17.1,13.9,-100.00,North,353,0.0,0.0,87,0.00,,,0.00,VWS V14.01,2013-01-02 02:45:00,
2013-01-01 18:46:00,17.1,13.9,-100.00,North,353,0.0,0.0,87,0.00,,,0.00,VWS V14.01,2013-01-02 02:46:00,
2013-01-01 18:47:00,17.1,13.9,-100.00,North,353,0.0,0.0,87,0.00,,,0.00,VWS V14.01,2013-01-02 02:47:00,
2013-01-01 18:48:00,16.9,13.7,-100.00,North,353,0.0,0.0,87,0.00,,,0.00,VWS V14.01,2013-01-02 02:48:00,
2013-01-01 18:49:00,16.9,13.7,-100.00,North,353,0.0,0.0,87,0.00,,---,0.00,VWS V14.01,2013-01-02 02:49:00,
2013-01-01 18:50:00,16.9,13.7,-100.00,North,353,0.0,0.0,87,0.00,,,0.00,VWS V14.01,2013-01-02 02:50:00,
2013-01-01 18:51:00,17.1,13.9,-100.00,NNE,14,0.0,0.0,87,0.00,,,0.00,VWS V14.01,2013-01-02 02:51:00,
2013-01-01 18:52:00,17.1,13.9,-100.00,NNE,14,0.0,0.0,87,0.00,,,0.00,VWS V14.01,2013-01-02 02:52:00,
2013-01-01 18:53:00,17.1,13.9,-100.00,NNE,14,0.0,0.0,87,0.00,,,0.00,VWS V14.01,2013-01-02 02:53:00,
2013-01-01 18:54:00,17.1,14.1,-100.00,NNE,14,0.0,0.0,88,0.00,,---,0.00,VWS V14.01,2013-01-02 02:54:00,
2013-01-01 18:55:00,17.1,14.1,-100.00,NNE,14,0.0,0.0,88,0.00,,,0.00,VWS V14.01,2013-01-02 02:55:00,
2013-01-01 18:56:00,17.1,14.1,-100.00,North,0,0.0,0.0,88,0.00,,,0.00,VWS V14.01,2013-01-02 02:56:00,
2013-01-01 18:57:00,17.1,14.1,-100.00,NNW,342,0.0,0.0,88,0.00,,,0.00,VWS V14.01,2013-01-02 02:57:00,
2013-01-01 18:58:00,17.1,14.1,-100.00,NNW,342,0.0,0.0,88,0.00,,,0.00,VWS V14.01,2013-01-02 02:58:00,
2013-01-01 18:59:00,17.1,14.1,-100.00,NNW,342,0.0,0.0,88,0.00,,---,0.00,VWS V14.01,2013-01-02 02:59:00,
2013-01-01 19:00:00,17.1,14.1,-100.00,NNW,342,0.0,0.0,88,0.00,,,0.00,VWS V14.01,2013-01-02 03:00:00,
2013-01-01 19:01:00,17.1,14.1,-100.00,NNW,342,0.0,0.0,88,0.00,,,0.00,VWS V14.01,2013-01-02 03:01:00,
2013-01-01 19:02:00,17.1,14.1,-100.00,NNW,342,0.0,0.0,88,0.00,,,0.00,VWS V14.01,2013-01-02 03:02:00,
2013-01-01 19:03:00,17.1,14.1,-100.00,NNW,342,0.0,0.0,88,0.00,,,0.00,VWS V14.01,2013-01-02 03:03:00,
2013-01-01 19:04:00,17.1,14.1,-100.00,NNW,342,0.0,0.0,88,0.00,,---,0.00,VWS V14.01,2013-01-02 03:04:00,
2013-01-01 19:05:00,17.1,14.1,-100.00,NNW,342,0.0,0.0,88,0.00,,,0.00,VWS V14.01,2013-01-02 03:05:00,
2013-01-01 19:06:00,17.1,14.1,-100.00,NNW,342,0.0,0.0,88,0.00,,,0.00,VWS V14.01,2013-01-02 03:06:00,
2013-01-01 19:07:00,17.1,14.1,-100.00,NNE,23,0.0,0.0,88,0.00,,,0.00,VWS V14.01,2013-01-02 03:07:00,
2013-01-01 19:08:00,17.1,14.1,-100.00,NNE,19,0.0,0.0,88,0.00,,,0.00,VWS V14.01,2013-01-02 03:08:00,
2013-01-01 19:09:00,17.1,14.1,-100.00,NNE,19,0.0,0.0,88,0.00,,---,0.00,VWS V14.01,2013-01-02 03:09:00,
2013-01-01 19:10:00,16.9,13.9,-100.00,North,353,0.0,0.0,88,0.00,,,0.00,VWS V14.01,2013-01-02 03:10:00,
2013-01-01 19:11:00,16.9,13.9,-100.00,North,0,0.0,0.0,88,0.00,,,0.00,VWS V14.01,2013-01-02 03:11:00,
2013-01-01 19:12:00,16.9,13.9,-100.00,NNW,337,0.0,0.0,88,0.00,,,0.00,VWS V14.01,2013-01-02 03:12:00,
2013-01-01 19:13:00,16.9,13.9,-100.00,NNW,337,0.0,0.0,88,0.00,,,0.00,VWS V14.01,2013-01-02 03:13:00,
2013-01-01 19:14:00,16.9,13.9,-100.00,NNW,337,0.0,0.0,88,0.00,,---,0.00,VWS V14.01,2013-01-02 03:14:00,
2013-01-01 19:15:00,16.9,13.9,-100.00,NNW,337,0.0,0.0,88,0.00,,,0.00,VWS V14.01,2013-01-02 03:15:00,
2013-01-01 19:16:00,16.9,14.2,-100.00,NNW,337,0.0,0.0,89,0.00,,,0.00,VWS V14.01,2013-01-02 03:16:00,
2013-01-01 19:17:00,16.9,14.2,-100.00,NNW,337,0.0,0.0,89,0.00,,,0.00,VWS V14.01,2013-01-02 03:17:00,
2013-01-01 19:18:00,16.9,14.2,-100.00,NNW,337,0.0,0.0,89,0.00,,,0.00,VWS V14.01,2013-01-02 03:18:00,
2013-01-01 19:19:00,16.9,14.2,-100.00,NNW,337,0.0,0.0,89,0.00,,---,0.00,VWS V14.01,2013-01-02 03:19:00,
2013-01-01 19:20:00,16.9,14.2,-100.00,NNW,337,0.0,0.0,89,0.00,,,0.00,VWS V14.01,2013-01-02 03:20:00,
2013-01-01 19:21:00,16.9,14.2,-100.00,NNW,340,0.0,0.0,89,0.00,,,0.00,VWS V14.01,2013-01-02 03:21:00,
2013-01-01 19:22:00,16.9,14.2,-100.00,NNW,340,0.0,0.0,89,0.00,,,0.00,VWS V14.01,2013-01-02 03:22:00,
2013-01-01 19:23:00,16.7,14.0,-100.00,NNW,340,0.0,0.0,89,0.00,,,0.00,VWS V14.01,2013-01-02 03:23:00,
2013-01-01 19:24:00,16.7,14.0,-100.00,NNW,340,0.0,0.0,89,0.00,,---,0.00,VWS V14.01,2013-01-02 03:24:00,
2013-01-01 19:25:00,16.7,14.0,-100.00,NNW,340,0.0,0.0,89,0.00,,,0.00,VWS V14.01,2013-01-02 03:25:00,
2013-01-01 19:26:00,16.7,14.0,-100.00,NNW,340,0.0,0.0,89,0.00,,,0.00,VWS V14.01,2013-01-02 03:26:00,
2013-01-01 19:27:00,16.7,14.0,-100.00,NNW,340,0.0,0.0,89,0.00,,,0.00,VWS V14.01,2013-01-02 03:27:00,
2013-01-01 19:28:00,16.7,14.0,-100.00,NNW,340,0.0,0.0,89,0.00,,,0.00,VWS V14.01,2013-01-02 03:28:00,
2013-01-01 19:29:00,16.7,14.0,-100.00,NNW,340,0.0,0.0,89,0.00,,---,0.00,VWS V14.01,2013-01-02 03:29:00,
2013-01-01 19:30:00,16.7,14.0,-100.00,NNE,28,0.0,0.0,89,0.00,,,0.00,VWS V14.01,2013-01-02 03:30:00,
2013-01-01 19:31:00,16.7,14.0,-100.00,NE,43,0.0,0.0,89,0.00,,,0.00,VWS V14.01,2013-01-02 03:31:00,
2013-01-01 19:32:00,16.9,14.2,-100.00,NE,43,0.0,0.0,89,0.00,,,0.00,VWS V14.01,2013-01-02 03:32:00,
2013-01-01 19:33:00,16.9,14.2,-100.00,NE,43,0.0,0.0,89,0.00,,,0.00,VWS V14.01,2013-01-02 03:33:00,
2013-01-01 19:34:00,16.9,14.2,-100.00,NE,43,0.0,0.0,89,0.00,,---,0.00,VWS V14.01,2013-01-02 03:34:00,
2013-01-01 19:35:00,16.9,14.2,-100.00,NE,43,0.0,0.0,89,0.00,,,0.00,VWS V14.01,2013-01-02 03:35:00,
2013-01-01 19:36:00,16.9,14.2,-100.00,NE,43,0.0,0.0,89,0.00,,,0.00,VWS V14.01,2013-01-02 03:36:00,
2013-01-01 19:37:00,16.9,14.2,-100.00,NE,43,0.0,0.0,89,0.00,,,0.00,VWS V14.01,2013-01-02 03:37:00,
2013-01-01 19:38:00,16.9,14.2,-100.00,North,357,0.0,0.0,89,0.00,,,0.00,VWS V14.01,2013-01-02 03:38:00,
2013-01-01 19:39:00,16.9,14.2,-100.00,North,357,0.0,0.0,89,0.00,,---,0.00,VWS V14.01,2013-01-02 03:39:00,
2013-01-01 19:40:00,16.9,14.2,-100.00,North,357,0.0,0.0,89,0.00,,,0.00,VWS V14.01,2013-01-02 03:40:00,
2013-01-01 19:41:00,16.9,14.2,-100.00,North,357,0.0,0.0,89,0.00,,,0.00,VWS V14.01,2013-01-02 03:41:00,
2013-01-01 19:42:00,16.9,14.2,-100.00,North,357,0.0,0.0,89,0.00,,,0.00,VWS V14.01,2013-01-02 03:42:00,
2013-01-01 19:43:00,16.9,14.2,-100.00,North,357,0.0,0.0,89,0.00,,,0.00,VWS V14.01,2013-01-02 03:43:00,
2013-01-01 19:44:00,17.1,14.4,-100.00,North,357,0.0,0.0,89,0.00,,---,0.00,VWS V14.01,2013-01-02 03:44:00,
2013-01-01 19:45:00,17.1,14.4,-100.00,North,357,0.0,0.0,89,0.00,,,0.00,VWS V14.01,2013-01-02 03:45:00,
2013-01-01 19:46:00,17.1,14.4,-100.00,North,357,0.0,0.0,89,0.00,,,0.00,VWS V14.01,2013-01-02 03:46:00,
2013-01-01 19:47:00,17.1,14.4,-100.00,North,357,0.0,0.0,89,0.00,,,0.00,VWS V14.01,2013-01-02 03:47:00,
2013-01-01 19:48:00,17.1,14.4,-100.00,North,357,0.0,0.0,89,0.00,,,0.00,VWS V14.01,2013-01-02 03:48:00,
2013-01-01 19:49:00,16.9,13.9,-100.00,North,357,0.0,0.0,88,0.00,,---,0.00,VWS V14.01,2013-01-02 03:49:00,
2013-01-01 19:50:00,16.9,13.9,-100.00,North,357,0.0,0.0,88,0.00,,,0.00,VWS V14.01,2013-01-02 03:50:00,
2013-01-01 19:51:00,16.9,13.9,-100.00,North,357,0.0,0.0,88,0.00,,,0.00,VWS V14.01,2013-01-02 03:51:00,
2013-01-01 19:52:00,16.9,13.9,-100.00,North,357,0.0,0.0,88,0.00,,,0.00,VWS V14.01,2013-01-02 03:52:00,
2013-01-01 19:53:00,16.9,13.9,-100.00,North,357,0.0,0.0,88,0.00,,,0.00,VWS V14.01,2013-01-02 03:53:00,
2013-01-01 19:54:00,16.9,13.9,-100.00,North,357,0.0,0.0,88,0.00,,---,0.00,VWS V14.01,2013-01-02 03:54:00,
2013-01-01 19:55:00,16.9,13.9,-100.00,North,357,0.0,0.0,88,0.00,,,0.00,VWS V14.01,2013-01-02 03:55:00,
2013-01-01 19:56:00,16.9,13.9,-100.00,North,357,0.0,0.0,88,0.00,,,0.00,VWS V14.01,2013-01-02 03:56:00,
2013-01-01 19:57:00,16.9,13.9,-100.00,NE,49,0.0,0.0,88,0.00,,,0.00,VWS V14.01,2013-01-02 03:57:00,
2013-01-01 19:58:00,16.9,13.9,-100.00,NE,49,0.0,0.0,88,0.00,,,0.00,VWS V14.01,2013-01-02 03:58:00,
2013-01-01 19:59:00,16.9,13.9,-100.00,NE,49,0.0,0.0,88,0.00,,---,0.00,VWS V14.01,2013-01-02 03:59:00,
2013-01-01 20:00:00,16.9,13.9,-100.00,NE,49,0.0,0.0,88,0.00,,,0.00,VWS V14.01,2013-01-02 04:00:00,
2013-01-01 20:01:00,16.9,13.9,-100.00,NE,49,0.0,0.0,88,0.00,,,0.00,VWS V14.01,2013-01-02 04:01:00,
2013-01-01 20:02:00,16.9,13.9,-100.00,NE,49,0.0,0.0,88,0.00,,,0.00,VWS V14.01,2013-01-02 04:02:00,
2013-01-01 20:03:00,16.9,13.9,-100.00,ENE,78,3.1,3.1,88,0.00,,,0.00,VWS V14.01,2013-01-02 04:03:00,
2013-01-01 20:04:00,16.9,13.9,-100.00,ENE,75,0.0,3.6,88,0.00,,---,0.00,VWS V14.01,2013-01-02 04:04:00,
2013-01-01 20:05:00,16.9,13.9,-100.00,ENE,76,0.0,0.0,88,0.00,,,0.00,VWS V14.01,2013-01-02 04:05:00,
2013-01-01 20:06:00,16.9,13.9,-100.00,ENE,76,0.0,0.0,88,0.00,,,0.00,VWS V14.01,2013-01-02 04:06:00,
2013-01-01 20:07:00,16.9,13.9,-100.00,ENE,76,0.0,0.0,88,0.00,,,0.00,VWS V14.01,2013-01-02 04:07:00,
2013-01-01 20:08:00,16.9,13.9,-100.00,ENE,76,0.0,0.0,88,0.00,,---,0.00,VWS V14.01,2013-01-02 04:08:00,
2013-01-01 20:32:00,16.9,13.9,-100.00,NNE,32,0.0,0.0,88,0.00,,---,0.00,VWS V14.01,2013-01-02 04:32:00,
2013-01-01 20:33:00,16.9,13.9,-100.00,NNE,32,0.0,0.0,88,0.00,,,0.00,VWS V14.01,2013-01-02 04:33:00,
2013-01-01 20:34:00,16.7,13.8,-100.00,NNE,32,0.0,0.0,88,0.00,,,0.00,VWS V14.01,2013-01-02 04:34:00,
2013-01-01 20:35:00,16.7,13.8,-100.00,NNE,32,0.0,0.0,88,0.00,,,0.00,VWS V14.01,2013-01-02 04:35:00,
2013-01-01 20:36:00,16.7,13.8,-100.00,NNE,32,0.0,0.0,88,0.00,,,0.00,VWS V14.01,2013-01-02 04:36:00,
2013-01-01 20:37:00,16.7,13.8,-100.00,NNE,32,0.0,0.0,88,0.00,,---,0.00,VWS V14.01,2013-01-02 04:37:00,
2013-01-01 20:38:00,16.7,13.8,-100.00,NNE,32,0.0,0.0,88,0.00,,,0.00,VWS V14.01,2013-01-02 04:38:00,
2013-01-01 20:39:00,16.9,13.9,-100.00,NNE,32,0.0,0.0,88,0.00,,,0.00,VWS V14.01,2013-01-02 04:39:00,
2013-01-01 20:40:00,16.9,13.9,-100.00,NNE,31,0.0,0.0,88,0.00,,,0.00,VWS V14.01,2013-01-02 04:40:00,
2013-01-01 20:41:00,16.9,13.9,-100.00,NNE,31,0.0,0.0,88,0.00,,,0.00,VWS V14.01,2013-01-02 04:41:00,
2013-01-01 20:42:00,16.9,13.9,-100.00,NNE,31,0.0,0.0,88,0.00,,---,0.00,VWS V14.01,2013-01-02 04:42:00,
2013-01-01 20:43:00,16.9,13.9,-100.00,NNE,31,0.0,0.0,88,0.00,,,0.00,VWS V14.01,2013-01-02 04:43:00,
2013-01-01 20:44:00,16.9,13.9,-100.00,NNE,31,0.0,0.0,88,0.00,,,0.00,VWS V14.01,2013-01-02 04:44:00,
2013-01-01 20:45:00,16.9,13.9,-100.00,NNE,31,0.0,0.0,88,0.00,,,0.00,VWS V14.01,2013-01-02 04:45:00,
2013-01-01 20:46:00,16.9,13.9,-100.00,NNW,334,0.0,0.0,88,0.00,,,0.00,VWS V14.01,2013-01-02 04:46:00,
2013-01-01 20:47:00,16.9,13.9,-100.00,North,353,0.0,0.0,88,0.00,,---,0.00,VWS V14.01,2013-01-02 04:47:00,
2013-01-01 20:48:00,16.9,13.9,-100.00,North,353,0.0,0.0,88,0.00,,,0.00,VWS V14.01,2013-01-02 04:48:00,
2013-01-01 20:49:00,17.1,14.1,-100.00,North,353,0.0,0.0,88,0.00,,,0.00,VWS V14.01,2013-01-02 04:49:00,
2013-01-01 20:50:00,17.1,14.1,-100.00,North,353,0.0,0.0,88,0.00,,,0.00,VWS V14.01,2013-01-02 04:50:00,
2013-01-01 20:51:00,17.1,14.1,-100.00,North,353,0.0,0.0,88,0.00,,,0.00,VWS V14.01,2013-01-02 04:51:00,
2013-01-01 20:52:00,17.1,14.1,-100.00,North,353,0.0,0.0,88,0.00,,---,0.00,VWS V14.01,2013-01-02 04:52:00,
2013-01-01 20:53:00,17.1,14.1,-100.00,North,353,0.0,0.0,88,0.00,,,0.00,VWS V14.01,2013-01-02 04:53:00,
2013-01-01 20:54:00,17.1,14.1,-100.00,North,353,0.0,0.0,88,0.00,,,0.00,VWS V14.01,2013-01-02 04:54:00,
2013-01-01 20:55:00,17.1,14.1,-100.00,North,353,0.0,0.0,88,0.00,,,0.00,VWS V14.01,2013-01-02 04:55:00,
2013-01-01 20:56:00,17.1,14.1,-100.00,North,353,0.0,0.0,88,0.00,,,0.00,VWS V14.01,2013-01-02 04:56:00,
2013-01-01 20:57:00,17.1,14.1,-100.00,North,353,0.0,0.0,88,0.00,,---,0.00,VWS V14.01,2013-01-02 04:57:00,
2013-01-01 20:58:00,17.1,14.1,-100.00,North,353,0.0,0.0,88,0.00,,,0.00,VWS V14.01,2013-01-02 04:58:00,
2013-01-01 20:59:00,17.1,14.1,-100.00,North,353,0.0,0.0,88,0.00,,,0.00,VWS V14.01,2013-01-02 04:59:00,
2013-01-01 21:00:00,17.2,14.3,-100.00,North,353,0.0,0.0,88,0.00,,---,0.00,VWS V14.01,2013-01-02 05:00:00,
2013-01-01 21:01:00,17.2,14.3,-100.00,ENE,57,0.0,0.0,88,0.00,,---,0.00,VWS V14.01,2013-01-02 05:01:00,
2013-01-01 21:02:00,17.1,14.1,-100.00,ENE,57,0.0,0.0,88,0.00,,,0.00,VWS V14.01,2013-01-02 05:02:00,
2013-01-01 21:03:00,17.1,14.1,-100.00,ENE,57,0.0,0.0,88,0.00,,,0.00,VWS V14.01,2013-01-02 05:03:00,
2013-01-01 21:04:00,17.1,14.1,-100.00,East,79,0.0,0.0,88,0.00,,,0.00,VWS V14.01,2013-01-02 05:04:00,
2013-01-01 21:05:00,17.1,14.1,-100.00,ENE,75,0.0,0.0,88,0.00,,,0.00,VWS V14.01,2013-01-02 05:05:00,
2013-01-01 21:06:00,17.1,13.9,-100.00,ENE,75,0.0,0.0,87,0.00,,---,0.00,VWS V14.01,2013-01-02 05:06:00,
2013-01-01 21:07:00,17.1,13.9,-100.00,ENE,75,0.0,0.0,87,0.00,,,0.00,VWS V14.01,2013-01-02 05:07:00,
2013-01-01 21:08:00,17.1,13.9,-100.00,ENE,75,0.0,0.0,87,0.00,,,0.00,VWS V14.01,2013-01-02 05:08:00,
2013-01-01 21:09:00,17.1,13.9,-100.00,ENE,75,0.0,0.0,87,0.00,,,0.00,VWS V14.01,2013-01-02 05:09:00,
2013-01-01 21:10:00,17.1,13.9,-100.00,ENE,74,0.0,0.0,87,0.00,,,0.00,VWS V14.01,2013-01-02 05:10:00,
2013-01-01 21:11:00,17.1,13.9,-100.00,ENE,74,0.0,0.0,87,0.00,,---,0.00,VWS V14.01,2013-01-02 05:11:00,
2013-01-01 21:12:00,17.1,13.9,-100.00,ENE,74,0.0,0.0,87,0.00,,,0.00,VWS V14.01,2013-01-02 05:12:00,
2013-01-01 21:13:00,17.1,13.9,-100.00,ENE,74,0.0,0.0,87,0.00,,,0.00,VWS V14.01,2013-01-02 05:13:00,
2013-01-01 21:14:00,17.1,13.9,-100.00,ENE,74,0.0,0.0,87,0.00,,,0.00,VWS V14.01,2013-01-02 05:14:00,
2013-01-01 21:15:00,17.1,13.9,-100.00,ENE,74,0.0,0.0,87,0.00,,,0.00,VWS V14.01,2013-01-02 05:15:00,
2013-01-01 21:16:00,17.1,13.9,-100.00,ENE,74,0.0,0.0,87,0.00,,---,0.00,VWS V14.01,2013-01-02 05:16:00,
2013-01-01 21:17:00,17.1,13.9,-100.00,ENE,74,0.0,0.0,87,0.00,,,0.00,VWS V14.01,2013-01-02 05:17:00,
2013-01-01 21:18:00,17.1,13.9,-100.00,ENE,74,0.0,0.0,87,0.00,,,0.00,VWS V14.01,2013-01-02 05:18:00,
2013-01-01 21:19:00,17.1,13.9,-100.00,ENE,74,0.0,0.0,87,0.00,,,0.00,VWS V14.01,2013-01-02 05:19:00,
2013-01-01 21:20:00,16.9,13.7,-100.00,ENE,74,0.0,0.0,87,0.00,,,0.00,VWS V14.01,2013-01-02 05:20:00,
2013-01-01 21:21:00,16.9,13.7,-100.00,ENE,74,0.0,0.0,87,0.00,,---,0.00,VWS V14.01,2013-01-02 05:21:00,
2013-01-01 21:22:00,16.9,13.7,-100.00,ENE,74,0.0,0.0,87,0.00,,,0.00,VWS V14.01,2013-01-02 05:22:00,
2013-01-01 21:23:00,16.9,13.7,-100.00,ENE,74,0.0,0.0,87,0.00,,,0.00,VWS V14.01,2013-01-02 05:23:00,
2013-01-01 21:24:00,16.9,13.7,-100.00,ENE,73,0.0,0.0,87,0.00,,,0.00,VWS V14.01,2013-01-02 05:24:00,
2013-01-01 21:25:00,16.9,13.7,-100.00,ENE,73,0.0,0.0,87,0.00,,,0.00,VWS V14.01,2013-01-02 05:25:00,
2013-01-01 21:26:00,16.9,13.7,-100.00,ENE,73,0.0,0.0,87,0.00,,---,0.00,VWS V14.01,2013-01-02 05:26:00,
2013-01-01 21:27:00,16.9,13.7,-100.00,ENE,73,0.0,0.0,87,0.00,,,0.00,VWS V14.01,2013-01-02 05:27:00,
2013-01-01 21:28:00,16.7,13.8,-100.00,ENE,73,0.0,0.0,88,0.00,,,0.00,VWS V14.01,2013-01-02 05:28:00,
2013-01-01 21:29:00,16.7,13.8,-100.00,ENE,73,0.0,0.0,88,0.00,,,0.00,VWS V14.01,2013-01-02 05:29:00,
2013-01-01 21:30:00,16.7,13.8,-100.00,ENE,73,0.0,0.0,88,0.00,,,0.00,VWS V14.01,2013-01-02 05:30:00,
2013-01-01 21:31:00,16.7,14.0,-100.00,NE,54,0.0,0.0,89,0.00,,---,0.00,VWS V14.01,2013-01-02 05:31:00,
2013-01-01 21:32:00,16.7,14.0,-100.00,NE,54,0.0,0.0,89,0.00,,,0.00,VWS V14.01,2013-01-02 05:32:00,
2013-01-01 21:33:00,16.7,14.0,-100.00,NE,54,0.0,0.0,89,0.00,,,0.00,VWS V14.01,2013-01-02 05:33:00,
2013-01-01 21:34:00,16.7,14.0,-100.00,NE,54,0.0,0.0,89,0.00,,,0.00,VWS V14.01,2013-01-02 05:34:00,
2013-01-01 21:35:00,16.7,14.0,-100.00,NE,54,0.0,0.0,89,0.00,,,0.00,VWS V14.01,2013-01-02 05:35:00,
2013-01-01 21:36:00,16.7,14.0,-100.00,NE,54,0.0,0.0,89,0.00,,---,0.00,VWS V14.01,2013-01-02 05:36:00,
2013-01-01 21:37:00,16.7,14.0,-100.00,NE,54,0.0,0.0,89,0.00,,,0.00,VWS V14.01,2013-01-02 05:37:00,
2013-01-01 21:38:00,16.7,14.3,-100.00,NE,54,0.0,0.0,90,0.00,,,0.00,VWS V14.01,2013-01-02 05:38:00,
2013-01-01 21:39:00,16.7,14.3,-100.00,NE,54,0.0,0.0,90,0.00,,,0.00,VWS V14.01,2013-01-02 05:39:00,
2013-01-01 21:40:00,16.7,14.3,-100.00,NNE,21,0.0,0.0,90,0.00,,,0.00,VWS V14.01,2013-01-02 05:40:00,
2013-01-01 21:41:00,16.7,14.3,-100.00,NNE,21,0.0,0.0,90,0.00,,---,0.00,VWS V14.01,2013-01-02 05:41:00,
2013-01-01 21:42:00,16.7,14.3,-100.00,West,280,0.0,0.0,90,0.00,,,0.00,VWS V14.01,2013-01-02 05:42:00,
2013-01-01 21:43:00,16.7,14.3,-100.00,WNW,283,0.0,0.0,90,0.00,,,0.00,VWS V14.01,2013-01-02 05:43:00,
2013-01-01 21:44:00,16.7,14.3,-100.00,WNW,283,0.0,0.0,90,0.00,,,0.00,VWS V14.01,2013-01-02 05:44:00,
2013-01-01 21:45:00,16.7,14.3,-100.00,WNW,285,0.0,0.0,90,0.00,,,0.00,VWS V14.01,2013-01-02 05:45:00,
2013-01-01 21:46:00,16.7,14.5,-100.00,WNW,285,0.0,0.0,91,0.00,,---,0.00,VWS V14.01,2013-01-02 05:46:00,
2013-01-01 21:47:00,16.7,14.5,-100.00,WNW,285,0.0,0.0,91,0.00,,,0.00,VWS V14.01,2013-01-02 05:47:00,
2013-01-01 21:48:00,16.7,14.5,-100.00,WNW,285,0.0,0.0,91,0.00,,,0.00,VWS V14.01,2013-01-02 05:48:00,
2013-01-01 21:49:00,16.7,14.5,-100.00,WNW,285,0.0,0.0,91,0.00,,,0.00,VWS V14.01,2013-01-02 05:49:00,
2013-01-01 21:50:00,16.7,14.5,-100.00,WNW,285,0.0,0.0,91,0.00,,,0.00,VWS V14.01,2013-01-02 05:50:00,
2013-01-01 21:51:00,16.7,14.5,-100.00,WNW,285,0.0,0.0,91,0.00,,---,0.00,VWS V14.01,2013-01-02 05:51:00,
2013-01-01 21:52:00,16.7,14.5,-100.00,WNW,285,0.0,0.0,91,0.00,,,0.00,VWS V14.01,2013-01-02 05:52:00,
2013-01-01 21:53:00,16.7,14.5,-100.00,WNW,285,0.0,0.0,91,0.00,,,0.00,VWS V14.01,2013-01-02 05:53:00,
2013-01-01 21:54:00,16.9,14.7,-100.00,WNW,285,0.0,0.0,91,0.00,,,0.00,VWS V14.01,2013-01-02 05:54:00,
2013-01-01 21:55:00,16.9,14.7,-100.00,WNW,285,0.0,0.0,91,0.00,,,0.00,VWS V14.01,2013-01-02 05:55:00,
2013-01-01 21:56:00,16.9,14.7,-100.00,WNW,285,0.0,0.0,91,0.00,,---,0.00,VWS V14.01,2013-01-02 05:56:00,